<?xml version="1.0" encoding="UTF-8" standalone="no" ?>
<gpx xmlns="http://www.topografix.com/GPX/1/1" xmlns:xsi="http://www.w3.org/2001/XMLSchema-instance" xsi:schemaLocation="http://www.topografix.com/GPX/1/1 http://www.topografix.com/GPX/1/1/gpx.xsd" version="1.1" creator="VisuGPX - https://www.visugpx.com">
  <metadata>
    <name>Enduros ADGS</name>
    <desc><![CDATA[Tout est propre après le Festibike 2017 du 14 octobre, y'a plus qu'à rouler !]]></desc>
  </metadata>
  <trk>
    <name><![CDATA[Festibike - Enduro ADGS]]></name>
    <trkseg>
      <trkpt lat="45.02862" lon="5.85697">
        <ele>1358</ele>
      </trkpt>
      <trkpt lat="45.02876" lon="5.85657">
        <ele>1356</ele>
      </trkpt>
      <trkpt lat="45.02911" lon="5.85629">
        <ele>1356</ele>
      </trkpt>
      <trkpt lat="45.0295" lon="5.85601">
        <ele>1358</ele>
      </trkpt>
      <trkpt lat="45.02978" lon="5.85583">
        <ele>1355</ele>
      </trkpt>
      <trkpt lat="45.03004" lon="5.85532">
        <ele>1359</ele>
      </trkpt>
      <trkpt lat="45.0302" lon="5.85486">
        <ele>1355</ele>
      </trkpt>
      <trkpt lat="45.03052" lon="5.85452">
        <ele>1357</ele>
      </trkpt>
      <trkpt lat="45.03072" lon="5.85434">
        <ele>1357</ele>
      </trkpt>
      <trkpt lat="45.03092" lon="5.85415">
        <ele>1359</ele>
      </trkpt>
      <trkpt lat="45.03112" lon="5.85375">
        <ele>1360</ele>
      </trkpt>
      <trkpt lat="45.03129" lon="5.8533">
        <ele>1355</ele>
      </trkpt>
      <trkpt lat="45.03145" lon="5.85293">
        <ele>1354</ele>
      </trkpt>
      <trkpt lat="45.03155" lon="5.85271">
        <ele>1353</ele>
      </trkpt>
      <trkpt lat="45.03159" lon="5.85263">
        <ele>1352</ele>
        <time>2017-10-14T07:10:34Z</time>
      </trkpt>
      <trkpt lat="45.03175" lon="5.85214">
        <ele>1352</ele>
        <time>2017-10-14T07:10:40Z</time>
      </trkpt>
      <trkpt lat="45.03178" lon="5.85205">
        <ele>1352</ele>
        <time>2017-10-14T07:10:41Z</time>
      </trkpt>
      <trkpt lat="45.03182" lon="5.852">
        <ele>1351</ele>
        <time>2017-10-14T07:10:42Z</time>
      </trkpt>
      <trkpt lat="45.0321" lon="5.85181">
        <ele>1353</ele>
        <time>2017-10-14T07:10:49Z</time>
      </trkpt>
      <trkpt lat="45.03213" lon="5.85179">
        <ele>1353</ele>
        <time>2017-10-14T07:10:50Z</time>
      </trkpt>
      <trkpt lat="45.03216" lon="5.85176">
        <ele>1353</ele>
        <time>2017-10-14T07:10:51Z</time>
      </trkpt>
      <trkpt lat="45.03218" lon="5.85173">
        <ele>1354</ele>
        <time>2017-10-14T07:10:52Z</time>
      </trkpt>
      <trkpt lat="45.03278" lon="5.85149">
        <ele>1356</ele>
        <time>2017-10-14T07:11:20Z</time>
      </trkpt>
      <trkpt lat="45.03283" lon="5.85149">
        <ele>1356</ele>
        <time>2017-10-14T07:11:22Z</time>
      </trkpt>
      <trkpt lat="45.03288" lon="5.85151">
        <ele>1357</ele>
        <time>2017-10-14T07:11:24Z</time>
      </trkpt>
      <trkpt lat="45.03293" lon="5.85151">
        <ele>1357</ele>
        <time>2017-10-14T07:11:26Z</time>
      </trkpt>
      <trkpt lat="45.03298" lon="5.85152">
        <ele>1357</ele>
        <time>2017-10-14T07:11:28Z</time>
      </trkpt>
      <trkpt lat="45.0334" lon="5.85153">
        <ele>1364</ele>
        <time>2017-10-14T07:11:46Z</time>
      </trkpt>
      <trkpt lat="45.03343" lon="5.85152">
        <ele>1365</ele>
        <time>2017-10-14T07:11:48Z</time>
      </trkpt>
      <trkpt lat="45.03369" lon="5.85127">
        <ele>1365</ele>
        <time>2017-10-14T07:12:04Z</time>
      </trkpt>
      <trkpt lat="45.03372" lon="5.85124">
        <ele>1365</ele>
        <time>2017-10-14T07:12:06Z</time>
      </trkpt>
      <trkpt lat="45.03375" lon="5.85121">
        <ele>1365</ele>
        <time>2017-10-14T07:12:08Z</time>
      </trkpt>
      <trkpt lat="45.03378" lon="5.85118">
        <ele>1365</ele>
        <time>2017-10-14T07:12:10Z</time>
      </trkpt>
      <trkpt lat="45.03382" lon="5.85116">
        <ele>1365</ele>
        <time>2017-10-14T07:12:12Z</time>
      </trkpt>
      <trkpt lat="45.03386" lon="5.85115">
        <ele>1365</ele>
        <time>2017-10-14T07:12:14Z</time>
      </trkpt>
      <trkpt lat="45.03422" lon="5.85109">
        <ele>1372</ele>
        <time>2017-10-14T07:12:36Z</time>
      </trkpt>
      <trkpt lat="45.03439" lon="5.85121">
        <ele>1374</ele>
        <time>2017-10-14T07:12:48Z</time>
      </trkpt>
      <trkpt lat="45.03442" lon="5.85123">
        <ele>1374</ele>
        <time>2017-10-14T07:12:50Z</time>
      </trkpt>
      <trkpt lat="45.03445" lon="5.85126">
        <ele>1374</ele>
        <time>2017-10-14T07:12:52Z</time>
      </trkpt>
      <trkpt lat="45.03448" lon="5.85128">
        <ele>1374</ele>
        <time>2017-10-14T07:12:54Z</time>
      </trkpt>
      <trkpt lat="45.03458" lon="5.85135">
        <ele>1375</ele>
        <time>2017-10-14T07:13:03Z</time>
      </trkpt>
      <trkpt lat="45.03461" lon="5.85137">
        <ele>1376</ele>
        <time>2017-10-14T07:13:05Z</time>
      </trkpt>
      <trkpt lat="45.03499" lon="5.85161">
        <ele>1381</ele>
        <time>2017-10-14T07:13:41Z</time>
      </trkpt>
      <trkpt lat="45.03496" lon="5.85163">
        <ele>1381</ele>
        <time>2017-10-14T07:13:43Z</time>
      </trkpt>
      <trkpt lat="45.03493" lon="5.85166">
        <ele>1381</ele>
        <time>2017-10-14T07:13:45Z</time>
      </trkpt>
      <trkpt lat="45.0349" lon="5.85168">
        <ele>1383</ele>
        <time>2017-10-14T07:13:47Z</time>
      </trkpt>
      <trkpt lat="45.03474" lon="5.85187">
        <ele>1384</ele>
        <time>2017-10-14T07:14:00Z</time>
      </trkpt>
      <trkpt lat="45.03472" lon="5.85191">
        <ele>1384</ele>
        <time>2017-10-14T07:14:03Z</time>
      </trkpt>
      <trkpt lat="45.03461" lon="5.85209">
        <ele>1385</ele>
        <time>2017-10-14T07:14:13Z</time>
      </trkpt>
      <trkpt lat="45.03458" lon="5.85212">
        <ele>1385</ele>
        <time>2017-10-14T07:14:15Z</time>
      </trkpt>
      <trkpt lat="45.03457" lon="5.85216">
        <ele>1385</ele>
        <time>2017-10-14T07:14:17Z</time>
      </trkpt>
      <trkpt lat="45.03455" lon="5.8522">
        <ele>1385</ele>
        <time>2017-10-14T07:14:19Z</time>
      </trkpt>
      <trkpt lat="45.0345" lon="5.85231">
        <ele>1386</ele>
        <time>2017-10-14T07:14:25Z</time>
      </trkpt>
      <trkpt lat="45.03448" lon="5.85235">
        <ele>1386</ele>
        <time>2017-10-14T07:14:27Z</time>
      </trkpt>
      <trkpt lat="45.03446" lon="5.85239">
        <ele>1386</ele>
        <time>2017-10-14T07:14:29Z</time>
      </trkpt>
      <trkpt lat="45.03445" lon="5.85242">
        <ele>1386</ele>
        <time>2017-10-14T07:14:31Z</time>
      </trkpt>
      <trkpt lat="45.03412" lon="5.85294">
        <ele>1392</ele>
        <time>2017-10-14T07:14:59Z</time>
      </trkpt>
      <trkpt lat="45.03409" lon="5.85297">
        <ele>1393</ele>
        <time>2017-10-14T07:15:01Z</time>
      </trkpt>
      <trkpt lat="45.03395" lon="5.85314">
        <ele>1394</ele>
        <time>2017-10-14T07:15:11Z</time>
      </trkpt>
      <trkpt lat="45.03392" lon="5.85318">
        <ele>1394</ele>
        <time>2017-10-14T07:15:13Z</time>
      </trkpt>
      <trkpt lat="45.03381" lon="5.85337">
        <ele>1403</ele>
        <time>2017-10-14T07:15:23Z</time>
      </trkpt>
      <trkpt lat="45.03378" lon="5.85342">
        <ele>1403</ele>
        <time>2017-10-14T07:15:25Z</time>
      </trkpt>
      <trkpt lat="45.03374" lon="5.85349">
        <ele>1404</ele>
        <time>2017-10-14T07:15:29Z</time>
      </trkpt>
      <trkpt lat="45.03372" lon="5.85353">
        <ele>1404</ele>
        <time>2017-10-14T07:15:31Z</time>
      </trkpt>
      <trkpt lat="45.03357" lon="5.85375">
        <ele>1405</ele>
        <time>2017-10-14T07:15:43Z</time>
      </trkpt>
      <trkpt lat="45.03356" lon="5.85379">
        <ele>1406</ele>
        <time>2017-10-14T07:15:45Z</time>
      </trkpt>
      <trkpt lat="45.03336" lon="5.85406">
        <ele>1408</ele>
        <time>2017-10-14T07:16:01Z</time>
      </trkpt>
      <trkpt lat="45.03333" lon="5.85409">
        <ele>1408</ele>
        <time>2017-10-14T07:16:03Z</time>
      </trkpt>
      <trkpt lat="45.03314" lon="5.85426">
        <ele>1409</ele>
        <time>2017-10-14T07:16:15Z</time>
      </trkpt>
      <trkpt lat="45.03311" lon="5.85429">
        <ele>1409</ele>
        <time>2017-10-14T07:16:17Z</time>
      </trkpt>
      <trkpt lat="45.03291" lon="5.85456">
        <ele>1409</ele>
        <time>2017-10-14T07:16:34Z</time>
      </trkpt>
      <trkpt lat="45.03289" lon="5.85459">
        <ele>1409</ele>
        <time>2017-10-14T07:16:36Z</time>
      </trkpt>
      <trkpt lat="45.03254" lon="5.85531">
        <ele>1426</ele>
        <time>2017-10-14T07:17:12Z</time>
      </trkpt>
      <trkpt lat="45.03251" lon="5.85534">
        <ele>1426</ele>
        <time>2017-10-14T07:17:14Z</time>
      </trkpt>
      <trkpt lat="45.03244" lon="5.85544">
        <ele>1414</ele>
        <time>2017-10-14T07:17:20Z</time>
      </trkpt>
      <trkpt lat="45.03242" lon="5.85548">
        <ele>1415</ele>
        <time>2017-10-14T07:17:22Z</time>
      </trkpt>
      <trkpt lat="45.03208" lon="5.85627">
        <ele>1429</ele>
        <time>2017-10-14T07:18:02Z</time>
      </trkpt>
      <trkpt lat="45.03206" lon="5.85632">
        <ele>1430</ele>
        <time>2017-10-14T07:18:05Z</time>
      </trkpt>
      <trkpt lat="45.03202" lon="5.85661">
        <ele>1431</ele>
        <time>2017-10-14T07:18:17Z</time>
      </trkpt>
      <trkpt lat="45.032" lon="5.85665">
        <ele>1431</ele>
        <time>2017-10-14T07:18:19Z</time>
      </trkpt>
      <trkpt lat="45.03192" lon="5.85686">
        <ele>1441</ele>
        <time>2017-10-14T07:18:30Z</time>
      </trkpt>
      <trkpt lat="45.03191" lon="5.85691">
        <ele>1441</ele>
        <time>2017-10-14T07:18:32Z</time>
      </trkpt>
      <trkpt lat="45.03188" lon="5.85709">
        <ele>1444</ele>
        <time>2017-10-14T07:18:40Z</time>
      </trkpt>
      <trkpt lat="45.03186" lon="5.85714">
        <ele>1444</ele>
        <time>2017-10-14T07:18:42Z</time>
      </trkpt>
      <trkpt lat="45.03169" lon="5.85773">
        <ele>1454</ele>
        <time>2017-10-14T07:19:10Z</time>
      </trkpt>
      <trkpt lat="45.03167" lon="5.85777">
        <ele>1455</ele>
        <time>2017-10-14T07:19:12Z</time>
      </trkpt>
      <trkpt lat="45.03163" lon="5.85792">
        <ele>1440</ele>
        <time>2017-10-14T07:19:18Z</time>
      </trkpt>
      <trkpt lat="45.0316" lon="5.85797">
        <ele>1441</ele>
        <time>2017-10-14T07:19:20Z</time>
      </trkpt>
      <trkpt lat="45.03157" lon="5.85806">
        <ele>1442</ele>
        <time>2017-10-14T07:19:24Z</time>
      </trkpt>
      <trkpt lat="45.03155" lon="5.85811">
        <ele>1443</ele>
        <time>2017-10-14T07:19:26Z</time>
      </trkpt>
      <trkpt lat="45.03132" lon="5.8585">
        <ele>1449</ele>
        <time>2017-10-14T07:19:49Z</time>
      </trkpt>
      <trkpt lat="45.03131" lon="5.85854">
        <ele>1449</ele>
        <time>2017-10-14T07:19:51Z</time>
      </trkpt>
      <trkpt lat="45.03132" lon="5.85863">
        <ele>1449</ele>
        <time>2017-10-14T07:19:55Z</time>
      </trkpt>
      <trkpt lat="45.03135" lon="5.85866">
        <ele>1450</ele>
        <time>2017-10-14T07:19:57Z</time>
      </trkpt>
      <trkpt lat="45.03138" lon="5.85868">
        <ele>1451</ele>
        <time>2017-10-14T07:19:59Z</time>
      </trkpt>
      <trkpt lat="45.03141" lon="5.85868">
        <ele>1451</ele>
        <time>2017-10-14T07:20:01Z</time>
      </trkpt>
      <trkpt lat="45.03145" lon="5.85867">
        <ele>1452</ele>
        <time>2017-10-14T07:20:03Z</time>
      </trkpt>
      <trkpt lat="45.03149" lon="5.85865">
        <ele>1452</ele>
        <time>2017-10-14T07:20:05Z</time>
      </trkpt>
      <trkpt lat="45.03152" lon="5.85863">
        <ele>1453</ele>
        <time>2017-10-14T07:20:07Z</time>
      </trkpt>
      <trkpt lat="45.03155" lon="5.85859">
        <ele>1453</ele>
        <time>2017-10-14T07:20:09Z</time>
      </trkpt>
      <trkpt lat="45.03203" lon="5.85791">
        <ele>1462</ele>
        <time>2017-10-14T07:20:43Z</time>
      </trkpt>
      <trkpt lat="45.03206" lon="5.85787">
        <ele>1462</ele>
        <time>2017-10-14T07:20:45Z</time>
      </trkpt>
      <trkpt lat="45.03209" lon="5.85783">
        <ele>1462</ele>
        <time>2017-10-14T07:20:47Z</time>
      </trkpt>
      <trkpt lat="45.0321" lon="5.85778">
        <ele>1461</ele>
        <time>2017-10-14T07:20:49Z</time>
      </trkpt>
      <trkpt lat="45.03242" lon="5.85745">
        <ele>1460</ele>
        <time>2017-10-14T07:21:09Z</time>
      </trkpt>
      <trkpt lat="45.0328" lon="5.85707">
        <ele>1474</ele>
        <time>2017-10-14T07:21:33Z</time>
      </trkpt>
      <trkpt lat="45.03283" lon="5.85705">
        <ele>1474</ele>
        <time>2017-10-14T07:21:35Z</time>
      </trkpt>
      <trkpt lat="45.03294" lon="5.85699">
        <ele>1475</ele>
        <time>2017-10-14T07:21:41Z</time>
      </trkpt>
      <trkpt lat="45.03297" lon="5.85697">
        <ele>1476</ele>
        <time>2017-10-14T07:21:43Z</time>
      </trkpt>
      <trkpt lat="45.03302" lon="5.85691">
        <ele>1476</ele>
        <time>2017-10-14T07:21:47Z</time>
      </trkpt>
      <trkpt lat="45.03306" lon="5.85688">
        <ele>1477</ele>
        <time>2017-10-14T07:21:49Z</time>
      </trkpt>
      <trkpt lat="45.03327" lon="5.85677">
        <ele>1479</ele>
        <time>2017-10-14T07:22:01Z</time>
      </trkpt>
      <trkpt lat="45.0333" lon="5.85675">
        <ele>1480</ele>
        <time>2017-10-14T07:22:03Z</time>
      </trkpt>
      <trkpt lat="45.03349" lon="5.85662">
        <ele>1480</ele>
        <time>2017-10-14T07:22:15Z</time>
      </trkpt>
      <trkpt lat="45.03352" lon="5.85659">
        <ele>1480</ele>
        <time>2017-10-14T07:22:17Z</time>
      </trkpt>
      <trkpt lat="45.03354" lon="5.85654">
        <ele>1480</ele>
        <time>2017-10-14T07:22:19Z</time>
      </trkpt>
      <trkpt lat="45.03356" lon="5.85647">
        <ele>1479</ele>
        <time>2017-10-14T07:22:21Z</time>
      </trkpt>
      <trkpt lat="45.03358" lon="5.85641">
        <ele>1478</ele>
        <time>2017-10-14T07:22:23Z</time>
      </trkpt>
      <trkpt lat="45.03378" lon="5.85621">
        <ele>1478</ele>
        <time>2017-10-14T07:22:33Z</time>
      </trkpt>
      <trkpt lat="45.03382" lon="5.85617">
        <ele>1477</ele>
        <time>2017-10-14T07:22:35Z</time>
      </trkpt>
      <trkpt lat="45.03386" lon="5.85615">
        <ele>1477</ele>
        <time>2017-10-14T07:22:37Z</time>
      </trkpt>
      <trkpt lat="45.0344" lon="5.85612">
        <ele>1491</ele>
        <time>2017-10-14T07:23:07Z</time>
      </trkpt>
      <trkpt lat="45.03444" lon="5.85612">
        <ele>1491</ele>
        <time>2017-10-14T07:23:09Z</time>
      </trkpt>
      <trkpt lat="45.0346" lon="5.85611">
        <ele>1493</ele>
        <time>2017-10-14T07:23:17Z</time>
      </trkpt>
      <trkpt lat="45.03464" lon="5.8561">
        <ele>1493</ele>
        <time>2017-10-14T07:23:19Z</time>
      </trkpt>
      <trkpt lat="45.03469" lon="5.85608">
        <ele>1493</ele>
        <time>2017-10-14T07:23:21Z</time>
      </trkpt>
      <trkpt lat="45.03507" lon="5.85593">
        <ele>1494</ele>
        <time>2017-10-14T07:23:44Z</time>
      </trkpt>
      <trkpt lat="45.0351" lon="5.85592">
        <ele>1495</ele>
        <time>2017-10-14T07:23:46Z</time>
      </trkpt>
      <trkpt lat="45.03537" lon="5.85588">
        <ele>1500</ele>
        <time>2017-10-14T07:24:01Z</time>
      </trkpt>
      <trkpt lat="45.03541" lon="5.85588">
        <ele>1500</ele>
        <time>2017-10-14T07:24:03Z</time>
      </trkpt>
      <trkpt lat="45.03546" lon="5.85587">
        <ele>1500</ele>
        <time>2017-10-14T07:24:05Z</time>
      </trkpt>
      <trkpt lat="45.03631" lon="5.85608">
        <ele>1504</ele>
        <time>2017-10-14T07:24:51Z</time>
      </trkpt>
      <trkpt lat="45.03664" lon="5.85625">
        <ele>1506</ele>
        <time>2017-10-14T07:25:11Z</time>
      </trkpt>
      <trkpt lat="45.03667" lon="5.85628">
        <ele>1503</ele>
        <time>2017-10-14T07:25:13Z</time>
      </trkpt>
      <trkpt lat="45.0367" lon="5.85631">
        <ele>1504</ele>
        <time>2017-10-14T07:25:15Z</time>
      </trkpt>
      <trkpt lat="45.03672" lon="5.85634">
        <ele>1505</ele>
        <time>2017-10-14T07:25:17Z</time>
      </trkpt>
      <trkpt lat="45.0371" lon="5.85693">
        <ele>1523</ele>
        <time>2017-10-14T07:25:49Z</time>
      </trkpt>
      <trkpt lat="45.03712" lon="5.85696">
        <ele>1523</ele>
        <time>2017-10-14T07:25:51Z</time>
      </trkpt>
      <trkpt lat="45.0372" lon="5.85707">
        <ele>1524</ele>
        <time>2017-10-14T07:25:57Z</time>
      </trkpt>
      <trkpt lat="45.03722" lon="5.85711">
        <ele>1524</ele>
        <time>2017-10-14T07:25:59Z</time>
      </trkpt>
      <trkpt lat="45.03725" lon="5.85715">
        <ele>1525</ele>
        <time>2017-10-14T07:26:01Z</time>
      </trkpt>
      <trkpt lat="45.03741" lon="5.85756">
        <ele>1536</ele>
        <time>2017-10-14T07:26:21Z</time>
      </trkpt>
      <trkpt lat="45.03744" lon="5.8576">
        <ele>1537</ele>
        <time>2017-10-14T07:26:23Z</time>
      </trkpt>
      <trkpt lat="45.03791" lon="5.85707">
        <ele>1528</ele>
        <time>2017-10-14T07:27:01Z</time>
      </trkpt>
      <trkpt lat="45.03792" lon="5.85702">
        <ele>1527</ele>
        <time>2017-10-14T07:27:03Z</time>
      </trkpt>
      <trkpt lat="45.03794" lon="5.85698">
        <ele>1527</ele>
        <time>2017-10-14T07:27:05Z</time>
      </trkpt>
      <trkpt lat="45.03824" lon="5.85666">
        <ele>1525</ele>
        <time>2017-10-14T07:27:27Z</time>
      </trkpt>
      <trkpt lat="45.03857" lon="5.8563">
        <ele>1540</ele>
        <time>2017-10-14T07:27:51Z</time>
      </trkpt>
      <trkpt lat="45.03858" lon="5.85625">
        <ele>1539</ele>
        <time>2017-10-14T07:27:53Z</time>
      </trkpt>
      <trkpt lat="45.03858" lon="5.8562">
        <ele>1539</ele>
        <time>2017-10-14T07:27:55Z</time>
      </trkpt>
      <trkpt lat="45.03864" lon="5.8548">
        <ele>1530</ele>
        <time>2017-10-14T07:28:51Z</time>
      </trkpt>
      <trkpt lat="45.03878" lon="5.85462">
        <ele>1532</ele>
        <time>2017-10-14T07:29:01Z</time>
      </trkpt>
      <trkpt lat="45.03881" lon="5.85459">
        <ele>1532</ele>
        <time>2017-10-14T07:29:03Z</time>
      </trkpt>
      <trkpt lat="45.03884" lon="5.85456">
        <ele>1532</ele>
        <time>2017-10-14T07:29:05Z</time>
      </trkpt>
      <trkpt lat="45.03887" lon="5.85453">
        <ele>1533</ele>
        <time>2017-10-14T07:29:07Z</time>
      </trkpt>
      <trkpt lat="45.03914" lon="5.8542">
        <ele>1538</ele>
        <time>2017-10-14T07:29:23Z</time>
      </trkpt>
      <trkpt lat="45.03918" lon="5.85416">
        <ele>1539</ele>
        <time>2017-10-14T07:29:25Z</time>
      </trkpt>
      <trkpt lat="45.03931" lon="5.85409">
        <ele>1538</ele>
        <time>2017-10-14T07:29:30Z</time>
      </trkpt>
      <trkpt lat="45.03933" lon="5.85408">
        <ele>1538</ele>
        <time>2017-10-14T07:29:31Z</time>
      </trkpt>
      <trkpt lat="45.03961" lon="5.8541">
        <ele>1538</ele>
        <time>2017-10-14T07:29:40Z</time>
      </trkpt>
      <trkpt lat="45.03964" lon="5.85412">
        <ele>1539</ele>
        <time>2017-10-14T07:29:41Z</time>
      </trkpt>
      <trkpt lat="45.03966" lon="5.85413">
        <ele>1539</ele>
        <time>2017-10-14T07:29:42Z</time>
      </trkpt>
      <trkpt lat="45.03969" lon="5.85415">
        <ele>1539</ele>
        <time>2017-10-14T07:29:43Z</time>
      </trkpt>
      <trkpt lat="45.03973" lon="5.85417">
        <ele>1544</ele>
        <time>2017-10-14T07:29:44Z</time>
      </trkpt>
      <trkpt lat="45.03984" lon="5.85425">
        <ele>1544</ele>
        <time>2017-10-14T07:29:48Z</time>
      </trkpt>
      <trkpt lat="45.03987" lon="5.85427">
        <ele>1544</ele>
        <time>2017-10-14T07:29:49Z</time>
      </trkpt>
      <trkpt lat="45.04014" lon="5.85443">
        <ele>1547</ele>
        <time>2017-10-14T07:30:01Z</time>
      </trkpt>
      <trkpt lat="45.04018" lon="5.85445">
        <ele>1547</ele>
        <time>2017-10-14T07:30:03Z</time>
      </trkpt>
      <trkpt lat="45.04038" lon="5.85461">
        <ele>1549</ele>
        <time>2017-10-14T07:30:12Z</time>
      </trkpt>
      <trkpt lat="45.0404" lon="5.85463">
        <ele>1549</ele>
        <time>2017-10-14T07:30:13Z</time>
      </trkpt>
      <trkpt lat="45.04065" lon="5.85486">
        <ele>1550</ele>
        <time>2017-10-14T07:30:27Z</time>
      </trkpt>
      <trkpt lat="45.04069" lon="5.8549">
        <ele>1551</ele>
        <time>2017-10-14T07:30:29Z</time>
      </trkpt>
      <trkpt lat="45.04094" lon="5.85517">
        <ele>1555</ele>
        <time>2017-10-14T07:30:42Z</time>
      </trkpt>
      <trkpt lat="45.04098" lon="5.85521">
        <ele>1555</ele>
        <time>2017-10-14T07:30:44Z</time>
      </trkpt>
      <trkpt lat="45.04114" lon="5.85543">
        <ele>1556</ele>
        <time>2017-10-14T07:30:54Z</time>
      </trkpt>
      <trkpt lat="45.04117" lon="5.85548">
        <ele>1557</ele>
        <time>2017-10-14T07:30:56Z</time>
      </trkpt>
      <trkpt lat="45.0412" lon="5.85552">
        <ele>1557</ele>
        <time>2017-10-14T07:30:58Z</time>
      </trkpt>
      <trkpt lat="45.04123" lon="5.85556">
        <ele>1557</ele>
        <time>2017-10-14T07:31:00Z</time>
      </trkpt>
      <trkpt lat="45.04126" lon="5.8556">
        <ele>1557</ele>
        <time>2017-10-14T07:31:02Z</time>
      </trkpt>
      <trkpt lat="45.04172" lon="5.85627">
        <ele>1559</ele>
        <time>2017-10-14T07:31:32Z</time>
      </trkpt>
      <trkpt lat="45.04175" lon="5.85631">
        <ele>1559</ele>
        <time>2017-10-14T07:31:34Z</time>
      </trkpt>
      <trkpt lat="45.04178" lon="5.85635">
        <ele>1559</ele>
        <time>2017-10-14T07:31:36Z</time>
      </trkpt>
      <trkpt lat="45.04181" lon="5.85639">
        <ele>1560</ele>
        <time>2017-10-14T07:31:38Z</time>
      </trkpt>
      <trkpt lat="45.04184" lon="5.85644">
        <ele>1560</ele>
        <time>2017-10-14T07:31:40Z</time>
      </trkpt>
      <trkpt lat="45.04187" lon="5.85648">
        <ele>1560</ele>
        <time>2017-10-14T07:31:42Z</time>
      </trkpt>
      <trkpt lat="45.04211" lon="5.85688">
        <ele>1567</ele>
        <time>2017-10-14T07:31:58Z</time>
      </trkpt>
      <trkpt lat="45.04214" lon="5.85692">
        <ele>1567</ele>
        <time>2017-10-14T07:32:00Z</time>
      </trkpt>
      <trkpt lat="45.04224" lon="5.85707">
        <ele>1567</ele>
        <time>2017-10-14T07:32:06Z</time>
      </trkpt>
      <trkpt lat="45.04227" lon="5.85711">
        <ele>1567</ele>
        <time>2017-10-14T07:32:08Z</time>
      </trkpt>
      <trkpt lat="45.0423" lon="5.85716">
        <ele>1567</ele>
        <time>2017-10-14T07:32:10Z</time>
      </trkpt>
      <trkpt lat="45.0423" lon="5.85726">
        <ele>1568</ele>
        <time>2017-10-14T07:32:14Z</time>
      </trkpt>
      <trkpt lat="45.04227" lon="5.8573">
        <ele>1568</ele>
        <time>2017-10-14T07:32:16Z</time>
      </trkpt>
      <trkpt lat="45.04207" lon="5.85726">
        <ele>1570</ele>
        <time>2017-10-14T07:32:26Z</time>
      </trkpt>
      <trkpt lat="45.04204" lon="5.85726">
        <ele>1570</ele>
        <time>2017-10-14T07:32:28Z</time>
      </trkpt>
      <trkpt lat="45.04123" lon="5.85714">
        <ele>1582</ele>
        <time>2017-10-14T07:33:08Z</time>
      </trkpt>
      <trkpt lat="45.04119" lon="5.85715">
        <ele>1582</ele>
        <time>2017-10-14T07:33:10Z</time>
      </trkpt>
      <trkpt lat="45.04115" lon="5.85715">
        <ele>1583</ele>
        <time>2017-10-14T07:33:12Z</time>
      </trkpt>
      <trkpt lat="45.04112" lon="5.85716">
        <ele>1583</ele>
        <time>2017-10-14T07:33:14Z</time>
      </trkpt>
      <trkpt lat="45.04096" lon="5.85719">
        <ele>1584</ele>
        <time>2017-10-14T07:33:22Z</time>
      </trkpt>
      <trkpt lat="45.04091" lon="5.8572">
        <ele>1584</ele>
        <time>2017-10-14T07:33:24Z</time>
      </trkpt>
      <trkpt lat="45.0398" lon="5.85791">
        <ele>1592</ele>
        <time>2017-10-14T07:34:26Z</time>
      </trkpt>
      <trkpt lat="45.03978" lon="5.85794">
        <ele>1592</ele>
        <time>2017-10-14T07:34:28Z</time>
      </trkpt>
      <trkpt lat="45.03975" lon="5.85797">
        <ele>1592</ele>
        <time>2017-10-14T07:34:30Z</time>
      </trkpt>
      <trkpt lat="45.03957" lon="5.85819">
        <ele>1593</ele>
        <time>2017-10-14T07:34:44Z</time>
      </trkpt>
      <trkpt lat="45.03954" lon="5.85824">
        <ele>1593</ele>
        <time>2017-10-14T07:34:46Z</time>
      </trkpt>
      <trkpt lat="45.03951" lon="5.85828">
        <ele>1592</ele>
        <time>2017-10-14T07:34:48Z</time>
      </trkpt>
      <trkpt lat="45.03941" lon="5.85839">
        <ele>1602</ele>
        <time>2017-10-14T07:34:54Z</time>
      </trkpt>
      <trkpt lat="45.03939" lon="5.85842">
        <ele>1602</ele>
        <time>2017-10-14T07:34:56Z</time>
      </trkpt>
      <trkpt lat="45.03912" lon="5.85878">
        <ele>1595</ele>
        <time>2017-10-14T07:35:18Z</time>
      </trkpt>
      <trkpt lat="45.0391" lon="5.85882">
        <ele>1596</ele>
        <time>2017-10-14T07:35:20Z</time>
      </trkpt>
      <trkpt lat="45.03876" lon="5.85958">
        <ele>1611</ele>
        <time>2017-10-14T07:35:52Z</time>
      </trkpt>
      <trkpt lat="45.03874" lon="5.85963">
        <ele>1612</ele>
        <time>2017-10-14T07:35:54Z</time>
      </trkpt>
      <trkpt lat="45.03816" lon="5.86043">
        <ele>1616</ele>
        <time>2017-10-14T07:36:32Z</time>
      </trkpt>
      <trkpt lat="45.03812" lon="5.86047">
        <ele>1616</ele>
        <time>2017-10-14T07:36:34Z</time>
      </trkpt>
      <trkpt lat="45.0381" lon="5.86049">
        <ele>1616</ele>
        <time>2017-10-14T07:36:35Z</time>
      </trkpt>
      <trkpt lat="45.03796" lon="5.86069">
        <ele>1617</ele>
        <time>2017-10-14T07:36:43Z</time>
      </trkpt>
      <trkpt lat="45.03793" lon="5.86074">
        <ele>1617</ele>
        <time>2017-10-14T07:36:45Z</time>
      </trkpt>
      <trkpt lat="45.03789" lon="5.8608">
        <ele>1617</ele>
        <time>2017-10-14T07:36:47Z</time>
      </trkpt>
      <trkpt lat="45.03762" lon="5.86129">
        <ele>1630</ele>
        <time>2017-10-14T07:37:02Z</time>
      </trkpt>
      <trkpt lat="45.0376" lon="5.86132">
        <ele>1630</ele>
        <time>2017-10-14T07:37:03Z</time>
      </trkpt>
      <trkpt lat="45.03755" lon="5.86143">
        <ele>1631</ele>
        <time>2017-10-14T07:37:06Z</time>
      </trkpt>
      <trkpt lat="45.03753" lon="5.86147">
        <ele>1631</ele>
        <time>2017-10-14T07:37:07Z</time>
      </trkpt>
      <trkpt lat="45.03751" lon="5.8615">
        <ele>1631</ele>
        <time>2017-10-14T07:37:08Z</time>
      </trkpt>
      <trkpt lat="45.03749" lon="5.86154">
        <ele>1628</ele>
        <time>2017-10-14T07:37:09Z</time>
      </trkpt>
      <trkpt lat="45.03746" lon="5.86161">
        <ele>1629</ele>
        <time>2017-10-14T07:37:11Z</time>
      </trkpt>
      <trkpt lat="45.03743" lon="5.86165">
        <ele>1629</ele>
        <time>2017-10-14T07:37:12Z</time>
      </trkpt>
      <trkpt lat="45.03713" lon="5.8621">
        <ele>1637</ele>
        <time>2017-10-14T07:37:27Z</time>
      </trkpt>
      <trkpt lat="45.03709" lon="5.86215">
        <ele>1637</ele>
        <time>2017-10-14T07:37:29Z</time>
      </trkpt>
      <trkpt lat="45.03694" lon="5.86206">
        <ele>1637</ele>
        <time>2017-10-14T07:37:35Z</time>
      </trkpt>
      <trkpt lat="45.03693" lon="5.86202">
        <ele>1637</ele>
        <time>2017-10-14T07:37:36Z</time>
      </trkpt>
      <trkpt lat="45.03688" lon="5.8616">
        <ele>1628</ele>
        <time>2017-10-14T07:37:46Z</time>
      </trkpt>
      <trkpt lat="45.03686" lon="5.86156">
        <ele>1628</ele>
        <time>2017-10-14T07:37:47Z</time>
      </trkpt>
      <trkpt lat="45.03638" lon="5.86125">
        <ele>1629</ele>
        <time>2017-10-14T07:38:07Z</time>
      </trkpt>
      <trkpt lat="45.03632" lon="5.86123">
        <ele>1629</ele>
        <time>2017-10-14T07:38:09Z</time>
      </trkpt>
      <trkpt lat="45.03623" lon="5.86121">
        <ele>1629</ele>
        <time>2017-10-14T07:38:13Z</time>
      </trkpt>
      <trkpt lat="45.03618" lon="5.8612">
        <ele>1629</ele>
        <time>2017-10-14T07:38:15Z</time>
      </trkpt>
      <trkpt lat="45.03596" lon="5.86124">
        <ele>1630</ele>
        <time>2017-10-14T07:38:23Z</time>
      </trkpt>
      <trkpt lat="45.03593" lon="5.8613">
        <ele>1631</ele>
        <time>2017-10-14T07:38:25Z</time>
      </trkpt>
      <trkpt lat="45.03593" lon="5.86137">
        <ele>1632</ele>
        <time>2017-10-14T07:38:27Z</time>
      </trkpt>
      <trkpt lat="45.03598" lon="5.86145">
        <ele>1632</ele>
        <time>2017-10-14T07:38:30Z</time>
      </trkpt>
      <trkpt lat="45.03613" lon="5.86153">
        <ele>1632</ele>
        <time>2017-10-14T07:38:37Z</time>
      </trkpt>
      <trkpt lat="45.03617" lon="5.86156">
        <ele>1632</ele>
        <time>2017-10-14T07:38:39Z</time>
      </trkpt>
      <trkpt lat="45.03626" lon="5.86163">
        <ele>1631</ele>
        <time>2017-10-14T07:38:46Z</time>
      </trkpt>
      <trkpt lat="45.03654" lon="5.86209">
        <ele>1640</ele>
        <time>2017-10-14T07:39:08Z</time>
      </trkpt>
      <trkpt lat="45.03656" lon="5.86215">
        <ele>1640</ele>
        <time>2017-10-14T07:39:10Z</time>
      </trkpt>
      <trkpt lat="45.03666" lon="5.86279">
        <ele>1648</ele>
        <time>2017-10-14T07:39:34Z</time>
      </trkpt>
      <trkpt lat="45.03667" lon="5.86284">
        <ele>1646</ele>
        <time>2017-10-14T07:39:36Z</time>
      </trkpt>
      <trkpt lat="45.03669" lon="5.86289">
        <ele>1647</ele>
        <time>2017-10-14T07:39:38Z</time>
      </trkpt>
      <trkpt lat="45.03669" lon="5.86294">
        <ele>1647</ele>
        <time>2017-10-14T07:39:40Z</time>
      </trkpt>
      <trkpt lat="45.03669" lon="5.86299">
        <ele>1648</ele>
        <time>2017-10-14T07:39:42Z</time>
      </trkpt>
      <trkpt lat="45.03669" lon="5.86305">
        <ele>1648</ele>
        <time>2017-10-14T07:39:44Z</time>
      </trkpt>
      <trkpt lat="45.03671" lon="5.86327">
        <ele>1651</ele>
        <time>2017-10-14T07:39:52Z</time>
      </trkpt>
      <trkpt lat="45.03697" lon="5.86377">
        <ele>1658</ele>
        <time>2017-10-14T07:40:16Z</time>
      </trkpt>
      <trkpt lat="45.03699" lon="5.8638">
        <ele>1658</ele>
        <time>2017-10-14T07:40:18Z</time>
      </trkpt>
      <trkpt lat="45.03709" lon="5.86385">
        <ele>1659</ele>
        <time>2017-10-14T07:40:24Z</time>
      </trkpt>
      <trkpt lat="45.03712" lon="5.86387">
        <ele>1659</ele>
        <time>2017-10-14T07:40:26Z</time>
      </trkpt>
      <trkpt lat="45.03741" lon="5.8642">
        <ele>1665</ele>
        <time>2017-10-14T07:40:46Z</time>
      </trkpt>
      <trkpt lat="45.03752" lon="5.86433">
        <ele>1668</ele>
        <time>2017-10-14T07:40:54Z</time>
      </trkpt>
      <trkpt lat="45.03755" lon="5.86435">
        <ele>1669</ele>
        <time>2017-10-14T07:40:56Z</time>
      </trkpt>
      <trkpt lat="45.03793" lon="5.86451">
        <ele>1674</ele>
        <time>2017-10-14T07:41:16Z</time>
      </trkpt>
      <trkpt lat="45.03797" lon="5.86452">
        <ele>1674</ele>
        <time>2017-10-14T07:41:18Z</time>
      </trkpt>
      <trkpt lat="45.03801" lon="5.86452">
        <ele>1674</ele>
        <time>2017-10-14T07:41:20Z</time>
      </trkpt>
      <trkpt lat="45.03805" lon="5.86452">
        <ele>1674</ele>
        <time>2017-10-14T07:41:22Z</time>
      </trkpt>
      <trkpt lat="45.03817" lon="5.86447">
        <ele>1674</ele>
        <time>2017-10-14T07:41:28Z</time>
      </trkpt>
      <trkpt lat="45.03821" lon="5.86444">
        <ele>1674</ele>
        <time>2017-10-14T07:41:30Z</time>
      </trkpt>
      <trkpt lat="45.03827" lon="5.86391">
        <ele>1668</ele>
        <time>2017-10-14T07:41:48Z</time>
      </trkpt>
      <trkpt lat="45.03825" lon="5.86384">
        <ele>1668</ele>
        <time>2017-10-14T07:41:50Z</time>
      </trkpt>
      <trkpt lat="45.03824" lon="5.86341">
        <ele>1669</ele>
        <time>2017-10-14T07:42:04Z</time>
      </trkpt>
      <trkpt lat="45.03825" lon="5.86336">
        <ele>1670</ele>
        <time>2017-10-14T07:42:06Z</time>
      </trkpt>
      <trkpt lat="45.0384" lon="5.86311">
        <ele>1676</ele>
        <time>2017-10-14T07:42:18Z</time>
      </trkpt>
      <trkpt lat="45.03842" lon="5.86309">
        <ele>1676</ele>
        <time>2017-10-14T07:42:20Z</time>
      </trkpt>
      <trkpt lat="45.03857" lon="5.86291">
        <ele>1677</ele>
        <time>2017-10-14T07:42:32Z</time>
      </trkpt>
      <trkpt lat="45.0386" lon="5.86287">
        <ele>1677</ele>
        <time>2017-10-14T07:42:34Z</time>
      </trkpt>
      <trkpt lat="45.03865" lon="5.8628">
        <ele>1677</ele>
        <time>2017-10-14T07:42:38Z</time>
      </trkpt>
      <trkpt lat="45.03868" lon="5.86278">
        <ele>1677</ele>
        <time>2017-10-14T07:42:40Z</time>
      </trkpt>
      <trkpt lat="45.03872" lon="5.86274">
        <ele>1678</ele>
        <time>2017-10-14T07:42:42Z</time>
      </trkpt>
      <trkpt lat="45.03873" lon="5.86271">
        <ele>1678</ele>
        <time>2017-10-14T07:42:44Z</time>
      </trkpt>
      <trkpt lat="45.03875" lon="5.86266">
        <ele>1678</ele>
        <time>2017-10-14T07:42:46Z</time>
      </trkpt>
      <trkpt lat="45.03875" lon="5.86262">
        <ele>1678</ele>
        <time>2017-10-14T07:42:48Z</time>
      </trkpt>
      <trkpt lat="45.03877" lon="5.86257">
        <ele>1678</ele>
        <time>2017-10-14T07:42:50Z</time>
      </trkpt>
      <trkpt lat="45.03879" lon="5.86253">
        <ele>1678</ele>
        <time>2017-10-14T07:42:52Z</time>
      </trkpt>
      <trkpt lat="45.0388" lon="5.8625">
        <ele>1672</ele>
        <time>2017-10-14T07:42:54Z</time>
      </trkpt>
      <trkpt lat="45.0389" lon="5.86237">
        <ele>1673</ele>
        <time>2017-10-14T07:43:02Z</time>
      </trkpt>
      <trkpt lat="45.03893" lon="5.86235">
        <ele>1673</ele>
        <time>2017-10-14T07:43:04Z</time>
      </trkpt>
      <trkpt lat="45.03962" lon="5.8624">
        <ele>1683</ele>
        <time>2017-10-14T07:43:44Z</time>
      </trkpt>
      <trkpt lat="45.03966" lon="5.86241">
        <ele>1683</ele>
        <time>2017-10-14T07:43:46Z</time>
      </trkpt>
      <trkpt lat="45.03977" lon="5.86247">
        <ele>1685</ele>
        <time>2017-10-14T07:43:52Z</time>
      </trkpt>
      <trkpt lat="45.0398" lon="5.86248">
        <ele>1685</ele>
        <time>2017-10-14T07:43:54Z</time>
      </trkpt>
      <trkpt lat="45.04033" lon="5.86295">
        <ele>1692</ele>
        <time>2017-10-14T07:44:30Z</time>
      </trkpt>
      <trkpt lat="45.04036" lon="5.86299">
        <ele>1692</ele>
        <time>2017-10-14T07:44:32Z</time>
      </trkpt>
      <trkpt lat="45.04038" lon="5.86302">
        <ele>1692</ele>
        <time>2017-10-14T07:44:34Z</time>
      </trkpt>
      <trkpt lat="45.04043" lon="5.86311">
        <ele>1693</ele>
        <time>2017-10-14T07:44:38Z</time>
      </trkpt>
      <trkpt lat="45.04071" lon="5.86369">
        <ele>1701</ele>
        <time>2017-10-14T07:45:01Z</time>
      </trkpt>
      <trkpt lat="45.04074" lon="5.86375">
        <ele>1701</ele>
        <time>2017-10-14T07:45:03Z</time>
      </trkpt>
      <trkpt lat="45.04076" lon="5.86381">
        <ele>1702</ele>
        <time>2017-10-14T07:45:05Z</time>
      </trkpt>
      <trkpt lat="45.04078" lon="5.86385">
        <ele>1702</ele>
        <time>2017-10-14T07:45:06Z</time>
      </trkpt>
      <trkpt lat="45.04118" lon="5.8646">
        <ele>1705</ele>
        <time>2017-10-14T07:45:42Z</time>
      </trkpt>
      <trkpt lat="45.0412" lon="5.86464">
        <ele>1705</ele>
        <time>2017-10-14T07:45:44Z</time>
      </trkpt>
      <trkpt lat="45.04127" lon="5.86479">
        <ele>1706</ele>
        <time>2017-10-14T07:45:50Z</time>
      </trkpt>
      <trkpt lat="45.0413" lon="5.86484">
        <ele>1706</ele>
        <time>2017-10-14T07:45:52Z</time>
      </trkpt>
      <trkpt lat="45.04178" lon="5.86544">
        <ele>1714</ele>
        <time>2017-10-14T07:46:24Z</time>
      </trkpt>
      <trkpt lat="45.04181" lon="5.86548">
        <ele>1714</ele>
        <time>2017-10-14T07:46:26Z</time>
      </trkpt>
      <trkpt lat="45.04186" lon="5.86554">
        <ele>1715</ele>
        <time>2017-10-14T07:46:30Z</time>
      </trkpt>
      <trkpt lat="45.04189" lon="5.86557">
        <ele>1715</ele>
        <time>2017-10-14T07:46:32Z</time>
      </trkpt>
      <trkpt lat="45.04209" lon="5.86572">
        <ele>1716</ele>
        <time>2017-10-14T07:46:44Z</time>
      </trkpt>
      <trkpt lat="45.0429" lon="5.866">
        <ele>1721</ele>
        <time>2017-10-14T07:47:28Z</time>
      </trkpt>
      <trkpt lat="45.04292" lon="5.86602">
        <ele>1720</ele>
        <time>2017-10-14T07:47:30Z</time>
      </trkpt>
      <trkpt lat="45.04295" lon="5.86605">
        <ele>1721</ele>
        <time>2017-10-14T07:47:33Z</time>
      </trkpt>
      <trkpt lat="45.04293" lon="5.86609">
        <ele>1721</ele>
        <time>2017-10-14T07:47:35Z</time>
      </trkpt>
      <trkpt lat="45.0429" lon="5.8661">
        <ele>1722</ele>
        <time>2017-10-14T07:47:37Z</time>
      </trkpt>
      <trkpt lat="45.04269" lon="5.86615">
        <ele>1724</ele>
        <time>2017-10-14T07:47:51Z</time>
      </trkpt>
      <trkpt lat="45.04265" lon="5.86617">
        <ele>1724</ele>
        <time>2017-10-14T07:47:53Z</time>
      </trkpt>
      <trkpt lat="45.04253" lon="5.86625">
        <ele>1726</ele>
        <time>2017-10-14T07:48:02Z</time>
      </trkpt>
      <trkpt lat="45.0425" lon="5.86627">
        <ele>1727</ele>
        <time>2017-10-14T07:48:04Z</time>
      </trkpt>
      <trkpt lat="45.04247" lon="5.86629">
        <ele>1734</ele>
        <time>2017-10-14T07:48:06Z</time>
      </trkpt>
      <trkpt lat="45.04224" lon="5.86639">
        <ele>1735</ele>
        <time>2017-10-14T07:48:20Z</time>
      </trkpt>
      <trkpt lat="45.0422" lon="5.8664">
        <ele>1735</ele>
        <time>2017-10-14T07:48:22Z</time>
      </trkpt>
      <trkpt lat="45.04206" lon="5.86648">
        <ele>1736</ele>
        <time>2017-10-14T07:48:32Z</time>
      </trkpt>
      <trkpt lat="45.04203" lon="5.8665">
        <ele>1736</ele>
        <time>2017-10-14T07:48:34Z</time>
      </trkpt>
      <trkpt lat="45.04196" lon="5.86651">
        <ele>1736</ele>
        <time>2017-10-14T07:48:38Z</time>
      </trkpt>
      <trkpt lat="45.04193" lon="5.86652">
        <ele>1737</ele>
        <time>2017-10-14T07:48:40Z</time>
      </trkpt>
      <trkpt lat="45.04174" lon="5.86659">
        <ele>1740</ele>
        <time>2017-10-14T07:48:52Z</time>
      </trkpt>
      <trkpt lat="45.04171" lon="5.8666">
        <ele>1740</ele>
        <time>2017-10-14T07:48:54Z</time>
      </trkpt>
      <trkpt lat="45.04123" lon="5.86699">
        <ele>1746</ele>
        <time>2017-10-14T07:49:28Z</time>
      </trkpt>
      <trkpt lat="45.04121" lon="5.86701">
        <ele>1746</ele>
        <time>2017-10-14T07:49:30Z</time>
      </trkpt>
      <trkpt lat="45.04111" lon="5.86709">
        <ele>1747</ele>
        <time>2017-10-14T07:49:36Z</time>
      </trkpt>
      <trkpt lat="45.04109" lon="5.86711">
        <ele>1747</ele>
        <time>2017-10-14T07:49:38Z</time>
      </trkpt>
      <trkpt lat="45.04073" lon="5.86755">
        <ele>1752</ele>
        <time>2017-10-14T07:51:43Z</time>
      </trkpt>
      <trkpt lat="45.0407" lon="5.86755">
        <ele>1752</ele>
        <time>2017-10-14T07:54:03Z</time>
      </trkpt>
      <trkpt lat="45.04072" lon="5.86759">
        <ele>1752</ele>
        <time>2017-10-14T07:54:56Z</time>
      </trkpt>
      <trkpt lat="45.0407" lon="5.86762">
        <ele>1753</ele>
        <time>2017-10-14T07:54:59Z</time>
      </trkpt>
      <trkpt lat="45.04068" lon="5.86758">
        <ele>1752</ele>
        <time>2017-10-14T07:55:58Z</time>
      </trkpt>
      <trkpt lat="45.04066" lon="5.86762">
        <ele>1753</ele>
        <time>2017-10-14T07:56:02Z</time>
      </trkpt>
      <trkpt lat="45.04065" lon="5.86771">
        <ele>1754</ele>
        <time>2017-10-14T08:01:51Z</time>
      </trkpt>
      <trkpt lat="45.04059" lon="5.86793">
        <ele>1756</ele>
        <time>2017-10-14T08:02:34Z</time>
      </trkpt>
      <trkpt lat="45.04057" lon="5.86796">
        <ele>1757</ele>
        <time>2017-10-14T08:02:39Z</time>
      </trkpt>
      <trkpt lat="45.04053" lon="5.86802">
        <ele>1757</ele>
        <time>2017-10-14T08:08:47Z</time>
      </trkpt>
      <trkpt lat="45.04045" lon="5.86814">
        <ele>1758</ele>
        <time>2017-10-14T08:08:58Z</time>
      </trkpt>
      <trkpt lat="45.04043" lon="5.86817">
        <ele>1758</ele>
        <time>2017-10-14T08:09:01Z</time>
      </trkpt>
      <trkpt lat="45.04041" lon="5.8682">
        <ele>1758</ele>
        <time>2017-10-14T08:29:04Z</time>
      </trkpt>
      <trkpt lat="45.04039" lon="5.86823">
        <ele>1758</ele>
        <time>2017-10-14T08:29:05Z</time>
      </trkpt>
      <trkpt lat="45.04008" lon="5.86788">
        <ele>1753</ele>
        <time>2017-10-14T08:29:10Z</time>
      </trkpt>
      <trkpt lat="45.04" lon="5.86781">
        <ele>1751</ele>
        <time>2017-10-14T08:29:11Z</time>
      </trkpt>
      <trkpt lat="45.03992" lon="5.86772">
        <ele>1749</ele>
        <time>2017-10-14T08:29:12Z</time>
      </trkpt>
      <trkpt lat="45.03984" lon="5.86765">
        <ele>1749</ele>
        <time>2017-10-14T08:29:13Z</time>
      </trkpt>
      <trkpt lat="45.03976" lon="5.86759">
        <ele>1749</ele>
        <time>2017-10-14T08:29:14Z</time>
      </trkpt>
      <trkpt lat="45.03964" lon="5.86741">
        <ele>1737</ele>
        <time>2017-10-14T08:29:17Z</time>
      </trkpt>
      <trkpt lat="45.03964" lon="5.86734">
        <ele>1737</ele>
        <time>2017-10-14T08:29:18Z</time>
      </trkpt>
      <trkpt lat="45.03958" lon="5.86722">
        <ele>1735</ele>
        <time>2017-10-14T08:29:20Z</time>
      </trkpt>
      <trkpt lat="45.03956" lon="5.86715">
        <ele>1735</ele>
        <time>2017-10-14T08:29:21Z</time>
      </trkpt>
      <trkpt lat="45.03954" lon="5.86708">
        <ele>1734</ele>
        <time>2017-10-14T08:29:22Z</time>
      </trkpt>
      <trkpt lat="45.03945" lon="5.86689">
        <ele>1731</ele>
        <time>2017-10-14T08:29:25Z</time>
      </trkpt>
      <trkpt lat="45.03935" lon="5.86663">
        <ele>1720</ele>
        <time>2017-10-14T08:29:30Z</time>
      </trkpt>
      <trkpt lat="45.03934" lon="5.86658">
        <ele>1719</ele>
        <time>2017-10-14T08:29:31Z</time>
      </trkpt>
      <trkpt lat="45.03932" lon="5.86654">
        <ele>1719</ele>
        <time>2017-10-14T08:29:32Z</time>
      </trkpt>
      <trkpt lat="45.03893" lon="5.86657">
        <ele>1718</ele>
        <time>2017-10-14T08:29:41Z</time>
      </trkpt>
      <trkpt lat="45.03879" lon="5.86667">
        <ele>1718</ele>
        <time>2017-10-14T08:29:45Z</time>
      </trkpt>
      <trkpt lat="45.03856" lon="5.86648">
        <ele>1717</ele>
        <time>2017-10-14T08:29:52Z</time>
      </trkpt>
      <trkpt lat="45.03844" lon="5.86641">
        <ele>1717</ele>
        <time>2017-10-14T08:29:54Z</time>
      </trkpt>
      <trkpt lat="45.03837" lon="5.86637">
        <ele>1716</ele>
        <time>2017-10-14T08:29:55Z</time>
      </trkpt>
      <trkpt lat="45.03806" lon="5.8662">
        <ele>1711</ele>
        <time>2017-10-14T08:30:00Z</time>
      </trkpt>
      <trkpt lat="45.03802" lon="5.86616">
        <ele>1711</ele>
        <time>2017-10-14T08:30:01Z</time>
      </trkpt>
      <trkpt lat="45.03786" lon="5.86612">
        <ele>1710</ele>
        <time>2017-10-14T08:30:04Z</time>
      </trkpt>
      <trkpt lat="45.0378" lon="5.86611">
        <ele>1709</ele>
        <time>2017-10-14T08:30:05Z</time>
      </trkpt>
      <trkpt lat="45.03774" lon="5.86611">
        <ele>1709</ele>
        <time>2017-10-14T08:30:06Z</time>
      </trkpt>
      <trkpt lat="45.03765" lon="5.86588">
        <ele>1705</ele>
        <time>2017-10-14T08:30:12Z</time>
      </trkpt>
      <trkpt lat="45.03758" lon="5.86591">
        <ele>1704</ele>
        <time>2017-10-14T08:30:14Z</time>
      </trkpt>
      <trkpt lat="45.03724" lon="5.86566">
        <ele>1693</ele>
        <time>2017-10-14T08:30:22Z</time>
      </trkpt>
      <trkpt lat="45.03715" lon="5.86561">
        <ele>1693</ele>
        <time>2017-10-14T08:30:24Z</time>
      </trkpt>
      <trkpt lat="45.03705" lon="5.86555">
        <ele>1692</ele>
        <time>2017-10-14T08:30:26Z</time>
      </trkpt>
      <trkpt lat="45.03701" lon="5.8655">
        <ele>1692</ele>
        <time>2017-10-14T08:30:27Z</time>
      </trkpt>
      <trkpt lat="45.0369" lon="5.86539">
        <ele>1690</ele>
        <time>2017-10-14T08:30:29Z</time>
      </trkpt>
      <trkpt lat="45.03685" lon="5.86533">
        <ele>1689</ele>
        <time>2017-10-14T08:30:30Z</time>
      </trkpt>
      <trkpt lat="45.03661" lon="5.86512">
        <ele>1687</ele>
        <time>2017-10-14T08:30:35Z</time>
      </trkpt>
      <trkpt lat="45.03655" lon="5.86504">
        <ele>1686</ele>
        <time>2017-10-14T08:30:37Z</time>
      </trkpt>
      <trkpt lat="45.03652" lon="5.86495">
        <ele>1679</ele>
        <time>2017-10-14T08:30:38Z</time>
      </trkpt>
      <trkpt lat="45.03659" lon="5.86457">
        <ele>1676</ele>
        <time>2017-10-14T08:30:43Z</time>
      </trkpt>
      <trkpt lat="45.03665" lon="5.86454">
        <ele>1675</ele>
        <time>2017-10-14T08:30:44Z</time>
      </trkpt>
      <trkpt lat="45.0367" lon="5.86449">
        <ele>1672</ele>
        <time>2017-10-14T08:30:45Z</time>
      </trkpt>
      <trkpt lat="45.03643" lon="5.86382">
        <ele>1663</ele>
        <time>2017-10-14T08:30:56Z</time>
      </trkpt>
      <trkpt lat="45.03643" lon="5.86376">
        <ele>1662</ele>
        <time>2017-10-14T08:30:57Z</time>
      </trkpt>
      <trkpt lat="45.03642" lon="5.86368">
        <ele>1661</ele>
        <time>2017-10-14T08:30:58Z</time>
      </trkpt>
      <trkpt lat="45.03642" lon="5.86362">
        <ele>1661</ele>
        <time>2017-10-14T08:30:59Z</time>
      </trkpt>
      <trkpt lat="45.03641" lon="5.86356">
        <ele>1660</ele>
        <time>2017-10-14T08:31:00Z</time>
      </trkpt>
      <trkpt lat="45.03649" lon="5.86352">
        <ele>1659</ele>
        <time>2017-10-14T08:31:01Z</time>
      </trkpt>
      <trkpt lat="45.0365" lon="5.86346">
        <ele>1658</ele>
        <time>2017-10-14T08:31:02Z</time>
      </trkpt>
      <trkpt lat="45.03647" lon="5.8634">
        <ele>1658</ele>
        <time>2017-10-14T08:31:03Z</time>
      </trkpt>
      <trkpt lat="45.03622" lon="5.86311">
        <ele>1652</ele>
        <time>2017-10-14T08:31:10Z</time>
      </trkpt>
      <trkpt lat="45.03618" lon="5.86308">
        <ele>1652</ele>
        <time>2017-10-14T08:31:11Z</time>
      </trkpt>
      <trkpt lat="45.03615" lon="5.86303">
        <ele>1652</ele>
        <time>2017-10-14T08:31:12Z</time>
      </trkpt>
      <trkpt lat="45.03612" lon="5.86299">
        <ele>1652</ele>
        <time>2017-10-14T08:31:13Z</time>
      </trkpt>
      <trkpt lat="45.03609" lon="5.86296">
        <ele>1652</ele>
        <time>2017-10-14T08:31:14Z</time>
      </trkpt>
      <trkpt lat="45.03607" lon="5.86294">
        <ele>1652</ele>
        <time>2017-10-14T08:31:15Z</time>
      </trkpt>
      <trkpt lat="45.03596" lon="5.86291">
        <ele>1652</ele>
        <time>2017-10-14T08:31:17Z</time>
      </trkpt>
      <trkpt lat="45.03592" lon="5.8629">
        <ele>1652</ele>
        <time>2017-10-14T08:31:18Z</time>
      </trkpt>
      <trkpt lat="45.03587" lon="5.86291">
        <ele>1652</ele>
        <time>2017-10-14T08:31:19Z</time>
      </trkpt>
      <trkpt lat="45.03576" lon="5.8629">
        <ele>1654</ele>
        <time>2017-10-14T08:31:21Z</time>
      </trkpt>
      <trkpt lat="45.03572" lon="5.86288">
        <ele>1654</ele>
        <time>2017-10-14T08:31:22Z</time>
      </trkpt>
      <trkpt lat="45.03547" lon="5.86258">
        <ele>1652</ele>
        <time>2017-10-14T08:31:28Z</time>
      </trkpt>
      <trkpt lat="45.0354" lon="5.86253">
        <ele>1652</ele>
        <time>2017-10-14T08:31:29Z</time>
      </trkpt>
      <trkpt lat="45.03534" lon="5.86249">
        <ele>1644</ele>
        <time>2017-10-14T08:31:30Z</time>
      </trkpt>
      <trkpt lat="45.03523" lon="5.86237">
        <ele>1644</ele>
        <time>2017-10-14T08:31:33Z</time>
      </trkpt>
      <trkpt lat="45.03517" lon="5.86235">
        <ele>1644</ele>
        <time>2017-10-14T08:31:34Z</time>
      </trkpt>
      <trkpt lat="45.03471" lon="5.8625">
        <ele>1637</ele>
        <time>2017-10-14T08:31:45Z</time>
      </trkpt>
      <trkpt lat="45.03457" lon="5.86238">
        <ele>1634</ele>
        <time>2017-10-14T08:31:49Z</time>
      </trkpt>
      <trkpt lat="45.03454" lon="5.86233">
        <ele>1633</ele>
        <time>2017-10-14T08:31:50Z</time>
      </trkpt>
      <trkpt lat="45.03448" lon="5.86201">
        <ele>1630</ele>
        <time>2017-10-14T08:31:55Z</time>
      </trkpt>
      <trkpt lat="45.03447" lon="5.86197">
        <ele>1629</ele>
        <time>2017-10-14T08:31:56Z</time>
      </trkpt>
      <trkpt lat="45.03441" lon="5.86196">
        <ele>1628</ele>
        <time>2017-10-14T08:31:57Z</time>
      </trkpt>
      <trkpt lat="45.03437" lon="5.86193">
        <ele>1627</ele>
        <time>2017-10-14T08:31:58Z</time>
      </trkpt>
      <trkpt lat="45.03431" lon="5.8619">
        <ele>1626</ele>
        <time>2017-10-14T08:31:59Z</time>
      </trkpt>
      <trkpt lat="45.03429" lon="5.86186">
        <ele>1625</ele>
        <time>2017-10-14T08:32:00Z</time>
      </trkpt>
      <trkpt lat="45.03433" lon="5.86123">
        <ele>1611</ele>
        <time>2017-10-14T08:32:11Z</time>
      </trkpt>
      <trkpt lat="45.03432" lon="5.86116">
        <ele>1610</ele>
        <time>2017-10-14T08:32:12Z</time>
      </trkpt>
      <trkpt lat="45.03449" lon="5.86073">
        <ele>1599</ele>
        <time>2017-10-14T08:32:19Z</time>
      </trkpt>
      <trkpt lat="45.03455" lon="5.8605">
        <ele>1598</ele>
        <time>2017-10-14T08:32:26Z</time>
      </trkpt>
      <trkpt lat="45.03452" lon="5.86047">
        <ele>1597</ele>
        <time>2017-10-14T08:32:27Z</time>
      </trkpt>
      <trkpt lat="45.03448" lon="5.86039">
        <ele>1596</ele>
        <time>2017-10-14T08:32:29Z</time>
      </trkpt>
      <trkpt lat="45.03447" lon="5.86033">
        <ele>1595</ele>
        <time>2017-10-14T08:32:30Z</time>
      </trkpt>
      <trkpt lat="45.03426" lon="5.86049">
        <ele>1594</ele>
        <time>2017-10-14T08:32:36Z</time>
      </trkpt>
      <trkpt lat="45.03422" lon="5.86047">
        <ele>1594</ele>
        <time>2017-10-14T08:32:38Z</time>
      </trkpt>
      <trkpt lat="45.03422" lon="5.86033">
        <ele>1592</ele>
        <time>2017-10-14T08:32:40Z</time>
      </trkpt>
      <trkpt lat="45.03425" lon="5.86029">
        <ele>1591</ele>
        <time>2017-10-14T08:32:41Z</time>
      </trkpt>
      <trkpt lat="45.03425" lon="5.86024">
        <ele>1590</ele>
        <time>2017-10-14T08:32:42Z</time>
      </trkpt>
      <trkpt lat="45.03421" lon="5.86022">
        <ele>1589</ele>
        <time>2017-10-14T08:32:44Z</time>
      </trkpt>
      <trkpt lat="45.03417" lon="5.86023">
        <ele>1589</ele>
        <time>2017-10-14T08:32:45Z</time>
      </trkpt>
      <trkpt lat="45.03413" lon="5.86025">
        <ele>1574</ele>
        <time>2017-10-14T08:32:46Z</time>
      </trkpt>
      <trkpt lat="45.03376" lon="5.85993">
        <ele>1556</ele>
        <time>2017-10-14T08:32:57Z</time>
      </trkpt>
      <trkpt lat="45.03369" lon="5.85992">
        <ele>1554</ele>
        <time>2017-10-14T08:32:59Z</time>
      </trkpt>
      <trkpt lat="45.03364" lon="5.85958">
        <ele>1550</ele>
        <time>2017-10-14T08:33:04Z</time>
      </trkpt>
      <trkpt lat="45.03368" lon="5.85953">
        <ele>1551</ele>
        <time>2017-10-14T08:33:05Z</time>
      </trkpt>
      <trkpt lat="45.0337" lon="5.85917">
        <ele>1548</ele>
        <time>2017-10-14T08:33:10Z</time>
      </trkpt>
      <trkpt lat="45.03367" lon="5.85909">
        <ele>1538</ele>
        <time>2017-10-14T08:33:12Z</time>
      </trkpt>
      <trkpt lat="45.03343" lon="5.85872">
        <ele>1532</ele>
        <time>2017-10-14T08:33:22Z</time>
      </trkpt>
      <trkpt lat="45.03342" lon="5.85876">
        <ele>1532</ele>
        <time>2017-10-14T08:33:23Z</time>
      </trkpt>
      <trkpt lat="45.03341" lon="5.85872">
        <ele>1532</ele>
        <time>2017-10-14T08:33:24Z</time>
      </trkpt>
      <trkpt lat="45.03347" lon="5.85849">
        <ele>1528</ele>
        <time>2017-10-14T08:33:28Z</time>
      </trkpt>
      <trkpt lat="45.03349" lon="5.85842">
        <ele>1527</ele>
        <time>2017-10-14T08:33:29Z</time>
      </trkpt>
      <trkpt lat="45.03352" lon="5.85834">
        <ele>1527</ele>
        <time>2017-10-14T08:33:30Z</time>
      </trkpt>
      <trkpt lat="45.03355" lon="5.85829">
        <ele>1521</ele>
        <time>2017-10-14T08:33:31Z</time>
      </trkpt>
      <trkpt lat="45.03361" lon="5.85816">
        <ele>1522</ele>
        <time>2017-10-14T08:33:33Z</time>
      </trkpt>
      <trkpt lat="45.03364" lon="5.85797">
        <ele>1521</ele>
        <time>2017-10-14T08:33:36Z</time>
      </trkpt>
      <trkpt lat="45.03361" lon="5.85786">
        <ele>1519</ele>
        <time>2017-10-14T08:33:37Z</time>
      </trkpt>
      <trkpt lat="45.03361" lon="5.85781">
        <ele>1519</ele>
        <time>2017-10-14T08:33:38Z</time>
      </trkpt>
      <trkpt lat="45.03362" lon="5.85777">
        <ele>1518</ele>
        <time>2017-10-14T08:33:42Z</time>
      </trkpt>
      <trkpt lat="45.03327" lon="5.85763">
        <ele>1497</ele>
        <time>2017-10-14T08:33:54Z</time>
      </trkpt>
      <trkpt lat="45.03325" lon="5.85752">
        <ele>1498</ele>
        <time>2017-10-14T08:33:59Z</time>
      </trkpt>
      <trkpt lat="45.03319" lon="5.85754">
        <ele>1496</ele>
        <time>2017-10-14T08:34:01Z</time>
      </trkpt>
      <trkpt lat="45.03309" lon="5.85761">
        <ele>1494</ele>
        <time>2017-10-14T08:34:04Z</time>
      </trkpt>
      <trkpt lat="45.03306" lon="5.85772">
        <ele>1493</ele>
        <time>2017-10-14T08:34:05Z</time>
      </trkpt>
      <trkpt lat="45.0329" lon="5.85759">
        <ele>1488</ele>
        <time>2017-10-14T08:34:15Z</time>
      </trkpt>
      <trkpt lat="45.0329" lon="5.85752">
        <ele>1488</ele>
        <time>2017-10-14T08:34:17Z</time>
      </trkpt>
      <trkpt lat="45.0329" lon="5.85743">
        <ele>1478</ele>
        <time>2017-10-14T08:34:19Z</time>
      </trkpt>
      <trkpt lat="45.03291" lon="5.85732">
        <ele>1477</ele>
        <time>2017-10-14T08:34:21Z</time>
      </trkpt>
      <trkpt lat="45.03275" lon="5.85735">
        <ele>1474</ele>
        <time>2017-10-14T08:34:25Z</time>
      </trkpt>
      <trkpt lat="45.0327" lon="5.85736">
        <ele>1473</ele>
        <time>2017-10-14T08:34:26Z</time>
      </trkpt>
      <trkpt lat="45.03257" lon="5.85755">
        <ele>1474</ele>
        <time>2017-10-14T08:34:31Z</time>
      </trkpt>
      <trkpt lat="45.03254" lon="5.85758">
        <ele>1473</ele>
        <time>2017-10-14T08:34:32Z</time>
      </trkpt>
      <trkpt lat="45.03249" lon="5.85751">
        <ele>1466</ele>
        <time>2017-10-14T08:34:55Z</time>
      </trkpt>
      <trkpt lat="45.03255" lon="5.85747">
        <ele>1468</ele>
        <time>2017-10-14T08:36:38Z</time>
      </trkpt>
      <trkpt lat="45.03273" lon="5.85722">
        <ele>1473</ele>
        <time>2017-10-14T08:41:54Z</time>
      </trkpt>
      <trkpt lat="45.03276" lon="5.8572">
        <ele>1474</ele>
        <time>2017-10-14T08:41:56Z</time>
      </trkpt>
      <trkpt lat="45.03279" lon="5.85719">
        <ele>1474</ele>
        <time>2017-10-14T08:41:58Z</time>
      </trkpt>
      <trkpt lat="45.03284" lon="5.85712">
        <ele>1475</ele>
        <time>2017-10-14T08:42:02Z</time>
      </trkpt>
      <trkpt lat="45.03287" lon="5.85711">
        <ele>1475</ele>
        <time>2017-10-14T08:42:04Z</time>
      </trkpt>
      <trkpt lat="45.03291" lon="5.85708">
        <ele>1475</ele>
        <time>2017-10-14T08:42:06Z</time>
      </trkpt>
      <trkpt lat="45.03294" lon="5.85705">
        <ele>1476</ele>
        <time>2017-10-14T08:42:08Z</time>
      </trkpt>
      <trkpt lat="45.03296" lon="5.85702">
        <ele>1476</ele>
        <time>2017-10-14T08:42:10Z</time>
      </trkpt>
      <trkpt lat="45.03315" lon="5.85686">
        <ele>1478</ele>
        <time>2017-10-14T08:42:22Z</time>
      </trkpt>
      <trkpt lat="45.03318" lon="5.85685">
        <ele>1478</ele>
        <time>2017-10-14T08:42:24Z</time>
      </trkpt>
      <trkpt lat="45.03356" lon="5.85647">
        <ele>1479</ele>
        <time>2017-10-14T08:42:52Z</time>
      </trkpt>
      <trkpt lat="45.03376" lon="5.8563">
        <ele>1479</ele>
        <time>2017-10-14T08:43:02Z</time>
      </trkpt>
      <trkpt lat="45.0338" lon="5.85627">
        <ele>1479</ele>
        <time>2017-10-14T08:43:04Z</time>
      </trkpt>
      <trkpt lat="45.03389" lon="5.85625">
        <ele>1479</ele>
        <time>2017-10-14T08:43:08Z</time>
      </trkpt>
      <trkpt lat="45.03393" lon="5.85623">
        <ele>1479</ele>
        <time>2017-10-14T08:43:10Z</time>
      </trkpt>
      <trkpt lat="45.03414" lon="5.8562">
        <ele>1480</ele>
        <time>2017-10-14T08:43:20Z</time>
      </trkpt>
      <trkpt lat="45.03418" lon="5.85619">
        <ele>1491</ele>
        <time>2017-10-14T08:43:22Z</time>
      </trkpt>
      <trkpt lat="45.03435" lon="5.85621">
        <ele>1492</ele>
        <time>2017-10-14T08:43:30Z</time>
      </trkpt>
      <trkpt lat="45.03439" lon="5.85621">
        <ele>1492</ele>
        <time>2017-10-14T08:43:32Z</time>
      </trkpt>
      <trkpt lat="45.03456" lon="5.85622">
        <ele>1494</ele>
        <time>2017-10-14T08:43:40Z</time>
      </trkpt>
      <trkpt lat="45.03486" lon="5.85617">
        <ele>1495</ele>
        <time>2017-10-14T08:43:56Z</time>
      </trkpt>
      <trkpt lat="45.0349" lon="5.85616">
        <ele>1495</ele>
        <time>2017-10-14T08:43:58Z</time>
      </trkpt>
      <trkpt lat="45.03494" lon="5.85615">
        <ele>1495</ele>
        <time>2017-10-14T08:44:00Z</time>
      </trkpt>
      <trkpt lat="45.03498" lon="5.85614">
        <ele>1495</ele>
        <time>2017-10-14T08:44:02Z</time>
      </trkpt>
      <trkpt lat="45.03546" lon="5.85606">
        <ele>1502</ele>
        <time>2017-10-14T08:44:26Z</time>
      </trkpt>
      <trkpt lat="45.0355" lon="5.85606">
        <ele>1502</ele>
        <time>2017-10-14T08:44:28Z</time>
      </trkpt>
      <trkpt lat="45.03655" lon="5.85623">
        <ele>1506</ele>
        <time>2017-10-14T08:45:24Z</time>
      </trkpt>
      <trkpt lat="45.03658" lon="5.85626">
        <ele>1507</ele>
        <time>2017-10-14T08:45:26Z</time>
      </trkpt>
      <trkpt lat="45.03661" lon="5.85629">
        <ele>1507</ele>
        <time>2017-10-14T08:45:28Z</time>
      </trkpt>
      <trkpt lat="45.0368" lon="5.85652">
        <ele>1509</ele>
        <time>2017-10-14T08:45:44Z</time>
      </trkpt>
      <trkpt lat="45.03683" lon="5.85656">
        <ele>1509</ele>
        <time>2017-10-14T08:45:46Z</time>
      </trkpt>
      <trkpt lat="45.03711" lon="5.85693">
        <ele>1523</ele>
        <time>2017-10-14T08:46:04Z</time>
      </trkpt>
      <trkpt lat="45.03714" lon="5.85697">
        <ele>1523</ele>
        <time>2017-10-14T08:46:06Z</time>
      </trkpt>
      <trkpt lat="45.03719" lon="5.85705">
        <ele>1524</ele>
        <time>2017-10-14T08:46:10Z</time>
      </trkpt>
      <trkpt lat="45.03722" lon="5.85709">
        <ele>1524</ele>
        <time>2017-10-14T08:46:12Z</time>
      </trkpt>
      <trkpt lat="45.03725" lon="5.85714">
        <ele>1525</ele>
        <time>2017-10-14T08:46:14Z</time>
      </trkpt>
      <trkpt lat="45.03744" lon="5.85757">
        <ele>1535</ele>
        <time>2017-10-14T08:46:33Z</time>
      </trkpt>
      <trkpt lat="45.03747" lon="5.85761">
        <ele>1537</ele>
        <time>2017-10-14T08:46:35Z</time>
      </trkpt>
      <trkpt lat="45.03778" lon="5.85749">
        <ele>1530</ele>
        <time>2017-10-14T08:46:52Z</time>
      </trkpt>
      <trkpt lat="45.03792" lon="5.85712">
        <ele>1529</ele>
        <time>2017-10-14T08:47:10Z</time>
      </trkpt>
      <trkpt lat="45.03794" lon="5.85708">
        <ele>1528</ele>
        <time>2017-10-14T08:47:12Z</time>
      </trkpt>
      <trkpt lat="45.03858" lon="5.8563">
        <ele>1540</ele>
        <time>2017-10-14T08:48:02Z</time>
      </trkpt>
      <trkpt lat="45.03859" lon="5.85625">
        <ele>1540</ele>
        <time>2017-10-14T08:48:04Z</time>
      </trkpt>
      <trkpt lat="45.0386" lon="5.8562">
        <ele>1540</ele>
        <time>2017-10-14T08:48:06Z</time>
      </trkpt>
      <trkpt lat="45.03855" lon="5.85489">
        <ele>1529</ele>
        <time>2017-10-14T08:51:30Z</time>
      </trkpt>
      <trkpt lat="45.0387" lon="5.85467">
        <ele>1531</ele>
        <time>2017-10-14T08:51:40Z</time>
      </trkpt>
      <trkpt lat="45.03877" lon="5.85456">
        <ele>1531</ele>
        <time>2017-10-14T08:51:46Z</time>
      </trkpt>
      <trkpt lat="45.03879" lon="5.85451">
        <ele>1532</ele>
        <time>2017-10-14T08:51:48Z</time>
      </trkpt>
      <trkpt lat="45.03888" lon="5.85442">
        <ele>1532</ele>
        <time>2017-10-14T08:51:54Z</time>
      </trkpt>
      <trkpt lat="45.0389" lon="5.85439">
        <ele>1533</ele>
        <time>2017-10-14T08:51:56Z</time>
      </trkpt>
      <trkpt lat="45.0393" lon="5.85411">
        <ele>1538</ele>
        <time>2017-10-14T08:52:16Z</time>
      </trkpt>
      <trkpt lat="45.03935" lon="5.85409">
        <ele>1538</ele>
        <time>2017-10-14T08:52:18Z</time>
      </trkpt>
      <trkpt lat="45.03956" lon="5.85413">
        <ele>1538</ele>
        <time>2017-10-14T08:52:27Z</time>
      </trkpt>
      <trkpt lat="45.03959" lon="5.85414">
        <ele>1539</ele>
        <time>2017-10-14T08:52:28Z</time>
      </trkpt>
      <trkpt lat="45.03962" lon="5.85416">
        <ele>1539</ele>
        <time>2017-10-14T08:52:29Z</time>
      </trkpt>
      <trkpt lat="45.03988" lon="5.85433">
        <ele>1545</ele>
        <time>2017-10-14T08:52:39Z</time>
      </trkpt>
      <trkpt lat="45.03991" lon="5.85434">
        <ele>1545</ele>
        <time>2017-10-14T08:52:40Z</time>
      </trkpt>
      <trkpt lat="45.04029" lon="5.85459">
        <ele>1549</ele>
        <time>2017-10-14T08:52:57Z</time>
      </trkpt>
      <trkpt lat="45.04033" lon="5.85462">
        <ele>1549</ele>
        <time>2017-10-14T08:52:59Z</time>
      </trkpt>
      <trkpt lat="45.04054" lon="5.85481">
        <ele>1550</ele>
        <time>2017-10-14T08:53:12Z</time>
      </trkpt>
      <trkpt lat="45.04058" lon="5.85483">
        <ele>1550</ele>
        <time>2017-10-14T08:53:14Z</time>
      </trkpt>
      <trkpt lat="45.04071" lon="5.85494">
        <ele>1551</ele>
        <time>2017-10-14T08:53:22Z</time>
      </trkpt>
      <trkpt lat="45.04074" lon="5.85498">
        <ele>1552</ele>
        <time>2017-10-14T08:53:24Z</time>
      </trkpt>
      <trkpt lat="45.04077" lon="5.855">
        <ele>1555</ele>
        <time>2017-10-14T08:53:25Z</time>
      </trkpt>
      <trkpt lat="45.04079" lon="5.85503">
        <ele>1554</ele>
        <time>2017-10-14T08:53:26Z</time>
      </trkpt>
      <trkpt lat="45.04115" lon="5.85542">
        <ele>1556</ele>
        <time>2017-10-14T08:53:50Z</time>
      </trkpt>
      <trkpt lat="45.04118" lon="5.85546">
        <ele>1556</ele>
        <time>2017-10-14T08:53:52Z</time>
      </trkpt>
      <trkpt lat="45.0412" lon="5.85548">
        <ele>1556</ele>
        <time>2017-10-14T08:53:54Z</time>
      </trkpt>
      <trkpt lat="45.04122" lon="5.85553">
        <ele>1557</ele>
        <time>2017-10-14T08:53:57Z</time>
      </trkpt>
      <trkpt lat="45.04126" lon="5.85558">
        <ele>1557</ele>
        <time>2017-10-14T08:53:59Z</time>
      </trkpt>
      <trkpt lat="45.0413" lon="5.85562">
        <ele>1557</ele>
        <time>2017-10-14T08:54:01Z</time>
      </trkpt>
      <trkpt lat="45.04132" lon="5.85566">
        <ele>1557</ele>
        <time>2017-10-14T08:54:03Z</time>
      </trkpt>
      <trkpt lat="45.04134" lon="5.85571">
        <ele>1557</ele>
        <time>2017-10-14T08:54:05Z</time>
      </trkpt>
      <trkpt lat="45.04137" lon="5.85575">
        <ele>1557</ele>
        <time>2017-10-14T08:54:07Z</time>
      </trkpt>
      <trkpt lat="45.04141" lon="5.8558">
        <ele>1557</ele>
        <time>2017-10-14T08:54:09Z</time>
      </trkpt>
      <trkpt lat="45.04177" lon="5.85626">
        <ele>1558</ele>
        <time>2017-10-14T08:54:31Z</time>
      </trkpt>
      <trkpt lat="45.0418" lon="5.8563">
        <ele>1558</ele>
        <time>2017-10-14T08:54:33Z</time>
      </trkpt>
      <trkpt lat="45.04181" lon="5.85633">
        <ele>1559</ele>
        <time>2017-10-14T08:54:35Z</time>
      </trkpt>
      <trkpt lat="45.04183" lon="5.85637">
        <ele>1559</ele>
        <time>2017-10-14T08:54:37Z</time>
      </trkpt>
      <trkpt lat="45.04184" lon="5.8564">
        <ele>1559</ele>
        <time>2017-10-14T08:54:39Z</time>
      </trkpt>
      <trkpt lat="45.04202" lon="5.85668">
        <ele>1567</ele>
        <time>2017-10-14T08:54:50Z</time>
      </trkpt>
      <trkpt lat="45.04206" lon="5.85672">
        <ele>1567</ele>
        <time>2017-10-14T08:54:52Z</time>
      </trkpt>
      <trkpt lat="45.04209" lon="5.85677">
        <ele>1566</ele>
        <time>2017-10-14T08:54:54Z</time>
      </trkpt>
      <trkpt lat="45.04211" lon="5.85681">
        <ele>1566</ele>
        <time>2017-10-14T08:54:56Z</time>
      </trkpt>
      <trkpt lat="45.04229" lon="5.85711">
        <ele>1567</ele>
        <time>2017-10-14T08:55:11Z</time>
      </trkpt>
      <trkpt lat="45.04231" lon="5.85714">
        <ele>1567</ele>
        <time>2017-10-14T08:55:12Z</time>
      </trkpt>
      <trkpt lat="45.04234" lon="5.8572">
        <ele>1567</ele>
        <time>2017-10-14T08:55:14Z</time>
      </trkpt>
      <trkpt lat="45.04234" lon="5.8573">
        <ele>1567</ele>
        <time>2017-10-14T08:55:18Z</time>
      </trkpt>
      <trkpt lat="45.04232" lon="5.85733">
        <ele>1568</ele>
        <time>2017-10-14T08:55:20Z</time>
      </trkpt>
      <trkpt lat="45.04227" lon="5.85735">
        <ele>1568</ele>
        <time>2017-10-14T08:55:22Z</time>
      </trkpt>
      <trkpt lat="45.04223" lon="5.85736">
        <ele>1569</ele>
        <time>2017-10-14T08:55:24Z</time>
      </trkpt>
      <trkpt lat="45.04205" lon="5.85729">
        <ele>1570</ele>
        <time>2017-10-14T08:55:34Z</time>
      </trkpt>
      <trkpt lat="45.042" lon="5.85728">
        <ele>1571</ele>
        <time>2017-10-14T08:55:36Z</time>
      </trkpt>
      <trkpt lat="45.04184" lon="5.85728">
        <ele>1573</ele>
        <time>2017-10-14T08:55:46Z</time>
      </trkpt>
      <trkpt lat="45.0418" lon="5.85727">
        <ele>1574</ele>
        <time>2017-10-14T08:55:48Z</time>
      </trkpt>
      <trkpt lat="45.0416" lon="5.85722">
        <ele>1581</ele>
        <time>2017-10-14T08:55:58Z</time>
      </trkpt>
      <trkpt lat="45.04156" lon="5.8572">
        <ele>1581</ele>
        <time>2017-10-14T08:56:00Z</time>
      </trkpt>
      <trkpt lat="45.04149" lon="5.8572">
        <ele>1581</ele>
        <time>2017-10-14T08:56:05Z</time>
      </trkpt>
      <trkpt lat="45.04145" lon="5.8572">
        <ele>1581</ele>
        <time>2017-10-14T08:56:07Z</time>
      </trkpt>
      <trkpt lat="45.04138" lon="5.85719">
        <ele>1582</ele>
        <time>2017-10-14T08:56:12Z</time>
      </trkpt>
      <trkpt lat="45.04135" lon="5.85719">
        <ele>1582</ele>
        <time>2017-10-14T08:56:14Z</time>
      </trkpt>
      <trkpt lat="45.04122" lon="5.85721">
        <ele>1583</ele>
        <time>2017-10-14T08:56:20Z</time>
      </trkpt>
      <trkpt lat="45.04117" lon="5.85722">
        <ele>1583</ele>
        <time>2017-10-14T08:56:22Z</time>
      </trkpt>
      <trkpt lat="45.04113" lon="5.85722">
        <ele>1583</ele>
        <time>2017-10-14T08:56:24Z</time>
      </trkpt>
      <trkpt lat="45.0406" lon="5.85739">
        <ele>1588</ele>
        <time>2017-10-14T08:56:50Z</time>
      </trkpt>
      <trkpt lat="45.04058" lon="5.8574">
        <ele>1588</ele>
        <time>2017-10-14T08:56:51Z</time>
      </trkpt>
      <trkpt lat="45.04041" lon="5.85746">
        <ele>1588</ele>
        <time>2017-10-14T08:56:59Z</time>
      </trkpt>
      <trkpt lat="45.04038" lon="5.85747">
        <ele>1588</ele>
        <time>2017-10-14T08:57:01Z</time>
      </trkpt>
      <trkpt lat="45.03985" lon="5.85794">
        <ele>1593</ele>
        <time>2017-10-14T08:57:37Z</time>
      </trkpt>
      <trkpt lat="45.03983" lon="5.85797">
        <ele>1593</ele>
        <time>2017-10-14T08:57:39Z</time>
      </trkpt>
      <trkpt lat="45.03957" lon="5.85829">
        <ele>1593</ele>
        <time>2017-10-14T08:57:59Z</time>
      </trkpt>
      <trkpt lat="45.03954" lon="5.85832">
        <ele>1593</ele>
        <time>2017-10-14T08:58:01Z</time>
      </trkpt>
      <trkpt lat="45.03925" lon="5.85863">
        <ele>1604</ele>
        <time>2017-10-14T08:58:21Z</time>
      </trkpt>
      <trkpt lat="45.03922" lon="5.85866">
        <ele>1604</ele>
        <time>2017-10-14T08:58:23Z</time>
      </trkpt>
      <trkpt lat="45.03914" lon="5.85876">
        <ele>1595</ele>
        <time>2017-10-14T08:58:29Z</time>
      </trkpt>
      <trkpt lat="45.03911" lon="5.85879">
        <ele>1595</ele>
        <time>2017-10-14T08:58:31Z</time>
      </trkpt>
      <trkpt lat="45.03896" lon="5.85907">
        <ele>1599</ele>
        <time>2017-10-14T08:58:43Z</time>
      </trkpt>
      <trkpt lat="45.03894" lon="5.85912">
        <ele>1599</ele>
        <time>2017-10-14T08:58:45Z</time>
      </trkpt>
      <trkpt lat="45.03876" lon="5.85959">
        <ele>1612</ele>
        <time>2017-10-14T08:59:05Z</time>
      </trkpt>
      <trkpt lat="45.03874" lon="5.85963">
        <ele>1612</ele>
        <time>2017-10-14T08:59:07Z</time>
      </trkpt>
      <trkpt lat="45.03819" lon="5.86045">
        <ele>1617</ele>
        <time>2017-10-14T08:59:41Z</time>
      </trkpt>
      <trkpt lat="45.03817" lon="5.86048">
        <ele>1617</ele>
        <time>2017-10-14T08:59:42Z</time>
      </trkpt>
      <trkpt lat="45.03815" lon="5.8605">
        <ele>1617</ele>
        <time>2017-10-14T08:59:43Z</time>
      </trkpt>
      <trkpt lat="45.03812" lon="5.86053">
        <ele>1617</ele>
        <time>2017-10-14T08:59:44Z</time>
      </trkpt>
      <trkpt lat="45.03791" lon="5.86079">
        <ele>1617</ele>
        <time>2017-10-14T08:59:55Z</time>
      </trkpt>
      <trkpt lat="45.03762" lon="5.86127">
        <ele>1630</ele>
        <time>2017-10-14T09:00:10Z</time>
      </trkpt>
      <trkpt lat="45.0376" lon="5.86131">
        <ele>1630</ele>
        <time>2017-10-14T09:00:11Z</time>
      </trkpt>
      <trkpt lat="45.03752" lon="5.86145">
        <ele>1630</ele>
        <time>2017-10-14T09:00:15Z</time>
      </trkpt>
      <trkpt lat="45.0375" lon="5.86149">
        <ele>1627</ele>
        <time>2017-10-14T09:00:16Z</time>
      </trkpt>
      <trkpt lat="45.03743" lon="5.86159">
        <ele>1628</ele>
        <time>2017-10-14T09:00:19Z</time>
      </trkpt>
      <trkpt lat="45.03741" lon="5.86162">
        <ele>1628</ele>
        <time>2017-10-14T09:00:20Z</time>
      </trkpt>
      <trkpt lat="45.03717" lon="5.8621">
        <ele>1637</ele>
        <time>2017-10-14T09:00:34Z</time>
      </trkpt>
      <trkpt lat="45.03715" lon="5.86212">
        <ele>1637</ele>
        <time>2017-10-14T09:00:35Z</time>
      </trkpt>
      <trkpt lat="45.03696" lon="5.86208">
        <ele>1637</ele>
        <time>2017-10-14T09:00:42Z</time>
      </trkpt>
      <trkpt lat="45.03694" lon="5.86186">
        <ele>1636</ele>
        <time>2017-10-14T09:00:47Z</time>
      </trkpt>
      <trkpt lat="45.03694" lon="5.86182">
        <ele>1635</ele>
        <time>2017-10-14T09:00:48Z</time>
      </trkpt>
      <trkpt lat="45.03632" lon="5.86125">
        <ele>1629</ele>
        <time>2017-10-14T09:01:19Z</time>
      </trkpt>
      <trkpt lat="45.03628" lon="5.86124">
        <ele>1629</ele>
        <time>2017-10-14T09:01:21Z</time>
      </trkpt>
      <trkpt lat="45.03625" lon="5.86123">
        <ele>1629</ele>
        <time>2017-10-14T09:01:22Z</time>
      </trkpt>
      <trkpt lat="45.03622" lon="5.86123">
        <ele>1629</ele>
        <time>2017-10-14T09:01:23Z</time>
      </trkpt>
      <trkpt lat="45.03599" lon="5.86129">
        <ele>1630</ele>
        <time>2017-10-14T09:01:32Z</time>
      </trkpt>
      <trkpt lat="45.03596" lon="5.86133">
        <ele>1631</ele>
        <time>2017-10-14T09:01:34Z</time>
      </trkpt>
      <trkpt lat="45.0362" lon="5.86159">
        <ele>1632</ele>
        <time>2017-10-14T09:01:50Z</time>
      </trkpt>
      <trkpt lat="45.03623" lon="5.86162">
        <ele>1632</ele>
        <time>2017-10-14T09:01:52Z</time>
      </trkpt>
      <trkpt lat="45.03627" lon="5.86165">
        <ele>1632</ele>
        <time>2017-10-14T09:01:54Z</time>
      </trkpt>
      <trkpt lat="45.03654" lon="5.86209">
        <ele>1640</ele>
        <time>2017-10-14T09:02:17Z</time>
      </trkpt>
      <trkpt lat="45.03656" lon="5.86215">
        <ele>1640</ele>
        <time>2017-10-14T09:02:19Z</time>
      </trkpt>
      <trkpt lat="45.0366" lon="5.8628">
        <ele>1648</ele>
        <time>2017-10-14T09:02:40Z</time>
      </trkpt>
      <trkpt lat="45.03662" lon="5.86286">
        <ele>1649</ele>
        <time>2017-10-14T09:02:42Z</time>
      </trkpt>
      <trkpt lat="45.03664" lon="5.86296">
        <ele>1650</ele>
        <time>2017-10-14T09:02:46Z</time>
      </trkpt>
      <trkpt lat="45.03665" lon="5.86302">
        <ele>1650</ele>
        <time>2017-10-14T09:02:48Z</time>
      </trkpt>
      <trkpt lat="45.03689" lon="5.8637">
        <ele>1658</ele>
        <time>2017-10-14T09:03:14Z</time>
      </trkpt>
      <trkpt lat="45.03692" lon="5.86373">
        <ele>1658</ele>
        <time>2017-10-14T09:03:16Z</time>
      </trkpt>
      <trkpt lat="45.03695" lon="5.86376">
        <ele>1658</ele>
        <time>2017-10-14T09:03:18Z</time>
      </trkpt>
      <trkpt lat="45.03699" lon="5.86379">
        <ele>1658</ele>
        <time>2017-10-14T09:03:20Z</time>
      </trkpt>
      <trkpt lat="45.03708" lon="5.86385">
        <ele>1659</ele>
        <time>2017-10-14T09:03:26Z</time>
      </trkpt>
      <trkpt lat="45.03712" lon="5.86387">
        <ele>1659</ele>
        <time>2017-10-14T09:03:28Z</time>
      </trkpt>
      <trkpt lat="45.03753" lon="5.8643">
        <ele>1667</ele>
        <time>2017-10-14T09:03:57Z</time>
      </trkpt>
      <trkpt lat="45.03756" lon="5.86433">
        <ele>1668</ele>
        <time>2017-10-14T09:03:59Z</time>
      </trkpt>
      <trkpt lat="45.03784" lon="5.86448">
        <ele>1673</ele>
        <time>2017-10-14T09:04:18Z</time>
      </trkpt>
      <trkpt lat="45.03787" lon="5.86449">
        <ele>1673</ele>
        <time>2017-10-14T09:04:20Z</time>
      </trkpt>
      <trkpt lat="45.03794" lon="5.86452">
        <ele>1674</ele>
        <time>2017-10-14T09:04:24Z</time>
      </trkpt>
      <trkpt lat="45.03798" lon="5.86453">
        <ele>1674</ele>
        <time>2017-10-14T09:04:26Z</time>
      </trkpt>
      <trkpt lat="45.03802" lon="5.86453">
        <ele>1674</ele>
        <time>2017-10-14T09:04:28Z</time>
      </trkpt>
      <trkpt lat="45.03806" lon="5.86453">
        <ele>1674</ele>
        <time>2017-10-14T09:04:30Z</time>
      </trkpt>
      <trkpt lat="45.03817" lon="5.86447">
        <ele>1674</ele>
        <time>2017-10-14T09:04:36Z</time>
      </trkpt>
      <trkpt lat="45.03821" lon="5.86443">
        <ele>1674</ele>
        <time>2017-10-14T09:04:38Z</time>
      </trkpt>
      <trkpt lat="45.03832" lon="5.86321">
        <ele>1667</ele>
        <time>2017-10-14T09:05:22Z</time>
      </trkpt>
      <trkpt lat="45.03839" lon="5.8631">
        <ele>1676</ele>
        <time>2017-10-14T09:05:28Z</time>
      </trkpt>
      <trkpt lat="45.0384" lon="5.86307">
        <ele>1676</ele>
        <time>2017-10-14T09:05:30Z</time>
      </trkpt>
      <trkpt lat="45.03853" lon="5.86292">
        <ele>1677</ele>
        <time>2017-10-14T09:05:41Z</time>
      </trkpt>
      <trkpt lat="45.03856" lon="5.86289">
        <ele>1677</ele>
        <time>2017-10-14T09:05:43Z</time>
      </trkpt>
      <trkpt lat="45.03868" lon="5.86271">
        <ele>1677</ele>
        <time>2017-10-14T09:05:53Z</time>
      </trkpt>
      <trkpt lat="45.0387" lon="5.86268">
        <ele>1677</ele>
        <time>2017-10-14T09:05:55Z</time>
      </trkpt>
      <trkpt lat="45.03876" lon="5.8626">
        <ele>1678</ele>
        <time>2017-10-14T09:05:59Z</time>
      </trkpt>
      <trkpt lat="45.03878" lon="5.86256">
        <ele>1678</ele>
        <time>2017-10-14T09:06:01Z</time>
      </trkpt>
      <trkpt lat="45.039" lon="5.86234">
        <ele>1675</ele>
        <time>2017-10-14T09:06:17Z</time>
      </trkpt>
      <trkpt lat="45.03903" lon="5.86233">
        <ele>1675</ele>
        <time>2017-10-14T09:06:19Z</time>
      </trkpt>
      <trkpt lat="45.0391" lon="5.86232">
        <ele>1676</ele>
        <time>2017-10-14T09:06:25Z</time>
      </trkpt>
      <trkpt lat="45.03913" lon="5.86232">
        <ele>1676</ele>
        <time>2017-10-14T09:06:27Z</time>
      </trkpt>
      <trkpt lat="45.03959" lon="5.86239">
        <ele>1683</ele>
        <time>2017-10-14T09:06:57Z</time>
      </trkpt>
      <trkpt lat="45.03963" lon="5.86241">
        <ele>1683</ele>
        <time>2017-10-14T09:06:59Z</time>
      </trkpt>
      <trkpt lat="45.04028" lon="5.86292">
        <ele>1692</ele>
        <time>2017-10-14T09:07:41Z</time>
      </trkpt>
      <trkpt lat="45.04031" lon="5.86296">
        <ele>1692</ele>
        <time>2017-10-14T09:07:43Z</time>
      </trkpt>
      <trkpt lat="45.04042" lon="5.86314">
        <ele>1693</ele>
        <time>2017-10-14T09:07:53Z</time>
      </trkpt>
      <trkpt lat="45.04045" lon="5.86317">
        <ele>1693</ele>
        <time>2017-10-14T09:07:55Z</time>
      </trkpt>
      <trkpt lat="45.04074" lon="5.86379">
        <ele>1702</ele>
        <time>2017-10-14T09:08:25Z</time>
      </trkpt>
      <trkpt lat="45.04075" lon="5.86383">
        <ele>1702</ele>
        <time>2017-10-14T09:08:27Z</time>
      </trkpt>
      <trkpt lat="45.04077" lon="5.86387">
        <ele>1703</ele>
        <time>2017-10-14T09:08:29Z</time>
      </trkpt>
      <trkpt lat="45.04082" lon="5.86394">
        <ele>1703</ele>
        <time>2017-10-14T09:08:33Z</time>
      </trkpt>
      <trkpt lat="45.04084" lon="5.86398">
        <ele>1699</ele>
        <time>2017-10-14T09:08:35Z</time>
      </trkpt>
      <trkpt lat="45.04118" lon="5.86461">
        <ele>1705</ele>
        <time>2017-10-14T09:09:09Z</time>
      </trkpt>
      <trkpt lat="45.04121" lon="5.86465">
        <ele>1705</ele>
        <time>2017-10-14T09:09:11Z</time>
      </trkpt>
      <trkpt lat="45.04126" lon="5.86477">
        <ele>1706</ele>
        <time>2017-10-14T09:09:17Z</time>
      </trkpt>
      <trkpt lat="45.04128" lon="5.86481">
        <ele>1706</ele>
        <time>2017-10-14T09:09:19Z</time>
      </trkpt>
      <trkpt lat="45.04129" lon="5.86485">
        <ele>1706</ele>
        <time>2017-10-14T09:09:21Z</time>
      </trkpt>
      <trkpt lat="45.04135" lon="5.86496">
        <ele>1706</ele>
        <time>2017-10-14T09:09:27Z</time>
      </trkpt>
      <trkpt lat="45.04137" lon="5.865">
        <ele>1714</ele>
        <time>2017-10-14T09:09:29Z</time>
      </trkpt>
      <trkpt lat="45.04144" lon="5.86512">
        <ele>1713</ele>
        <time>2017-10-14T09:09:35Z</time>
      </trkpt>
      <trkpt lat="45.04147" lon="5.86515">
        <ele>1713</ele>
        <time>2017-10-14T09:09:37Z</time>
      </trkpt>
      <trkpt lat="45.0417" lon="5.8654">
        <ele>1713</ele>
        <time>2017-10-14T09:09:53Z</time>
      </trkpt>
      <trkpt lat="45.04173" lon="5.86543">
        <ele>1714</ele>
        <time>2017-10-14T09:09:55Z</time>
      </trkpt>
      <trkpt lat="45.04175" lon="5.86545">
        <ele>1714</ele>
        <time>2017-10-14T09:09:57Z</time>
      </trkpt>
      <trkpt lat="45.0421" lon="5.86578">
        <ele>1716</ele>
        <time>2017-10-14T09:10:23Z</time>
      </trkpt>
      <trkpt lat="45.04213" lon="5.8658">
        <ele>1716</ele>
        <time>2017-10-14T09:10:25Z</time>
      </trkpt>
      <trkpt lat="45.04294" lon="5.86609">
        <ele>1721</ele>
        <time>2017-10-14T09:11:13Z</time>
      </trkpt>
      <trkpt lat="45.04292" lon="5.86614">
        <ele>1722</ele>
        <time>2017-10-14T09:11:18Z</time>
      </trkpt>
      <trkpt lat="45.04289" lon="5.86613">
        <ele>1722</ele>
        <time>2017-10-14T09:11:21Z</time>
      </trkpt>
      <trkpt lat="45.04285" lon="5.86613">
        <ele>1722</ele>
        <time>2017-10-14T09:11:24Z</time>
      </trkpt>
      <trkpt lat="45.04272" lon="5.86617">
        <ele>1724</ele>
        <time>2017-10-14T09:11:33Z</time>
      </trkpt>
      <trkpt lat="45.04269" lon="5.86619">
        <ele>1725</ele>
        <time>2017-10-14T09:11:35Z</time>
      </trkpt>
      <trkpt lat="45.04257" lon="5.86626">
        <ele>1726</ele>
        <time>2017-10-14T09:11:44Z</time>
      </trkpt>
      <trkpt lat="45.04253" lon="5.86629">
        <ele>1727</ele>
        <time>2017-10-14T09:11:47Z</time>
      </trkpt>
      <trkpt lat="45.0425" lon="5.86632">
        <ele>1728</ele>
        <time>2017-10-14T09:11:50Z</time>
      </trkpt>
      <trkpt lat="45.04238" lon="5.86636">
        <ele>1735</ele>
        <time>2017-10-14T09:12:00Z</time>
      </trkpt>
      <trkpt lat="45.04235" lon="5.86638">
        <ele>1735</ele>
        <time>2017-10-14T09:12:02Z</time>
      </trkpt>
      <trkpt lat="45.04213" lon="5.86645">
        <ele>1736</ele>
        <time>2017-10-14T09:12:17Z</time>
      </trkpt>
      <trkpt lat="45.0421" lon="5.86647">
        <ele>1736</ele>
        <time>2017-10-14T09:12:20Z</time>
      </trkpt>
      <trkpt lat="45.04204" lon="5.86652">
        <ele>1736</ele>
        <time>2017-10-14T09:12:26Z</time>
      </trkpt>
      <trkpt lat="45.04201" lon="5.86653">
        <ele>1736</ele>
        <time>2017-10-14T09:12:28Z</time>
      </trkpt>
      <trkpt lat="45.04184" lon="5.86657">
        <ele>1738</ele>
        <time>2017-10-14T09:12:39Z</time>
      </trkpt>
      <trkpt lat="45.04181" lon="5.86658">
        <ele>1739</ele>
        <time>2017-10-14T09:12:42Z</time>
      </trkpt>
      <trkpt lat="45.04142" lon="5.86685">
        <ele>1746</ele>
        <time>2017-10-14T09:13:08Z</time>
      </trkpt>
      <trkpt lat="45.0414" lon="5.86689">
        <ele>1746</ele>
        <time>2017-10-14T09:13:10Z</time>
      </trkpt>
      <trkpt lat="45.04124" lon="5.86704">
        <ele>1747</ele>
        <time>2017-10-14T09:13:22Z</time>
      </trkpt>
      <trkpt lat="45.04119" lon="5.86709">
        <ele>1747</ele>
        <time>2017-10-14T09:13:26Z</time>
      </trkpt>
      <trkpt lat="45.04116" lon="5.86711">
        <ele>1747</ele>
        <time>2017-10-14T09:13:29Z</time>
      </trkpt>
      <trkpt lat="45.04113" lon="5.86712">
        <ele>1747</ele>
        <time>2017-10-14T09:13:31Z</time>
      </trkpt>
      <trkpt lat="45.04094" lon="5.86723">
        <ele>1747</ele>
        <time>2017-10-14T09:13:46Z</time>
      </trkpt>
      <trkpt lat="45.04092" lon="5.86726">
        <ele>1748</ele>
        <time>2017-10-14T09:13:48Z</time>
      </trkpt>
      <trkpt lat="45.04083" lon="5.86737">
        <ele>1745</ele>
        <time>2017-10-14T09:13:56Z</time>
      </trkpt>
      <trkpt lat="45.0408" lon="5.86742">
        <ele>1746</ele>
        <time>2017-10-14T09:13:59Z</time>
      </trkpt>
      <trkpt lat="45.04076" lon="5.86748">
        <ele>1747</ele>
        <time>2017-10-14T09:14:04Z</time>
      </trkpt>
      <trkpt lat="45.04076" lon="5.86752">
        <ele>1751</ele>
        <time>2017-10-14T09:15:25Z</time>
      </trkpt>
      <trkpt lat="45.04066" lon="5.86787">
        <ele>1756</ele>
        <time>2017-10-14T09:21:24Z</time>
      </trkpt>
      <trkpt lat="45.04065" lon="5.86798">
        <ele>1757</ele>
        <time>2017-10-14T09:27:37Z</time>
      </trkpt>
      <trkpt lat="45.04061" lon="5.86801">
        <ele>1758</ele>
        <time>2017-10-14T09:37:56Z</time>
      </trkpt>
      <trkpt lat="45.04063" lon="5.86792">
        <ele>1756</ele>
        <time>2017-10-14T09:38:02Z</time>
      </trkpt>
      <trkpt lat="45.04064" lon="5.86788">
        <ele>1756</ele>
        <time>2017-10-14T09:38:05Z</time>
      </trkpt>
      <trkpt lat="45.04064" lon="5.86784">
        <ele>1755</ele>
        <time>2017-10-14T09:39:57Z</time>
      </trkpt>
      <trkpt lat="45.04062" lon="5.86792">
        <ele>1756</ele>
        <time>2017-10-14T09:40:02Z</time>
      </trkpt>
      <trkpt lat="45.04061" lon="5.86797">
        <ele>1757</ele>
        <time>2017-10-14T09:40:05Z</time>
      </trkpt>
      <trkpt lat="45.04062" lon="5.86809">
        <ele>1759</ele>
        <time>2017-10-14T09:42:12Z</time>
      </trkpt>
      <trkpt lat="45.04059" lon="5.86841">
        <ele>1771</ele>
      </trkpt>
      <trkpt lat="45.04066" lon="5.86883">
        <ele>1776</ele>
      </trkpt>
      <trkpt lat="45.04069" lon="5.86942">
        <ele>1790</ele>
      </trkpt>
      <trkpt lat="45.04074" lon="5.86983">
        <ele>1796</ele>
      </trkpt>
      <trkpt lat="45.04088" lon="5.87021">
        <ele>1807</ele>
      </trkpt>
      <trkpt lat="45.0409" lon="5.87069">
        <ele>1814</ele>
      </trkpt>
      <trkpt lat="45.04091" lon="5.87111">
        <ele>1823</ele>
      </trkpt>
      <trkpt lat="45.04082" lon="5.87164">
        <ele>1832</ele>
      </trkpt>
      <trkpt lat="45.04077" lon="5.87189">
        <ele>1839</ele>
      </trkpt>
      <trkpt lat="45.04068" lon="5.87209">
        <ele>1843</ele>
      </trkpt>
      <trkpt lat="45.04068" lon="5.87241">
        <ele>1846</ele>
      </trkpt>
      <trkpt lat="45.04051" lon="5.87289">
        <ele>1862</ele>
      </trkpt>
      <trkpt lat="45.04037" lon="5.87298">
        <ele>1864</ele>
      </trkpt>
      <trkpt lat="45.04035" lon="5.87321">
        <ele>1867</ele>
      </trkpt>
      <trkpt lat="45.04023" lon="5.87354">
        <ele>1887</ele>
      </trkpt>
      <trkpt lat="45.04012" lon="5.87376">
        <ele>1893</ele>
      </trkpt>
      <trkpt lat="45.04003" lon="5.87356">
        <ele>1886</ele>
      </trkpt>
      <trkpt lat="45.03986" lon="5.87323">
        <ele>1876</ele>
      </trkpt>
      <trkpt lat="45.03985" lon="5.87261">
        <ele>1866</ele>
      </trkpt>
      <trkpt lat="45.03991" lon="5.87232">
        <ele>1855</ele>
      </trkpt>
      <trkpt lat="45.03993" lon="5.87197">
        <ele>1852</ele>
      </trkpt>
      <trkpt lat="45.03988" lon="5.87162">
        <ele>1839</ele>
      </trkpt>
      <trkpt lat="45.03983" lon="5.87118">
        <ele>1833</ele>
      </trkpt>
      <trkpt lat="45.0395" lon="5.87062">
        <ele>1817</ele>
      </trkpt>
      <trkpt lat="45.03921" lon="5.87025">
        <ele>1812</ele>
      </trkpt>
      <trkpt lat="45.03897" lon="5.87">
        <ele>1809</ele>
      </trkpt>
      <trkpt lat="45.03866" lon="5.86979">
        <ele>1793</ele>
      </trkpt>
      <trkpt lat="45.03842" lon="5.8697">
        <ele>1792</ele>
      </trkpt>
      <trkpt lat="45.03829" lon="5.86944">
        <ele>1781</ele>
      </trkpt>
      <trkpt lat="45.03806" lon="5.86952">
        <ele>1781</ele>
      </trkpt>
      <trkpt lat="45.03779" lon="5.86936">
        <ele>1777</ele>
      </trkpt>
      <trkpt lat="45.03746" lon="5.86927">
        <ele>1766</ele>
      </trkpt>
      <trkpt lat="45.0373" lon="5.86898">
        <ele>1756</ele>
      </trkpt>
      <trkpt lat="45.03681" lon="5.86886">
        <ele>1750</ele>
      </trkpt>
      <trkpt lat="45.03666" lon="5.86873">
        <ele>1735</ele>
      </trkpt>
      <trkpt lat="45.03646" lon="5.86833">
        <ele>1732</ele>
      </trkpt>
      <trkpt lat="45.03599" lon="5.86786">
        <ele>1726</ele>
      </trkpt>
      <trkpt lat="45.03577" lon="5.86768">
        <ele>1715</ele>
      </trkpt>
      <trkpt lat="45.03564" lon="5.86727">
        <ele>1716</ele>
      </trkpt>
      <trkpt lat="45.0354" lon="5.86714">
        <ele>1713</ele>
      </trkpt>
      <trkpt lat="45.03527" lon="5.86681">
        <ele>1713</ele>
      </trkpt>
      <trkpt lat="45.03513" lon="5.8665">
        <ele>1711</ele>
      </trkpt>
      <trkpt lat="45.0351" lon="5.86644">
        <ele>1711</ele>
        <time>2017-10-14T10:01:07Z</time>
      </trkpt>
      <trkpt lat="45.03508" lon="5.86636">
        <ele>1711</ele>
        <time>2017-10-14T10:01:08Z</time>
      </trkpt>
      <trkpt lat="45.03505" lon="5.86628">
        <ele>1711</ele>
        <time>2017-10-14T10:01:09Z</time>
      </trkpt>
      <trkpt lat="45.035" lon="5.86614">
        <ele>1710</ele>
        <time>2017-10-14T10:01:11Z</time>
      </trkpt>
      <trkpt lat="45.0348" lon="5.86575">
        <ele>1700</ele>
        <time>2017-10-14T10:01:16Z</time>
      </trkpt>
      <trkpt lat="45.03475" lon="5.86565">
        <ele>1698</ele>
        <time>2017-10-14T10:01:17Z</time>
      </trkpt>
      <trkpt lat="45.03458" lon="5.86538">
        <ele>1695</ele>
        <time>2017-10-14T10:01:20Z</time>
      </trkpt>
      <trkpt lat="45.03452" lon="5.86531">
        <ele>1695</ele>
        <time>2017-10-14T10:01:21Z</time>
      </trkpt>
      <trkpt lat="45.03427" lon="5.865">
        <ele>1691</ele>
        <time>2017-10-14T10:01:26Z</time>
      </trkpt>
      <trkpt lat="45.03414" lon="5.86529">
        <ele>1676</ele>
        <time>2017-10-14T10:01:32Z</time>
      </trkpt>
      <trkpt lat="45.03415" lon="5.86546">
        <ele>1673</ele>
        <time>2017-10-14T10:01:34Z</time>
      </trkpt>
      <trkpt lat="45.03416" lon="5.86552">
        <ele>1673</ele>
        <time>2017-10-14T10:01:35Z</time>
      </trkpt>
      <trkpt lat="45.03418" lon="5.86559">
        <ele>1690</ele>
        <time>2017-10-14T10:01:36Z</time>
      </trkpt>
      <trkpt lat="45.03419" lon="5.86564">
        <ele>1689</ele>
        <time>2017-10-14T10:01:37Z</time>
      </trkpt>
      <trkpt lat="45.03421" lon="5.86599">
        <ele>1686</ele>
        <time>2017-10-14T10:01:47Z</time>
      </trkpt>
      <trkpt lat="45.03422" lon="5.8663">
        <ele>1685</ele>
        <time>2017-10-14T10:01:54Z</time>
      </trkpt>
      <trkpt lat="45.03423" lon="5.86636">
        <ele>1684</ele>
        <time>2017-10-14T10:01:55Z</time>
      </trkpt>
      <trkpt lat="45.03422" lon="5.86671">
        <ele>1670</ele>
        <time>2017-10-14T10:02:01Z</time>
      </trkpt>
      <trkpt lat="45.03426" lon="5.86687">
        <ele>1675</ele>
        <time>2017-10-14T10:02:03Z</time>
      </trkpt>
      <trkpt lat="45.03429" lon="5.86715">
        <ele>1674</ele>
        <time>2017-10-14T10:02:06Z</time>
      </trkpt>
      <trkpt lat="45.03429" lon="5.86725">
        <ele>1672</ele>
        <time>2017-10-14T10:02:07Z</time>
      </trkpt>
      <trkpt lat="45.0343" lon="5.86735">
        <ele>1669</ele>
        <time>2017-10-14T10:02:08Z</time>
      </trkpt>
      <trkpt lat="45.03424" lon="5.86779">
        <ele>1662</ele>
        <time>2017-10-14T10:02:15Z</time>
      </trkpt>
      <trkpt lat="45.03423" lon="5.86783">
        <ele>1662</ele>
        <time>2017-10-14T10:02:16Z</time>
      </trkpt>
      <trkpt lat="45.03423" lon="5.86796">
        <ele>1661</ele>
        <time>2017-10-14T10:02:18Z</time>
      </trkpt>
      <trkpt lat="45.03429" lon="5.86829">
        <ele>1652</ele>
        <time>2017-10-14T10:02:24Z</time>
      </trkpt>
      <trkpt lat="45.03431" lon="5.86857">
        <ele>1650</ele>
        <time>2017-10-14T10:02:27Z</time>
      </trkpt>
      <trkpt lat="45.03432" lon="5.86866">
        <ele>1651</ele>
        <time>2017-10-14T10:02:28Z</time>
      </trkpt>
      <trkpt lat="45.03433" lon="5.86876">
        <ele>1650</ele>
        <time>2017-10-14T10:02:29Z</time>
      </trkpt>
      <trkpt lat="45.03435" lon="5.86884">
        <ele>1649</ele>
        <time>2017-10-14T10:02:30Z</time>
      </trkpt>
      <trkpt lat="45.03435" lon="5.86891">
        <ele>1648</ele>
        <time>2017-10-14T10:02:31Z</time>
      </trkpt>
      <trkpt lat="45.03417" lon="5.86933">
        <ele>1635</ele>
        <time>2017-10-14T10:02:45Z</time>
      </trkpt>
      <trkpt lat="45.03413" lon="5.86933">
        <ele>1621</ele>
        <time>2017-10-14T10:02:46Z</time>
      </trkpt>
      <trkpt lat="45.03408" lon="5.86933">
        <ele>1620</ele>
        <time>2017-10-14T10:02:47Z</time>
      </trkpt>
      <trkpt lat="45.03391" lon="5.86927">
        <ele>1618</ele>
        <time>2017-10-14T10:02:50Z</time>
      </trkpt>
      <trkpt lat="45.03385" lon="5.86924">
        <ele>1617</ele>
        <time>2017-10-14T10:02:51Z</time>
      </trkpt>
      <trkpt lat="45.03361" lon="5.86908">
        <ele>1615</ele>
        <time>2017-10-14T10:02:56Z</time>
      </trkpt>
      <trkpt lat="45.03359" lon="5.8687">
        <ele>1617</ele>
        <time>2017-10-14T10:03:04Z</time>
      </trkpt>
      <trkpt lat="45.03358" lon="5.86863">
        <ele>1617</ele>
        <time>2017-10-14T10:03:05Z</time>
      </trkpt>
      <trkpt lat="45.03345" lon="5.86827">
        <ele>1615</ele>
        <time>2017-10-14T10:03:12Z</time>
      </trkpt>
      <trkpt lat="45.03343" lon="5.86822">
        <ele>1616</ele>
        <time>2017-10-14T10:03:13Z</time>
      </trkpt>
      <trkpt lat="45.03337" lon="5.86815">
        <ele>1617</ele>
        <time>2017-10-14T10:03:15Z</time>
      </trkpt>
      <trkpt lat="45.03317" lon="5.86766">
        <ele>1604</ele>
        <time>2017-10-14T10:03:25Z</time>
      </trkpt>
      <trkpt lat="45.03315" lon="5.86762">
        <ele>1604</ele>
        <time>2017-10-14T10:03:26Z</time>
      </trkpt>
      <trkpt lat="45.03314" lon="5.86757">
        <ele>1604</ele>
        <time>2017-10-14T10:03:27Z</time>
      </trkpt>
      <trkpt lat="45.03313" lon="5.86753">
        <ele>1604</ele>
        <time>2017-10-14T10:03:28Z</time>
      </trkpt>
      <trkpt lat="45.03309" lon="5.86745">
        <ele>1604</ele>
        <time>2017-10-14T10:03:30Z</time>
      </trkpt>
      <trkpt lat="45.03308" lon="5.8674">
        <ele>1604</ele>
        <time>2017-10-14T10:03:31Z</time>
      </trkpt>
      <trkpt lat="45.03307" lon="5.86712">
        <ele>1604</ele>
        <time>2017-10-14T10:03:37Z</time>
      </trkpt>
      <trkpt lat="45.03307" lon="5.86708">
        <ele>1604</ele>
        <time>2017-10-14T10:03:38Z</time>
      </trkpt>
      <trkpt lat="45.03306" lon="5.86704">
        <ele>1604</ele>
        <time>2017-10-14T10:03:39Z</time>
      </trkpt>
      <trkpt lat="45.033" lon="5.86692">
        <ele>1604</ele>
        <time>2017-10-14T10:03:42Z</time>
      </trkpt>
      <trkpt lat="45.03288" lon="5.86676">
        <ele>1602</ele>
        <time>2017-10-14T10:03:45Z</time>
      </trkpt>
      <trkpt lat="45.03285" lon="5.86671">
        <ele>1601</ele>
        <time>2017-10-14T10:03:46Z</time>
      </trkpt>
      <trkpt lat="45.03282" lon="5.86628">
        <ele>1604</ele>
        <time>2017-10-14T10:03:53Z</time>
      </trkpt>
      <trkpt lat="45.03281" lon="5.86623">
        <ele>1604</ele>
        <time>2017-10-14T10:03:54Z</time>
      </trkpt>
      <trkpt lat="45.03281" lon="5.86618">
        <ele>1603</ele>
        <time>2017-10-14T10:03:55Z</time>
      </trkpt>
      <trkpt lat="45.03282" lon="5.86611">
        <ele>1604</ele>
        <time>2017-10-14T10:03:56Z</time>
      </trkpt>
      <trkpt lat="45.03274" lon="5.86578">
        <ele>1604</ele>
        <time>2017-10-14T10:04:03Z</time>
      </trkpt>
      <trkpt lat="45.03272" lon="5.86573">
        <ele>1604</ele>
        <time>2017-10-14T10:04:04Z</time>
      </trkpt>
      <trkpt lat="45.0327" lon="5.86567">
        <ele>1605</ele>
        <time>2017-10-14T10:04:05Z</time>
      </trkpt>
      <trkpt lat="45.03268" lon="5.86561">
        <ele>1605</ele>
        <time>2017-10-14T10:04:06Z</time>
      </trkpt>
      <trkpt lat="45.03257" lon="5.86541">
        <ele>1607</ele>
        <time>2017-10-14T10:04:10Z</time>
      </trkpt>
      <trkpt lat="45.03255" lon="5.86535">
        <ele>1607</ele>
        <time>2017-10-14T10:04:11Z</time>
      </trkpt>
      <trkpt lat="45.03218" lon="5.86456">
        <ele>1585</ele>
        <time>2017-10-14T10:04:22Z</time>
      </trkpt>
      <trkpt lat="45.03213" lon="5.8645">
        <ele>1584</ele>
        <time>2017-10-14T10:04:23Z</time>
      </trkpt>
      <trkpt lat="45.03208" lon="5.86444">
        <ele>1583</ele>
        <time>2017-10-14T10:04:24Z</time>
      </trkpt>
      <trkpt lat="45.03203" lon="5.8644">
        <ele>1582</ele>
        <time>2017-10-14T10:04:25Z</time>
      </trkpt>
      <trkpt lat="45.03197" lon="5.86435">
        <ele>1580</ele>
        <time>2017-10-14T10:04:26Z</time>
      </trkpt>
      <trkpt lat="45.03187" lon="5.86425">
        <ele>1576</ele>
        <time>2017-10-14T10:04:28Z</time>
      </trkpt>
      <trkpt lat="45.03182" lon="5.86418">
        <ele>1574</ele>
        <time>2017-10-14T10:04:29Z</time>
      </trkpt>
      <trkpt lat="45.03178" lon="5.8637">
        <ele>1585</ele>
        <time>2017-10-14T10:04:38Z</time>
      </trkpt>
      <trkpt lat="45.03178" lon="5.86365">
        <ele>1585</ele>
        <time>2017-10-14T10:04:39Z</time>
      </trkpt>
      <trkpt lat="45.03182" lon="5.86341">
        <ele>1581</ele>
        <time>2017-10-14T10:04:47Z</time>
      </trkpt>
      <trkpt lat="45.03182" lon="5.86335">
        <ele>1581</ele>
        <time>2017-10-14T10:04:48Z</time>
      </trkpt>
      <trkpt lat="45.03186" lon="5.86309">
        <ele>1578</ele>
        <time>2017-10-14T10:04:53Z</time>
      </trkpt>
      <trkpt lat="45.03185" lon="5.86305">
        <ele>1578</ele>
        <time>2017-10-14T10:04:54Z</time>
      </trkpt>
      <trkpt lat="45.03183" lon="5.86299">
        <ele>1577</ele>
        <time>2017-10-14T10:04:55Z</time>
      </trkpt>
      <trkpt lat="45.03182" lon="5.86293">
        <ele>1576</ele>
        <time>2017-10-14T10:04:56Z</time>
      </trkpt>
      <trkpt lat="45.03182" lon="5.86286">
        <ele>1574</ele>
        <time>2017-10-14T10:04:57Z</time>
      </trkpt>
      <trkpt lat="45.03193" lon="5.86265">
        <ele>1573</ele>
        <time>2017-10-14T10:05:02Z</time>
      </trkpt>
      <trkpt lat="45.03197" lon="5.86266">
        <ele>1575</ele>
        <time>2017-10-14T10:05:03Z</time>
      </trkpt>
      <trkpt lat="45.03204" lon="5.86264">
        <ele>1578</ele>
        <time>2017-10-14T10:05:22Z</time>
      </trkpt>
      <trkpt lat="45.03208" lon="5.86259">
        <ele>1579</ele>
        <time>2017-10-14T10:05:24Z</time>
      </trkpt>
      <trkpt lat="45.03211" lon="5.86256">
        <ele>1580</ele>
        <time>2017-10-14T10:05:25Z</time>
      </trkpt>
      <trkpt lat="45.03214" lon="5.86252">
        <ele>1582</ele>
        <time>2017-10-14T10:05:26Z</time>
      </trkpt>
      <trkpt lat="45.0322" lon="5.8623">
        <ele>1565</ele>
        <time>2017-10-14T10:05:29Z</time>
      </trkpt>
      <trkpt lat="45.03222" lon="5.86222">
        <ele>1563</ele>
        <time>2017-10-14T10:05:30Z</time>
      </trkpt>
      <trkpt lat="45.03224" lon="5.86207">
        <ele>1560</ele>
        <time>2017-10-14T10:05:32Z</time>
      </trkpt>
      <trkpt lat="45.03225" lon="5.86199">
        <ele>1559</ele>
        <time>2017-10-14T10:05:33Z</time>
      </trkpt>
      <trkpt lat="45.03215" lon="5.86181">
        <ele>1555</ele>
        <time>2017-10-14T10:05:44Z</time>
      </trkpt>
      <trkpt lat="45.03206" lon="5.8618">
        <ele>1551</ele>
        <time>2017-10-14T10:05:48Z</time>
      </trkpt>
      <trkpt lat="45.03203" lon="5.86173">
        <ele>1550</ele>
        <time>2017-10-14T10:05:50Z</time>
      </trkpt>
      <trkpt lat="45.03215" lon="5.86149">
        <ele>1535</ele>
        <time>2017-10-14T10:05:53Z</time>
      </trkpt>
      <trkpt lat="45.03217" lon="5.86141">
        <ele>1534</ele>
        <time>2017-10-14T10:05:54Z</time>
      </trkpt>
      <trkpt lat="45.0323" lon="5.86123">
        <ele>1534</ele>
        <time>2017-10-14T10:05:57Z</time>
      </trkpt>
      <trkpt lat="45.03234" lon="5.86118">
        <ele>1534</ele>
        <time>2017-10-14T10:05:58Z</time>
      </trkpt>
      <trkpt lat="45.03241" lon="5.86075">
        <ele>1524</ele>
        <time>2017-10-14T10:06:05Z</time>
      </trkpt>
      <trkpt lat="45.03243" lon="5.86067">
        <ele>1521</ele>
        <time>2017-10-14T10:06:06Z</time>
      </trkpt>
      <trkpt lat="45.03248" lon="5.86061">
        <ele>1519</ele>
        <time>2017-10-14T10:06:07Z</time>
      </trkpt>
      <trkpt lat="45.03251" lon="5.86058">
        <ele>1535</ele>
        <time>2017-10-14T10:06:08Z</time>
      </trkpt>
      <trkpt lat="45.03258" lon="5.86039">
        <ele>1533</ele>
        <time>2017-10-14T10:06:12Z</time>
      </trkpt>
      <trkpt lat="45.03258" lon="5.86034">
        <ele>1532</ele>
        <time>2017-10-14T10:06:13Z</time>
      </trkpt>
      <trkpt lat="45.03259" lon="5.8603">
        <ele>1531</ele>
        <time>2017-10-14T10:06:14Z</time>
      </trkpt>
      <trkpt lat="45.03256" lon="5.86024">
        <ele>1528</ele>
        <time>2017-10-14T10:06:15Z</time>
      </trkpt>
      <trkpt lat="45.03254" lon="5.86018">
        <ele>1526</ele>
        <time>2017-10-14T10:06:17Z</time>
      </trkpt>
      <trkpt lat="45.03252" lon="5.86011">
        <ele>1522</ele>
        <time>2017-10-14T10:06:19Z</time>
      </trkpt>
      <trkpt lat="45.03252" lon="5.85995">
        <ele>1514</ele>
        <time>2017-10-14T10:06:21Z</time>
      </trkpt>
      <trkpt lat="45.03253" lon="5.85989">
        <ele>1515</ele>
        <time>2017-10-14T10:06:22Z</time>
      </trkpt>
      <trkpt lat="45.03253" lon="5.85974">
        <ele>1516</ele>
        <time>2017-10-14T10:06:26Z</time>
      </trkpt>
      <trkpt lat="45.03247" lon="5.85967">
        <ele>1496</ele>
        <time>2017-10-14T10:06:29Z</time>
      </trkpt>
      <trkpt lat="45.03244" lon="5.85964">
        <ele>1495</ele>
        <time>2017-10-14T10:06:31Z</time>
      </trkpt>
      <trkpt lat="45.03229" lon="5.85961">
        <ele>1493</ele>
        <time>2017-10-14T10:06:34Z</time>
      </trkpt>
      <trkpt lat="45.03226" lon="5.85959">
        <ele>1492</ele>
        <time>2017-10-14T10:06:35Z</time>
      </trkpt>
      <trkpt lat="45.03189" lon="5.85963">
        <ele>1486</ele>
        <time>2017-10-14T10:06:42Z</time>
      </trkpt>
      <trkpt lat="45.03185" lon="5.85967">
        <ele>1486</ele>
        <time>2017-10-14T10:06:43Z</time>
      </trkpt>
      <trkpt lat="45.03167" lon="5.85974">
        <ele>1484</ele>
        <time>2017-10-14T10:06:47Z</time>
      </trkpt>
      <trkpt lat="45.03163" lon="5.85974">
        <ele>1468</ele>
        <time>2017-10-14T10:06:48Z</time>
      </trkpt>
      <trkpt lat="45.03124" lon="5.85989">
        <ele>1462</ele>
        <time>2017-10-14T10:07:00Z</time>
      </trkpt>
      <trkpt lat="45.03121" lon="5.85995">
        <ele>1462</ele>
        <time>2017-10-14T10:07:01Z</time>
      </trkpt>
      <trkpt lat="45.03074" lon="5.86047">
        <ele>1442</ele>
        <time>2017-10-14T10:07:08Z</time>
      </trkpt>
      <trkpt lat="45.03067" lon="5.86053">
        <ele>1441</ele>
        <time>2017-10-14T10:07:09Z</time>
      </trkpt>
      <trkpt lat="45.03049" lon="5.861">
        <ele>1443</ele>
        <time>2017-10-14T10:07:17Z</time>
      </trkpt>
      <trkpt lat="45.03043" lon="5.86118">
        <ele>1442</ele>
        <time>2017-10-14T10:07:19Z</time>
      </trkpt>
      <trkpt lat="45.03038" lon="5.86127">
        <ele>1441</ele>
        <time>2017-10-14T10:07:20Z</time>
      </trkpt>
      <trkpt lat="45.03017" lon="5.86133">
        <ele>1435</ele>
        <time>2017-10-14T10:07:28Z</time>
      </trkpt>
      <trkpt lat="45.03009" lon="5.86121">
        <ele>1433</ele>
        <time>2017-10-14T10:07:30Z</time>
      </trkpt>
      <trkpt lat="45.03004" lon="5.86116">
        <ele>1432</ele>
        <time>2017-10-14T10:07:31Z</time>
      </trkpt>
      <trkpt lat="45.02996" lon="5.86129">
        <ele>1407</ele>
        <time>2017-10-14T10:07:35Z</time>
      </trkpt>
      <trkpt lat="45.02993" lon="5.86138">
        <ele>1407</ele>
        <time>2017-10-14T10:07:36Z</time>
      </trkpt>
      <trkpt lat="45.02978" lon="5.86158">
        <ele>1407</ele>
        <time>2017-10-14T10:07:39Z</time>
      </trkpt>
      <trkpt lat="45.02974" lon="5.86164">
        <ele>1406</ele>
        <time>2017-10-14T10:07:40Z</time>
      </trkpt>
      <trkpt lat="45.02957" lon="5.862">
        <ele>1405</ele>
        <time>2017-10-14T10:07:45Z</time>
      </trkpt>
      <trkpt lat="45.02953" lon="5.86204">
        <ele>1404</ele>
        <time>2017-10-14T10:07:46Z</time>
      </trkpt>
      <trkpt lat="45.02949" lon="5.86211">
        <ele>1404</ele>
        <time>2017-10-14T10:07:47Z</time>
      </trkpt>
      <trkpt lat="45.02946" lon="5.8622">
        <ele>1403</ele>
        <time>2017-10-14T10:07:48Z</time>
      </trkpt>
      <trkpt lat="45.02945" lon="5.86226">
        <ele>1403</ele>
        <time>2017-10-14T10:07:49Z</time>
      </trkpt>
      <trkpt lat="45.02938" lon="5.86228">
        <ele>1401</ele>
        <time>2017-10-14T10:07:50Z</time>
      </trkpt>
      <trkpt lat="45.02909" lon="5.86249">
        <ele>1386</ele>
        <time>2017-10-14T10:07:59Z</time>
      </trkpt>
      <trkpt lat="45.02907" lon="5.86252">
        <ele>1389</ele>
        <time>2017-10-14T10:08:00Z</time>
      </trkpt>
      <trkpt lat="45.02903" lon="5.86254">
        <ele>1389</ele>
        <time>2017-10-14T10:08:01Z</time>
      </trkpt>
      <trkpt lat="45.02894" lon="5.86257">
        <ele>1390</ele>
        <time>2017-10-14T10:15:15Z</time>
      </trkpt>
      <trkpt lat="45.02896" lon="5.86258">
        <ele>1390</ele>
        <time>2017-10-14T10:23:32Z</time>
      </trkpt>
      <trkpt lat="45.02893" lon="5.86258">
        <ele>1390</ele>
        <time>2017-10-14T10:23:35Z</time>
      </trkpt>
      <trkpt lat="45.02885" lon="5.86271">
        <ele>1390</ele>
        <time>2017-10-14T10:24:34Z</time>
      </trkpt>
      <trkpt lat="45.02874" lon="5.86286">
        <ele>1391</ele>
        <time>2017-10-14T10:24:54Z</time>
      </trkpt>
      <trkpt lat="45.02871" lon="5.86289">
        <ele>1391</ele>
        <time>2017-10-14T10:24:58Z</time>
      </trkpt>
      <trkpt lat="45.02869" lon="5.86291">
        <ele>1391</ele>
        <time>2017-10-14T10:25:01Z</time>
      </trkpt>
      <trkpt lat="45.02866" lon="5.86293">
        <ele>1391</ele>
        <time>2017-10-14T10:25:04Z</time>
      </trkpt>
      <trkpt lat="45.02863" lon="5.86295">
        <ele>1391</ele>
        <time>2017-10-14T10:25:07Z</time>
      </trkpt>
      <trkpt lat="45.02844" lon="5.86311">
        <ele>1392</ele>
        <time>2017-10-14T10:25:28Z</time>
      </trkpt>
      <trkpt lat="45.02842" lon="5.86313">
        <ele>1392</ele>
        <time>2017-10-14T10:25:31Z</time>
      </trkpt>
      <trkpt lat="45.02828" lon="5.86338">
        <ele>1396</ele>
        <time>2017-10-14T10:26:00Z</time>
      </trkpt>
      <trkpt lat="45.02825" lon="5.86342">
        <ele>1398</ele>
        <time>2017-10-14T10:26:02Z</time>
      </trkpt>
      <trkpt lat="45.02791" lon="5.8637">
        <ele>1405</ele>
        <time>2017-10-14T10:26:28Z</time>
      </trkpt>
      <trkpt lat="45.02788" lon="5.86371">
        <ele>1405</ele>
        <time>2017-10-14T10:26:30Z</time>
      </trkpt>
      <trkpt lat="45.02777" lon="5.86376">
        <ele>1405</ele>
        <time>2017-10-14T10:26:39Z</time>
      </trkpt>
      <trkpt lat="45.02774" lon="5.86378">
        <ele>1406</ele>
        <time>2017-10-14T10:26:41Z</time>
      </trkpt>
      <trkpt lat="45.02772" lon="5.8638">
        <ele>1406</ele>
        <time>2017-10-14T10:26:43Z</time>
      </trkpt>
      <trkpt lat="45.02762" lon="5.86385">
        <ele>1407</ele>
        <time>2017-10-14T10:26:51Z</time>
      </trkpt>
      <trkpt lat="45.02759" lon="5.86388">
        <ele>1408</ele>
        <time>2017-10-14T10:26:54Z</time>
      </trkpt>
      <trkpt lat="45.02707" lon="5.86399">
        <ele>1409</ele>
        <time>2017-10-14T10:27:37Z</time>
      </trkpt>
      <trkpt lat="45.02704" lon="5.86399">
        <ele>1410</ele>
        <time>2017-10-14T10:27:40Z</time>
      </trkpt>
      <trkpt lat="45.027" lon="5.86398">
        <ele>1410</ele>
        <time>2017-10-14T10:27:43Z</time>
      </trkpt>
      <trkpt lat="45.02697" lon="5.86397">
        <ele>1410</ele>
        <time>2017-10-14T10:27:46Z</time>
      </trkpt>
      <trkpt lat="45.02666" lon="5.86392">
        <ele>1413</ele>
        <time>2017-10-14T10:29:01Z</time>
      </trkpt>
      <trkpt lat="45.02648" lon="5.86432">
        <ele>1427</ele>
        <time>2017-10-14T10:29:27Z</time>
      </trkpt>
      <trkpt lat="45.02647" lon="5.86436">
        <ele>1428</ele>
        <time>2017-10-14T10:29:29Z</time>
      </trkpt>
      <trkpt lat="45.02661" lon="5.86454">
        <ele>1431</ele>
        <time>2017-10-14T10:29:46Z</time>
      </trkpt>
      <trkpt lat="45.02664" lon="5.86453">
        <ele>1431</ele>
        <time>2017-10-14T10:29:48Z</time>
      </trkpt>
      <trkpt lat="45.02693" lon="5.8644">
        <ele>1430</ele>
        <time>2017-10-14T10:30:12Z</time>
      </trkpt>
      <trkpt lat="45.02696" lon="5.86441">
        <ele>1430</ele>
        <time>2017-10-14T10:30:15Z</time>
      </trkpt>
      <trkpt lat="45.0271" lon="5.86451">
        <ele>1432</ele>
        <time>2017-10-14T10:30:27Z</time>
      </trkpt>
      <trkpt lat="45.02723" lon="5.86459">
        <ele>1434</ele>
        <time>2017-10-14T10:30:39Z</time>
      </trkpt>
      <trkpt lat="45.02726" lon="5.86461">
        <ele>1434</ele>
        <time>2017-10-14T10:30:42Z</time>
      </trkpt>
      <trkpt lat="45.02729" lon="5.86463">
        <ele>1435</ele>
        <time>2017-10-14T10:30:44Z</time>
      </trkpt>
      <trkpt lat="45.02731" lon="5.86465">
        <ele>1435</ele>
        <time>2017-10-14T10:30:46Z</time>
      </trkpt>
      <trkpt lat="45.0274" lon="5.8647">
        <ele>1437</ele>
        <time>2017-10-14T10:30:53Z</time>
      </trkpt>
      <trkpt lat="45.02743" lon="5.86472">
        <ele>1438</ele>
        <time>2017-10-14T10:30:56Z</time>
      </trkpt>
      <trkpt lat="45.0275" lon="5.86475">
        <ele>1442</ele>
        <time>2017-10-14T10:31:02Z</time>
      </trkpt>
      <trkpt lat="45.02754" lon="5.86477">
        <ele>1443</ele>
        <time>2017-10-14T10:31:05Z</time>
      </trkpt>
      <trkpt lat="45.02794" lon="5.86496">
        <ele>1444</ele>
        <time>2017-10-14T10:31:38Z</time>
      </trkpt>
      <trkpt lat="45.02796" lon="5.86496">
        <ele>1445</ele>
        <time>2017-10-14T10:31:40Z</time>
      </trkpt>
      <trkpt lat="45.02799" lon="5.86495">
        <ele>1445</ele>
        <time>2017-10-14T10:31:42Z</time>
      </trkpt>
      <trkpt lat="45.02836" lon="5.8649">
        <ele>1457</ele>
        <time>2017-10-14T10:32:02Z</time>
      </trkpt>
      <trkpt lat="45.0284" lon="5.86489">
        <ele>1457</ele>
        <time>2017-10-14T10:32:04Z</time>
      </trkpt>
      <trkpt lat="45.0284" lon="5.86506">
        <ele>1469</ele>
        <time>2017-10-14T10:32:19Z</time>
      </trkpt>
      <trkpt lat="45.0281" lon="5.86514">
        <ele>1469</ele>
        <time>2017-10-14T10:32:42Z</time>
      </trkpt>
      <trkpt lat="45.02808" lon="5.86515">
        <ele>1469</ele>
        <time>2017-10-14T10:32:44Z</time>
      </trkpt>
      <trkpt lat="45.0279" lon="5.8652">
        <ele>1470</ele>
        <time>2017-10-14T10:32:59Z</time>
      </trkpt>
      <trkpt lat="45.02756" lon="5.8653">
        <ele>1469</ele>
        <time>2017-10-14T10:33:29Z</time>
      </trkpt>
      <trkpt lat="45.02752" lon="5.86531">
        <ele>1469</ele>
        <time>2017-10-14T10:33:32Z</time>
      </trkpt>
      <trkpt lat="45.02747" lon="5.86535">
        <ele>1465</ele>
        <time>2017-10-14T10:33:36Z</time>
      </trkpt>
      <trkpt lat="45.02744" lon="5.86536">
        <ele>1466</ele>
        <time>2017-10-14T10:33:38Z</time>
      </trkpt>
      <trkpt lat="45.0272" lon="5.86542">
        <ele>1466</ele>
        <time>2017-10-14T10:33:54Z</time>
      </trkpt>
      <trkpt lat="45.02717" lon="5.86544">
        <ele>1467</ele>
        <time>2017-10-14T10:33:57Z</time>
      </trkpt>
      <trkpt lat="45.02706" lon="5.86546">
        <ele>1467</ele>
        <time>2017-10-14T10:34:05Z</time>
      </trkpt>
      <trkpt lat="45.02703" lon="5.86548">
        <ele>1467</ele>
        <time>2017-10-14T10:34:08Z</time>
      </trkpt>
      <trkpt lat="45.02701" lon="5.86549">
        <ele>1467</ele>
        <time>2017-10-14T10:34:10Z</time>
      </trkpt>
      <trkpt lat="45.02691" lon="5.86555">
        <ele>1468</ele>
        <time>2017-10-14T10:34:19Z</time>
      </trkpt>
      <trkpt lat="45.02687" lon="5.86556">
        <ele>1468</ele>
        <time>2017-10-14T10:34:22Z</time>
      </trkpt>
      <trkpt lat="45.02675" lon="5.86563">
        <ele>1470</ele>
        <time>2017-10-14T10:34:33Z</time>
      </trkpt>
      <trkpt lat="45.02672" lon="5.86566">
        <ele>1471</ele>
        <time>2017-10-14T10:34:36Z</time>
      </trkpt>
      <trkpt lat="45.02649" lon="5.86589">
        <ele>1485</ele>
        <time>2017-10-14T10:34:58Z</time>
      </trkpt>
      <trkpt lat="45.02643" lon="5.86593">
        <ele>1486</ele>
        <time>2017-10-14T10:35:03Z</time>
      </trkpt>
      <trkpt lat="45.02641" lon="5.86596">
        <ele>1487</ele>
        <time>2017-10-14T10:35:05Z</time>
      </trkpt>
      <trkpt lat="45.02631" lon="5.86609">
        <ele>1489</ele>
        <time>2017-10-14T10:35:17Z</time>
      </trkpt>
      <trkpt lat="45.02628" lon="5.86612">
        <ele>1490</ele>
        <time>2017-10-14T10:35:20Z</time>
      </trkpt>
      <trkpt lat="45.02622" lon="5.86618">
        <ele>1491</ele>
        <time>2017-10-14T10:35:26Z</time>
      </trkpt>
      <trkpt lat="45.02614" lon="5.86624">
        <ele>1491</ele>
        <time>2017-10-14T10:35:32Z</time>
      </trkpt>
      <trkpt lat="45.02611" lon="5.86626">
        <ele>1492</ele>
        <time>2017-10-14T10:35:35Z</time>
      </trkpt>
      <trkpt lat="45.02608" lon="5.86629">
        <ele>1492</ele>
        <time>2017-10-14T10:35:38Z</time>
      </trkpt>
      <trkpt lat="45.02577" lon="5.86643">
        <ele>1487</ele>
        <time>2017-10-14T10:36:04Z</time>
      </trkpt>
      <trkpt lat="45.02574" lon="5.86645">
        <ele>1487</ele>
        <time>2017-10-14T10:36:08Z</time>
      </trkpt>
      <trkpt lat="45.02568" lon="5.8665">
        <ele>1488</ele>
        <time>2017-10-14T10:36:14Z</time>
      </trkpt>
      <trkpt lat="45.02565" lon="5.86653">
        <ele>1488</ele>
        <time>2017-10-14T10:36:17Z</time>
      </trkpt>
      <trkpt lat="45.02541" lon="5.86675">
        <ele>1498</ele>
        <time>2017-10-14T10:36:41Z</time>
      </trkpt>
      <trkpt lat="45.02519" lon="5.86708">
        <ele>1499</ele>
        <time>2017-10-14T10:37:08Z</time>
      </trkpt>
      <trkpt lat="45.02516" lon="5.86713">
        <ele>1499</ele>
        <time>2017-10-14T10:37:11Z</time>
      </trkpt>
      <trkpt lat="45.02505" lon="5.86731">
        <ele>1501</ele>
        <time>2017-10-14T10:37:24Z</time>
      </trkpt>
      <trkpt lat="45.02503" lon="5.86735">
        <ele>1501</ele>
        <time>2017-10-14T10:37:27Z</time>
      </trkpt>
      <trkpt lat="45.02491" lon="5.86759">
        <ele>1498</ele>
        <time>2017-10-14T10:37:45Z</time>
      </trkpt>
      <trkpt lat="45.02487" lon="5.86768">
        <ele>1497</ele>
        <time>2017-10-14T10:37:51Z</time>
      </trkpt>
      <trkpt lat="45.02486" lon="5.86772">
        <ele>1497</ele>
        <time>2017-10-14T10:37:54Z</time>
      </trkpt>
      <trkpt lat="45.02483" lon="5.86777">
        <ele>1496</ele>
        <time>2017-10-14T10:37:57Z</time>
      </trkpt>
      <trkpt lat="45.02481" lon="5.86781">
        <ele>1496</ele>
        <time>2017-10-14T10:38:00Z</time>
      </trkpt>
      <trkpt lat="45.02476" lon="5.86795">
        <ele>1497</ele>
        <time>2017-10-14T10:38:09Z</time>
      </trkpt>
      <trkpt lat="45.02475" lon="5.868">
        <ele>1498</ele>
        <time>2017-10-14T10:38:12Z</time>
      </trkpt>
      <trkpt lat="45.02469" lon="5.86879">
        <ele>1514</ele>
        <time>2017-10-14T10:38:58Z</time>
      </trkpt>
      <trkpt lat="45.02469" lon="5.86884">
        <ele>1514</ele>
        <time>2017-10-14T10:39:01Z</time>
      </trkpt>
      <trkpt lat="45.02469" lon="5.8689">
        <ele>1515</ele>
        <time>2017-10-14T10:39:04Z</time>
      </trkpt>
      <trkpt lat="45.02469" lon="5.86944">
        <ele>1531</ele>
        <time>2017-10-14T10:39:37Z</time>
      </trkpt>
      <trkpt lat="45.02456" lon="5.86951">
        <ele>1529</ele>
        <time>2017-10-14T10:39:49Z</time>
      </trkpt>
      <trkpt lat="45.02453" lon="5.86951">
        <ele>1529</ele>
        <time>2017-10-14T10:39:52Z</time>
      </trkpt>
      <trkpt lat="45.0245" lon="5.8695">
        <ele>1528</ele>
        <time>2017-10-14T10:39:55Z</time>
      </trkpt>
      <trkpt lat="45.02446" lon="5.8695">
        <ele>1527</ele>
        <time>2017-10-14T10:39:58Z</time>
      </trkpt>
      <trkpt lat="45.02419" lon="5.8696">
        <ele>1525</ele>
        <time>2017-10-14T10:40:22Z</time>
      </trkpt>
      <trkpt lat="45.02416" lon="5.86963">
        <ele>1508</ele>
        <time>2017-10-14T10:40:25Z</time>
      </trkpt>
      <trkpt lat="45.02414" lon="5.86967">
        <ele>1509</ele>
        <time>2017-10-14T10:40:28Z</time>
      </trkpt>
      <trkpt lat="45.02412" lon="5.8697">
        <ele>1510</ele>
        <time>2017-10-14T10:40:30Z</time>
      </trkpt>
      <trkpt lat="45.0241" lon="5.86973">
        <ele>1510</ele>
        <time>2017-10-14T10:40:32Z</time>
      </trkpt>
      <trkpt lat="45.02395" lon="5.8701">
        <ele>1524</ele>
        <time>2017-10-14T10:40:56Z</time>
      </trkpt>
      <trkpt lat="45.02391" lon="5.87019">
        <ele>1524</ele>
        <time>2017-10-14T10:41:02Z</time>
      </trkpt>
      <trkpt lat="45.0239" lon="5.87023">
        <ele>1525</ele>
        <time>2017-10-14T10:41:05Z</time>
      </trkpt>
      <trkpt lat="45.02385" lon="5.87036">
        <ele>1525</ele>
        <time>2017-10-14T10:41:14Z</time>
      </trkpt>
      <trkpt lat="45.02384" lon="5.87041">
        <ele>1526</ele>
        <time>2017-10-14T10:41:18Z</time>
      </trkpt>
      <trkpt lat="45.02384" lon="5.87046">
        <ele>1527</ele>
        <time>2017-10-14T10:41:21Z</time>
      </trkpt>
      <trkpt lat="45.02382" lon="5.87049">
        <ele>1527</ele>
        <time>2017-10-14T10:41:24Z</time>
      </trkpt>
      <trkpt lat="45.0238" lon="5.87052">
        <ele>1527</ele>
        <time>2017-10-14T10:43:54Z</time>
      </trkpt>
      <trkpt lat="45.02375" lon="5.87072">
        <ele>1528</ele>
        <time>2017-10-14T10:44:04Z</time>
      </trkpt>
      <trkpt lat="45.02374" lon="5.87077">
        <ele>1528</ele>
        <time>2017-10-14T10:44:06Z</time>
      </trkpt>
      <trkpt lat="45.02373" lon="5.87081">
        <ele>1528</ele>
        <time>2017-10-14T10:44:08Z</time>
      </trkpt>
      <trkpt lat="45.02364" lon="5.87129">
        <ele>1542</ele>
        <time>2017-10-14T10:44:35Z</time>
      </trkpt>
      <trkpt lat="45.02363" lon="5.87133">
        <ele>1543</ele>
        <time>2017-10-14T10:44:38Z</time>
      </trkpt>
      <trkpt lat="45.02363" lon="5.87139">
        <ele>1543</ele>
        <time>2017-10-14T10:44:41Z</time>
      </trkpt>
      <trkpt lat="45.02358" lon="5.87199">
        <ele>1557</ele>
        <time>2017-10-14T10:45:11Z</time>
      </trkpt>
      <trkpt lat="45.02355" lon="5.87207">
        <ele>1558</ele>
        <time>2017-10-14T10:45:16Z</time>
      </trkpt>
      <trkpt lat="45.02354" lon="5.87212">
        <ele>1558</ele>
        <time>2017-10-14T10:45:18Z</time>
      </trkpt>
      <trkpt lat="45.02353" lon="5.87215">
        <ele>1558</ele>
        <time>2017-10-14T10:45:20Z</time>
      </trkpt>
      <trkpt lat="45.0233" lon="5.87272">
        <ele>1547</ele>
        <time>2017-10-14T10:45:53Z</time>
      </trkpt>
      <trkpt lat="45.02328" lon="5.87275">
        <ele>1547</ele>
        <time>2017-10-14T10:45:55Z</time>
      </trkpt>
      <trkpt lat="45.02317" lon="5.87295">
        <ele>1547</ele>
        <time>2017-10-14T10:46:09Z</time>
      </trkpt>
      <trkpt lat="45.02315" lon="5.873">
        <ele>1547</ele>
        <time>2017-10-14T10:46:12Z</time>
      </trkpt>
      <trkpt lat="45.02308" lon="5.87327">
        <ele>1549</ele>
        <time>2017-10-14T10:46:29Z</time>
      </trkpt>
      <trkpt lat="45.02307" lon="5.87331">
        <ele>1549</ele>
        <time>2017-10-14T10:46:32Z</time>
      </trkpt>
      <trkpt lat="45.02298" lon="5.8738">
        <ele>1550</ele>
        <time>2017-10-14T10:46:59Z</time>
      </trkpt>
      <trkpt lat="45.02298" lon="5.87385">
        <ele>1550</ele>
        <time>2017-10-14T10:47:02Z</time>
      </trkpt>
      <trkpt lat="45.02297" lon="5.87389">
        <ele>1550</ele>
        <time>2017-10-14T10:47:04Z</time>
      </trkpt>
      <trkpt lat="45.02297" lon="5.87393">
        <ele>1550</ele>
        <time>2017-10-14T10:47:06Z</time>
      </trkpt>
      <trkpt lat="45.02296" lon="5.87403">
        <ele>1550</ele>
        <time>2017-10-14T10:47:12Z</time>
      </trkpt>
      <trkpt lat="45.02296" lon="5.87407">
        <ele>1550</ele>
        <time>2017-10-14T10:47:14Z</time>
      </trkpt>
      <trkpt lat="45.02301" lon="5.8742">
        <ele>1555</ele>
        <time>2017-10-14T10:47:22Z</time>
      </trkpt>
      <trkpt lat="45.02323" lon="5.8746">
        <ele>1559</ele>
        <time>2017-10-14T10:47:47Z</time>
      </trkpt>
      <trkpt lat="45.02325" lon="5.87464">
        <ele>1560</ele>
        <time>2017-10-14T10:47:49Z</time>
      </trkpt>
      <trkpt lat="45.02328" lon="5.87467">
        <ele>1561</ele>
        <time>2017-10-14T10:47:51Z</time>
      </trkpt>
      <trkpt lat="45.02331" lon="5.87471">
        <ele>1562</ele>
        <time>2017-10-14T10:47:53Z</time>
      </trkpt>
      <trkpt lat="45.02336" lon="5.87491">
        <ele>1581</ele>
        <time>2017-10-14T10:48:01Z</time>
      </trkpt>
      <trkpt lat="45.02337" lon="5.87498">
        <ele>1578</ele>
        <time>2017-10-14T10:48:03Z</time>
      </trkpt>
      <trkpt lat="45.02335" lon="5.87521">
        <ele>1591</ele>
        <time>2017-10-14T10:48:11Z</time>
      </trkpt>
      <trkpt lat="45.02334" lon="5.87527">
        <ele>1593</ele>
        <time>2017-10-14T10:48:13Z</time>
      </trkpt>
      <trkpt lat="45.02328" lon="5.87544">
        <ele>1573</ele>
        <time>2017-10-14T10:48:19Z</time>
      </trkpt>
      <trkpt lat="45.02325" lon="5.87549">
        <ele>1573</ele>
        <time>2017-10-14T10:48:21Z</time>
      </trkpt>
      <trkpt lat="45.02298" lon="5.87577">
        <ele>1571</ele>
        <time>2017-10-14T10:48:39Z</time>
      </trkpt>
      <trkpt lat="45.02295" lon="5.8758">
        <ele>1570</ele>
        <time>2017-10-14T10:48:41Z</time>
      </trkpt>
      <trkpt lat="45.02291" lon="5.87588">
        <ele>1579</ele>
        <time>2017-10-14T10:48:45Z</time>
      </trkpt>
      <trkpt lat="45.0229" lon="5.87592">
        <ele>1579</ele>
        <time>2017-10-14T10:48:47Z</time>
      </trkpt>
      <trkpt lat="45.02289" lon="5.87629">
        <ele>1581</ele>
        <time>2017-10-14T10:49:03Z</time>
      </trkpt>
      <trkpt lat="45.02289" lon="5.87633">
        <ele>1581</ele>
        <time>2017-10-14T10:49:05Z</time>
      </trkpt>
      <trkpt lat="45.02286" lon="5.87673">
        <ele>1588</ele>
        <time>2017-10-14T10:49:31Z</time>
      </trkpt>
      <trkpt lat="45.02285" lon="5.87677">
        <ele>1588</ele>
        <time>2017-10-14T10:49:34Z</time>
      </trkpt>
      <trkpt lat="45.02285" lon="5.87712">
        <ele>1591</ele>
        <time>2017-10-14T10:50:07Z</time>
      </trkpt>
      <trkpt lat="45.02285" lon="5.87717">
        <ele>1591</ele>
        <time>2017-10-14T10:50:11Z</time>
      </trkpt>
      <trkpt lat="45.02286" lon="5.87729">
        <ele>1592</ele>
        <time>2017-10-14T10:50:23Z</time>
      </trkpt>
      <trkpt lat="45.02286" lon="5.87734">
        <ele>1592</ele>
        <time>2017-10-14T10:50:27Z</time>
      </trkpt>
      <trkpt lat="45.02292" lon="5.87818">
        <ele>1602</ele>
        <time>2017-10-14T10:51:48Z</time>
      </trkpt>
      <trkpt lat="45.02293" lon="5.87822">
        <ele>1603</ele>
        <time>2017-10-14T10:51:53Z</time>
      </trkpt>
      <trkpt lat="45.02294" lon="5.8783">
        <ele>1604</ele>
        <time>2017-10-14T10:52:01Z</time>
      </trkpt>
      <trkpt lat="45.02295" lon="5.87835">
        <ele>1607</ele>
        <time>2017-10-14T10:52:05Z</time>
      </trkpt>
      <trkpt lat="45.02302" lon="5.87876">
        <ele>1609</ele>
        <time>2017-10-14T10:52:40Z</time>
      </trkpt>
      <trkpt lat="45.02302" lon="5.8788">
        <ele>1609</ele>
        <time>2017-10-14T10:52:43Z</time>
      </trkpt>
      <trkpt lat="45.02307" lon="5.879">
        <ele>1612</ele>
        <time>2017-10-14T10:53:03Z</time>
      </trkpt>
      <trkpt lat="45.02307" lon="5.87905">
        <ele>1613</ele>
        <time>2017-10-14T10:53:07Z</time>
      </trkpt>
      <trkpt lat="45.02308" lon="5.87914">
        <ele>1615</ele>
        <time>2017-10-14T10:53:14Z</time>
      </trkpt>
      <trkpt lat="45.02309" lon="5.87918">
        <ele>1613</ele>
        <time>2017-10-14T10:53:17Z</time>
      </trkpt>
      <trkpt lat="45.0231" lon="5.87926">
        <ele>1613</ele>
        <time>2017-10-14T10:53:29Z</time>
      </trkpt>
      <trkpt lat="45.02322" lon="5.87959">
        <ele>1610</ele>
        <time>2017-10-14T10:53:49Z</time>
      </trkpt>
      <trkpt lat="45.02323" lon="5.87962">
        <ele>1611</ele>
        <time>2017-10-14T10:53:51Z</time>
      </trkpt>
      <trkpt lat="45.02325" lon="5.87966">
        <ele>1611</ele>
        <time>2017-10-14T10:53:53Z</time>
      </trkpt>
      <trkpt lat="45.02326" lon="5.8797">
        <ele>1611</ele>
        <time>2017-10-14T10:53:55Z</time>
      </trkpt>
      <trkpt lat="45.0233" lon="5.87984">
        <ele>1616</ele>
        <time>2017-10-14T10:54:03Z</time>
      </trkpt>
      <trkpt lat="45.02332" lon="5.87989">
        <ele>1619</ele>
        <time>2017-10-14T10:54:06Z</time>
      </trkpt>
      <trkpt lat="45.02344" lon="5.88041">
        <ele>1645</ele>
      </trkpt>
      <trkpt lat="45.02349" lon="5.88068">
        <ele>1642</ele>
      </trkpt>
      <trkpt lat="45.02351" lon="5.88089">
        <ele>1640</ele>
      </trkpt>
      <trkpt lat="45.02362" lon="5.88047">
        <ele>1650</ele>
      </trkpt>
      <trkpt lat="45.02363" lon="5.88016">
        <ele>1650</ele>
      </trkpt>
      <trkpt lat="45.02362" lon="5.87983">
        <ele>1654</ele>
      </trkpt>
      <trkpt lat="45.0236" lon="5.87942">
        <ele>1656</ele>
      </trkpt>
      <trkpt lat="45.02362" lon="5.87919">
        <ele>1656</ele>
      </trkpt>
      <trkpt lat="45.02384" lon="5.87875">
        <ele>1665</ele>
      </trkpt>
      <trkpt lat="45.02394" lon="5.87852">
        <ele>1669</ele>
      </trkpt>
      <trkpt lat="45.02403" lon="5.87901">
        <ele>1675</ele>
      </trkpt>
      <trkpt lat="45.02411" lon="5.87947">
        <ele>1672</ele>
      </trkpt>
      <trkpt lat="45.02422" lon="5.87975">
        <ele>1705</ele>
      </trkpt>
      <trkpt lat="45.02445" lon="5.88019">
        <ele>1706</ele>
      </trkpt>
      <trkpt lat="45.02468" lon="5.88047">
        <ele>1713</ele>
      </trkpt>
      <trkpt lat="45.02481" lon="5.8809">
        <ele>1715</ele>
      </trkpt>
      <trkpt lat="45.02503" lon="5.88134">
        <ele>1737</ele>
      </trkpt>
      <trkpt lat="45.02514" lon="5.88183">
        <ele>1735</ele>
      </trkpt>
      <trkpt lat="45.0252" lon="5.88225">
        <ele>1742</ele>
      </trkpt>
      <trkpt lat="45.02502" lon="5.8825">
        <ele>1737</ele>
      </trkpt>
      <trkpt lat="45.02487" lon="5.88326">
        <ele>1754</ele>
      </trkpt>
      <trkpt lat="45.02506" lon="5.88305">
        <ele>1763</ele>
      </trkpt>
      <trkpt lat="45.02528" lon="5.88294">
        <ele>1764</ele>
      </trkpt>
      <trkpt lat="45.02507" lon="5.88331">
        <ele>1766</ele>
      </trkpt>
      <trkpt lat="45.02494" lon="5.8837">
        <ele>1776</ele>
      </trkpt>
      <trkpt lat="45.02479" lon="5.88402">
        <ele>1784</ele>
      </trkpt>
      <trkpt lat="45.0247" lon="5.88429">
        <ele>1807</ele>
      </trkpt>
      <trkpt lat="45.02443" lon="5.8843">
        <ele>1805</ele>
      </trkpt>
      <trkpt lat="45.02418" lon="5.88434">
        <ele>1801</ele>
      </trkpt>
      <trkpt lat="45.02385" lon="5.88454">
        <ele>1782</ele>
      </trkpt>
      <trkpt lat="45.02408" lon="5.88442">
        <ele>1786</ele>
      </trkpt>
      <trkpt lat="45.02431" lon="5.88431">
        <ele>1802</ele>
      </trkpt>
      <trkpt lat="45.02454" lon="5.88432">
        <ele>1807</ele>
      </trkpt>
      <trkpt lat="45.02471" lon="5.88431">
        <ele>1808</ele>
      </trkpt>
      <trkpt lat="45.02483" lon="5.88392">
        <ele>1782</ele>
      </trkpt>
      <trkpt lat="45.02495" lon="5.88361">
        <ele>1774</ele>
      </trkpt>
      <trkpt lat="45.02504" lon="5.88336">
        <ele>1771</ele>
      </trkpt>
      <trkpt lat="45.0252" lon="5.88313">
        <ele>1766</ele>
      </trkpt>
      <trkpt lat="45.02489" lon="5.88294">
        <ele>1742</ele>
      </trkpt>
      <trkpt lat="45.02494" lon="5.88266">
        <ele>1737</ele>
      </trkpt>
      <trkpt lat="45.02511" lon="5.88233">
        <ele>1741</ele>
      </trkpt>
      <trkpt lat="45.02513" lon="5.88193">
        <ele>1738</ele>
      </trkpt>
      <trkpt lat="45.02508" lon="5.8815">
        <ele>1733</ele>
      </trkpt>
      <trkpt lat="45.02484" lon="5.88093">
        <ele>1716</ele>
      </trkpt>
      <trkpt lat="45.02473" lon="5.88066">
        <ele>1715</ele>
      </trkpt>
      <trkpt lat="45.02457" lon="5.88033">
        <ele>1710</ele>
      </trkpt>
      <trkpt lat="45.02438" lon="5.88009">
        <ele>1702</ele>
      </trkpt>
      <trkpt lat="45.02422" lon="5.87966">
        <ele>1707</ele>
      </trkpt>
      <trkpt lat="45.02411" lon="5.87941">
        <ele>1674</ele>
      </trkpt>
      <trkpt lat="45.02398" lon="5.87886">
        <ele>1670</ele>
      </trkpt>
      <trkpt lat="45.02395" lon="5.87853">
        <ele>1669</ele>
      </trkpt>
      <trkpt lat="45.02382" lon="5.87881">
        <ele>1665</ele>
      </trkpt>
      <trkpt lat="45.02367" lon="5.87901">
        <ele>1659</ele>
      </trkpt>
      <trkpt lat="45.0236" lon="5.87939">
        <ele>1656</ele>
      </trkpt>
      <trkpt lat="45.02362" lon="5.88">
        <ele>1652</ele>
      </trkpt>
      <trkpt lat="45.02362" lon="5.8805">
        <ele>1649</ele>
      </trkpt>
      <trkpt lat="45.02357" lon="5.88078">
        <ele>1644</ele>
      </trkpt>
      <trkpt lat="45.02342" lon="5.88082">
        <ele>1633</ele>
        <time>2017-10-14T11:29:33Z</time>
      </trkpt>
      <trkpt lat="45.02329" lon="5.88043">
        <ele>1610</ele>
        <time>2017-10-14T11:29:38Z</time>
      </trkpt>
      <trkpt lat="45.02325" lon="5.88035">
        <ele>1610</ele>
        <time>2017-10-14T11:29:39Z</time>
      </trkpt>
      <trkpt lat="45.0232" lon="5.88028">
        <ele>1610</ele>
        <time>2017-10-14T11:29:40Z</time>
      </trkpt>
      <trkpt lat="45.02289" lon="5.87973">
        <ele>1598</ele>
        <time>2017-10-14T11:29:47Z</time>
      </trkpt>
      <trkpt lat="45.02283" lon="5.87965">
        <ele>1596</ele>
        <time>2017-10-14T11:29:48Z</time>
      </trkpt>
      <trkpt lat="45.02277" lon="5.87957">
        <ele>1595</ele>
        <time>2017-10-14T11:29:49Z</time>
      </trkpt>
      <trkpt lat="45.02271" lon="5.8795">
        <ele>1593</ele>
        <time>2017-10-14T11:29:50Z</time>
      </trkpt>
      <trkpt lat="45.0226" lon="5.87938">
        <ele>1588</ele>
        <time>2017-10-14T11:29:52Z</time>
      </trkpt>
      <trkpt lat="45.02255" lon="5.87931">
        <ele>1585</ele>
        <time>2017-10-14T11:29:53Z</time>
      </trkpt>
      <trkpt lat="45.02253" lon="5.87922">
        <ele>1579</ele>
        <time>2017-10-14T11:29:54Z</time>
      </trkpt>
      <trkpt lat="45.02243" lon="5.87864">
        <ele>1558</ele>
        <time>2017-10-14T11:29:59Z</time>
      </trkpt>
      <trkpt lat="45.02234" lon="5.87773">
        <ele>1556</ele>
        <time>2017-10-14T11:30:07Z</time>
      </trkpt>
      <trkpt lat="45.02227" lon="5.87706">
        <ele>1549</ele>
        <time>2017-10-14T11:30:13Z</time>
      </trkpt>
      <trkpt lat="45.02228" lon="5.87697">
        <ele>1549</ele>
        <time>2017-10-14T11:30:14Z</time>
      </trkpt>
      <trkpt lat="45.02232" lon="5.87641">
        <ele>1546</ele>
        <time>2017-10-14T11:30:20Z</time>
      </trkpt>
      <trkpt lat="45.02231" lon="5.87624">
        <ele>1544</ele>
        <time>2017-10-14T11:30:22Z</time>
      </trkpt>
      <trkpt lat="45.0223" lon="5.87615">
        <ele>1544</ele>
        <time>2017-10-14T11:30:23Z</time>
      </trkpt>
      <trkpt lat="45.02211" lon="5.87632">
        <ele>1540</ele>
        <time>2017-10-14T11:30:32Z</time>
      </trkpt>
      <trkpt lat="45.0221" lon="5.87639">
        <ele>1540</ele>
        <time>2017-10-14T11:30:33Z</time>
      </trkpt>
      <trkpt lat="45.02209" lon="5.87644">
        <ele>1540</ele>
        <time>2017-10-14T11:30:34Z</time>
      </trkpt>
      <trkpt lat="45.02206" lon="5.87651">
        <ele>1539</ele>
        <time>2017-10-14T11:30:35Z</time>
      </trkpt>
      <trkpt lat="45.02206" lon="5.8766">
        <ele>1539</ele>
        <time>2017-10-14T11:30:36Z</time>
      </trkpt>
      <trkpt lat="45.02204" lon="5.87668">
        <ele>1542</ele>
        <time>2017-10-14T11:30:37Z</time>
      </trkpt>
      <trkpt lat="45.02203" lon="5.87678">
        <ele>1541</ele>
        <time>2017-10-14T11:30:38Z</time>
      </trkpt>
      <trkpt lat="45.02189" lon="5.87714">
        <ele>1538</ele>
        <time>2017-10-14T11:30:43Z</time>
      </trkpt>
      <trkpt lat="45.02187" lon="5.8772">
        <ele>1537</ele>
        <time>2017-10-14T11:30:44Z</time>
      </trkpt>
      <trkpt lat="45.02184" lon="5.87709">
        <ele>1537</ele>
        <time>2017-10-14T11:30:50Z</time>
      </trkpt>
      <trkpt lat="45.02185" lon="5.87702">
        <ele>1537</ele>
        <time>2017-10-14T11:30:51Z</time>
      </trkpt>
      <trkpt lat="45.02181" lon="5.87622">
        <ele>1532</ele>
        <time>2017-10-14T11:31:00Z</time>
      </trkpt>
      <trkpt lat="45.02179" lon="5.87611">
        <ele>1530</ele>
        <time>2017-10-14T11:31:01Z</time>
      </trkpt>
      <trkpt lat="45.02172" lon="5.87559">
        <ele>1519</ele>
        <time>2017-10-14T11:31:06Z</time>
      </trkpt>
      <trkpt lat="45.02172" lon="5.87547">
        <ele>1519</ele>
        <time>2017-10-14T11:31:07Z</time>
      </trkpt>
      <trkpt lat="45.02172" lon="5.87536">
        <ele>1518</ele>
        <time>2017-10-14T11:31:08Z</time>
      </trkpt>
      <trkpt lat="45.02174" lon="5.87531">
        <ele>1517</ele>
        <time>2017-10-14T11:31:09Z</time>
      </trkpt>
      <trkpt lat="45.02171" lon="5.87527">
        <ele>1515</ele>
        <time>2017-10-14T11:31:12Z</time>
      </trkpt>
      <trkpt lat="45.02167" lon="5.87542">
        <ele>1518</ele>
        <time>2017-10-14T11:31:16Z</time>
      </trkpt>
      <trkpt lat="45.02165" lon="5.87549">
        <ele>1493</ele>
        <time>2017-10-14T11:31:17Z</time>
      </trkpt>
      <trkpt lat="45.02162" lon="5.87556">
        <ele>1494</ele>
        <time>2017-10-14T11:31:18Z</time>
      </trkpt>
      <trkpt lat="45.0216" lon="5.87565">
        <ele>1497</ele>
        <time>2017-10-14T11:31:20Z</time>
      </trkpt>
      <trkpt lat="45.02156" lon="5.87532">
        <ele>1490</ele>
        <time>2017-10-14T11:31:26Z</time>
      </trkpt>
      <trkpt lat="45.02156" lon="5.87523">
        <ele>1490</ele>
        <time>2017-10-14T11:31:27Z</time>
      </trkpt>
      <trkpt lat="45.02153" lon="5.87523">
        <ele>1490</ele>
        <time>2017-10-14T11:31:34Z</time>
      </trkpt>
      <trkpt lat="45.02151" lon="5.8754">
        <ele>1489</ele>
        <time>2017-10-14T11:31:37Z</time>
      </trkpt>
      <trkpt lat="45.02149" lon="5.87548">
        <ele>1490</ele>
        <time>2017-10-14T11:31:38Z</time>
      </trkpt>
      <trkpt lat="45.02146" lon="5.87558">
        <ele>1491</ele>
        <time>2017-10-14T11:31:39Z</time>
      </trkpt>
      <trkpt lat="45.02139" lon="5.87579">
        <ele>1491</ele>
        <time>2017-10-14T11:31:41Z</time>
      </trkpt>
      <trkpt lat="45.02125" lon="5.87603">
        <ele>1490</ele>
        <time>2017-10-14T11:31:44Z</time>
      </trkpt>
      <trkpt lat="45.02121" lon="5.87611">
        <ele>1489</ele>
        <time>2017-10-14T11:31:45Z</time>
      </trkpt>
      <trkpt lat="45.02117" lon="5.87619">
        <ele>1488</ele>
        <time>2017-10-14T11:31:46Z</time>
      </trkpt>
      <trkpt lat="45.0211" lon="5.87632">
        <ele>1487</ele>
        <time>2017-10-14T11:31:48Z</time>
      </trkpt>
      <trkpt lat="45.02107" lon="5.87639">
        <ele>1485</ele>
        <time>2017-10-14T11:31:49Z</time>
      </trkpt>
      <trkpt lat="45.02105" lon="5.87649">
        <ele>1484</ele>
        <time>2017-10-14T11:31:50Z</time>
      </trkpt>
      <trkpt lat="45.02102" lon="5.87655">
        <ele>1481</ele>
        <time>2017-10-14T11:31:51Z</time>
      </trkpt>
      <trkpt lat="45.02086" lon="5.87682">
        <ele>1476</ele>
        <time>2017-10-14T11:32:02Z</time>
      </trkpt>
      <trkpt lat="45.02069" lon="5.87659">
        <ele>1456</ele>
        <time>2017-10-14T11:32:14Z</time>
      </trkpt>
      <trkpt lat="45.02056" lon="5.87669">
        <ele>1448</ele>
        <time>2017-10-14T11:32:25Z</time>
      </trkpt>
      <trkpt lat="45.02041" lon="5.87645">
        <ele>1445</ele>
        <time>2017-10-14T11:32:33Z</time>
      </trkpt>
      <trkpt lat="45.02039" lon="5.87653">
        <ele>1444</ele>
        <time>2017-10-14T11:32:35Z</time>
      </trkpt>
      <trkpt lat="45.02038" lon="5.87657">
        <ele>1444</ele>
        <time>2017-10-14T11:32:36Z</time>
      </trkpt>
      <trkpt lat="45.02031" lon="5.87695">
        <ele>1438</ele>
        <time>2017-10-14T11:32:47Z</time>
      </trkpt>
      <trkpt lat="45.02023" lon="5.87698">
        <ele>1436</ele>
        <time>2017-10-14T11:32:57Z</time>
      </trkpt>
      <trkpt lat="45.02021" lon="5.87692">
        <ele>1436</ele>
        <time>2017-10-14T11:32:59Z</time>
      </trkpt>
      <trkpt lat="45.02017" lon="5.87688">
        <ele>1435</ele>
        <time>2017-10-14T11:33:01Z</time>
      </trkpt>
      <trkpt lat="45.02009" lon="5.87685">
        <ele>1433</ele>
        <time>2017-10-14T11:33:05Z</time>
      </trkpt>
      <trkpt lat="45.02001" lon="5.87682">
        <ele>1431</ele>
        <time>2017-10-14T11:33:09Z</time>
      </trkpt>
      <trkpt lat="45.01999" lon="5.87685">
        <ele>1411</ele>
        <time>2017-10-14T11:33:10Z</time>
      </trkpt>
      <trkpt lat="45.01998" lon="5.8769">
        <ele>1409</ele>
        <time>2017-10-14T11:33:11Z</time>
      </trkpt>
      <trkpt lat="45.01997" lon="5.87696">
        <ele>1407</ele>
        <time>2017-10-14T11:33:12Z</time>
      </trkpt>
      <trkpt lat="45.02006" lon="5.87713">
        <ele>1432</ele>
        <time>2017-10-14T11:33:14Z</time>
      </trkpt>
      <trkpt lat="45.02008" lon="5.8772">
        <ele>1431</ele>
        <time>2017-10-14T11:33:15Z</time>
      </trkpt>
      <trkpt lat="45.0202" lon="5.87803">
        <ele>1429</ele>
        <time>2017-10-14T11:33:26Z</time>
      </trkpt>
      <trkpt lat="45.02003" lon="5.87848">
        <ele>1428</ele>
        <time>2017-10-14T11:33:34Z</time>
      </trkpt>
      <trkpt lat="45.01979" lon="5.87851">
        <ele>1417</ele>
        <time>2017-10-14T11:33:40Z</time>
      </trkpt>
      <trkpt lat="45.01975" lon="5.87852">
        <ele>1417</ele>
        <time>2017-10-14T11:33:41Z</time>
      </trkpt>
      <trkpt lat="45.0197" lon="5.87854">
        <ele>1417</ele>
        <time>2017-10-14T11:33:42Z</time>
      </trkpt>
      <trkpt lat="45.01965" lon="5.87855">
        <ele>1417</ele>
        <time>2017-10-14T11:33:43Z</time>
      </trkpt>
      <trkpt lat="45.01956" lon="5.87856">
        <ele>1416</ele>
        <time>2017-10-14T11:33:45Z</time>
      </trkpt>
      <trkpt lat="45.01951" lon="5.87857">
        <ele>1416</ele>
        <time>2017-10-14T11:33:46Z</time>
      </trkpt>
      <trkpt lat="45.0194" lon="5.87858">
        <ele>1414</ele>
        <time>2017-10-14T11:33:48Z</time>
      </trkpt>
      <trkpt lat="45.01924" lon="5.87859">
        <ele>1411</ele>
        <time>2017-10-14T11:33:51Z</time>
      </trkpt>
      <trkpt lat="45.01919" lon="5.8786">
        <ele>1411</ele>
        <time>2017-10-14T11:33:52Z</time>
      </trkpt>
      <trkpt lat="45.01913" lon="5.8786">
        <ele>1401</ele>
        <time>2017-10-14T11:33:53Z</time>
      </trkpt>
      <trkpt lat="45.01869" lon="5.87858">
        <ele>1399</ele>
        <time>2017-10-14T11:34:00Z</time>
      </trkpt>
      <trkpt lat="45.01862" lon="5.87856">
        <ele>1398</ele>
        <time>2017-10-14T11:34:01Z</time>
      </trkpt>
      <trkpt lat="45.01854" lon="5.87854">
        <ele>1396</ele>
        <time>2017-10-14T11:34:02Z</time>
      </trkpt>
      <trkpt lat="45.01826" lon="5.87876">
        <ele>1379</ele>
        <time>2017-10-14T11:34:09Z</time>
      </trkpt>
      <trkpt lat="45.01821" lon="5.87881">
        <ele>1379</ele>
        <time>2017-10-14T11:34:10Z</time>
      </trkpt>
      <trkpt lat="45.0179" lon="5.87924">
        <ele>1373</ele>
        <time>2017-10-14T11:34:19Z</time>
      </trkpt>
      <trkpt lat="45.01788" lon="5.87921">
        <ele>1373</ele>
        <time>2017-10-14T11:34:20Z</time>
      </trkpt>
      <trkpt lat="45.01776" lon="5.87911">
        <ele>1367</ele>
        <time>2017-10-14T11:34:41Z</time>
      </trkpt>
      <trkpt lat="45.01777" lon="5.87906">
        <ele>1367</ele>
        <time>2017-10-14T11:34:45Z</time>
      </trkpt>
      <trkpt lat="45.01757" lon="5.87922">
        <ele>1359</ele>
        <time>2017-10-14T11:35:00Z</time>
      </trkpt>
      <trkpt lat="45.01758" lon="5.87917">
        <ele>1359</ele>
        <time>2017-10-14T11:35:01Z</time>
      </trkpt>
      <trkpt lat="45.01743" lon="5.87936">
        <ele>1344</ele>
        <time>2017-10-14T11:35:10Z</time>
      </trkpt>
      <trkpt lat="45.01758" lon="5.87964">
        <ele>1363</ele>
        <time>2017-10-14T11:35:14Z</time>
      </trkpt>
      <trkpt lat="45.01764" lon="5.87971">
        <ele>1363</ele>
        <time>2017-10-14T11:35:15Z</time>
      </trkpt>
      <trkpt lat="45.01778" lon="5.88031">
        <ele>1369</ele>
        <time>2017-10-14T11:35:21Z</time>
      </trkpt>
      <trkpt lat="45.0178" lon="5.88035">
        <ele>1370</ele>
        <time>2017-10-14T11:35:22Z</time>
      </trkpt>
      <trkpt lat="45.01784" lon="5.88044">
        <ele>1372</ele>
        <time>2017-10-14T11:35:26Z</time>
      </trkpt>
      <trkpt lat="45.01782" lon="5.88047">
        <ele>1372</ele>
        <time>2017-10-14T11:35:30Z</time>
      </trkpt>
      <trkpt lat="45.01738" lon="5.8806">
        <ele>1355</ele>
        <time>2017-10-14T11:35:46Z</time>
      </trkpt>
      <trkpt lat="45.01731" lon="5.88061">
        <ele>1354</ele>
        <time>2017-10-14T11:35:48Z</time>
      </trkpt>
      <trkpt lat="45.01727" lon="5.88062">
        <ele>1354</ele>
        <time>2017-10-14T11:35:49Z</time>
      </trkpt>
      <trkpt lat="45.01718" lon="5.88064">
        <ele>1353</ele>
        <time>2017-10-14T11:35:51Z</time>
      </trkpt>
      <trkpt lat="45.01714" lon="5.88066">
        <ele>1352</ele>
        <time>2017-10-14T11:35:52Z</time>
      </trkpt>
      <trkpt lat="45.01704" lon="5.8807">
        <ele>1351</ele>
        <time>2017-10-14T11:35:54Z</time>
      </trkpt>
      <trkpt lat="45.01699" lon="5.88072">
        <ele>1351</ele>
        <time>2017-10-14T11:35:55Z</time>
      </trkpt>
      <trkpt lat="45.01656" lon="5.88067">
        <ele>1338</ele>
        <time>2017-10-14T11:36:03Z</time>
      </trkpt>
      <trkpt lat="45.01633" lon="5.88057">
        <ele>1330</ele>
        <time>2017-10-14T11:36:08Z</time>
      </trkpt>
      <trkpt lat="45.01624" lon="5.8804">
        <ele>1327</ele>
        <time>2017-10-14T11:36:11Z</time>
      </trkpt>
      <trkpt lat="45.01613" lon="5.88031">
        <ele>1324</ele>
        <time>2017-10-14T11:36:13Z</time>
      </trkpt>
      <trkpt lat="45.01607" lon="5.88026">
        <ele>1323</ele>
        <time>2017-10-14T11:36:14Z</time>
      </trkpt>
      <trkpt lat="45.0159" lon="5.88008">
        <ele>1316</ele>
        <time>2017-10-14T11:36:18Z</time>
      </trkpt>
      <trkpt lat="45.01586" lon="5.88004">
        <ele>1313</ele>
        <time>2017-10-14T11:36:19Z</time>
      </trkpt>
      <trkpt lat="45.01582" lon="5.88">
        <ele>1308</ele>
        <time>2017-10-14T11:36:20Z</time>
      </trkpt>
      <trkpt lat="45.01544" lon="5.87958">
        <ele>1289</ele>
        <time>2017-10-14T11:36:27Z</time>
      </trkpt>
      <trkpt lat="45.01539" lon="5.87953">
        <ele>1288</ele>
        <time>2017-10-14T11:36:28Z</time>
      </trkpt>
      <trkpt lat="45.01534" lon="5.87948">
        <ele>1287</ele>
        <time>2017-10-14T11:36:29Z</time>
      </trkpt>
      <trkpt lat="45.01529" lon="5.87941">
        <ele>1285</ele>
        <time>2017-10-14T11:36:30Z</time>
      </trkpt>
      <trkpt lat="45.01514" lon="5.87943">
        <ele>1283</ele>
        <time>2017-10-14T11:36:34Z</time>
      </trkpt>
      <trkpt lat="45.01513" lon="5.87949">
        <ele>1284</ele>
        <time>2017-10-14T11:36:35Z</time>
      </trkpt>
      <trkpt lat="45.01513" lon="5.87968">
        <ele>1285</ele>
        <time>2017-10-14T11:36:37Z</time>
      </trkpt>
      <trkpt lat="45.0149" lon="5.87978">
        <ele>1268</ele>
        <time>2017-10-14T11:36:43Z</time>
      </trkpt>
      <trkpt lat="45.0149" lon="5.87956">
        <ele>1266</ele>
        <time>2017-10-14T11:36:45Z</time>
      </trkpt>
      <trkpt lat="45.01487" lon="5.87945">
        <ele>1265</ele>
        <time>2017-10-14T11:36:46Z</time>
      </trkpt>
      <trkpt lat="45.01461" lon="5.87875">
        <ele>1256</ele>
        <time>2017-10-14T11:36:52Z</time>
      </trkpt>
      <trkpt lat="45.01456" lon="5.87873">
        <ele>1255</ele>
        <time>2017-10-14T11:36:54Z</time>
      </trkpt>
      <trkpt lat="45.01454" lon="5.87878">
        <ele>1255</ele>
        <time>2017-10-14T11:36:55Z</time>
      </trkpt>
      <trkpt lat="45.01433" lon="5.87899">
        <ele>1251</ele>
        <time>2017-10-14T11:37:02Z</time>
      </trkpt>
      <trkpt lat="45.01431" lon="5.87894">
        <ele>1251</ele>
        <time>2017-10-14T11:37:03Z</time>
      </trkpt>
      <trkpt lat="45.01424" lon="5.87873">
        <ele>1251</ele>
        <time>2017-10-14T11:37:06Z</time>
      </trkpt>
      <trkpt lat="45.01421" lon="5.87863">
        <ele>1250</ele>
        <time>2017-10-14T11:37:07Z</time>
      </trkpt>
      <trkpt lat="45.01418" lon="5.87852">
        <ele>1248</ele>
        <time>2017-10-14T11:37:08Z</time>
      </trkpt>
      <trkpt lat="45.01415" lon="5.87833">
        <ele>1240</ele>
        <time>2017-10-14T11:37:10Z</time>
      </trkpt>
      <trkpt lat="45.01407" lon="5.87833">
        <ele>1236</ele>
        <time>2017-10-14T11:37:11Z</time>
      </trkpt>
      <trkpt lat="45.01411" lon="5.87796">
        <ele>1229</ele>
        <time>2017-10-14T11:37:17Z</time>
      </trkpt>
      <trkpt lat="45.01414" lon="5.87789">
        <ele>1229</ele>
        <time>2017-10-14T11:37:18Z</time>
      </trkpt>
      <trkpt lat="45.01416" lon="5.87784">
        <ele>1229</ele>
        <time>2017-10-14T11:37:19Z</time>
      </trkpt>
      <trkpt lat="45.01419" lon="5.8778">
        <ele>1241</ele>
        <time>2017-10-14T11:37:20Z</time>
      </trkpt>
      <trkpt lat="45.01427" lon="5.8777">
        <ele>1240</ele>
        <time>2017-10-14T11:47:19Z</time>
      </trkpt>
      <trkpt lat="45.01427" lon="5.87766">
        <ele>1239</ele>
        <time>2017-10-14T11:47:23Z</time>
      </trkpt>
      <trkpt lat="45.01435" lon="5.87757">
        <ele>1239</ele>
        <time>2017-10-14T11:47:32Z</time>
      </trkpt>
      <trkpt lat="45.01436" lon="5.87751">
        <ele>1239</ele>
        <time>2017-10-14T11:47:38Z</time>
      </trkpt>
      <trkpt lat="45.01458" lon="5.87725">
        <ele>1234</ele>
        <time>2017-10-14T11:47:48Z</time>
      </trkpt>
      <trkpt lat="45.01462" lon="5.87723">
        <ele>1235</ele>
        <time>2017-10-14T11:47:49Z</time>
      </trkpt>
      <trkpt lat="45.01483" lon="5.87714">
        <ele>1236</ele>
        <time>2017-10-14T11:47:54Z</time>
      </trkpt>
      <trkpt lat="45.01489" lon="5.87705">
        <ele>1236</ele>
        <time>2017-10-14T11:47:57Z</time>
      </trkpt>
      <trkpt lat="45.01488" lon="5.87701">
        <ele>1236</ele>
        <time>2017-10-14T11:47:59Z</time>
      </trkpt>
      <trkpt lat="45.01469" lon="5.87653">
        <ele>1230</ele>
        <time>2017-10-14T11:48:16Z</time>
      </trkpt>
      <trkpt lat="45.01457" lon="5.87633">
        <ele>1228</ele>
        <time>2017-10-14T11:48:21Z</time>
      </trkpt>
      <trkpt lat="45.01455" lon="5.87629">
        <ele>1228</ele>
        <time>2017-10-14T11:48:23Z</time>
      </trkpt>
      <trkpt lat="45.01453" lon="5.87624">
        <ele>1228</ele>
        <time>2017-10-14T11:48:25Z</time>
      </trkpt>
      <trkpt lat="45.01451" lon="5.87619">
        <ele>1228</ele>
        <time>2017-10-14T11:48:27Z</time>
      </trkpt>
      <trkpt lat="45.01441" lon="5.87537">
        <ele>1234</ele>
        <time>2017-10-14T11:48:52Z</time>
      </trkpt>
      <trkpt lat="45.0144" lon="5.87529">
        <ele>1234</ele>
        <time>2017-10-14T11:48:54Z</time>
      </trkpt>
      <trkpt lat="45.01439" lon="5.87516">
        <ele>1235</ele>
        <time>2017-10-14T11:48:58Z</time>
      </trkpt>
      <trkpt lat="45.01437" lon="5.8751">
        <ele>1235</ele>
        <time>2017-10-14T11:49:00Z</time>
      </trkpt>
      <trkpt lat="45.01435" lon="5.87505">
        <ele>1234</ele>
        <time>2017-10-14T11:49:02Z</time>
      </trkpt>
      <trkpt lat="45.01431" lon="5.87504">
        <ele>1234</ele>
        <time>2017-10-14T11:49:04Z</time>
      </trkpt>
      <trkpt lat="45.01424" lon="5.87505">
        <ele>1234</ele>
        <time>2017-10-14T11:49:08Z</time>
      </trkpt>
      <trkpt lat="45.01421" lon="5.87504">
        <ele>1233</ele>
        <time>2017-10-14T11:49:10Z</time>
      </trkpt>
      <trkpt lat="45.01394" lon="5.87454">
        <ele>1238</ele>
        <time>2017-10-14T11:49:47Z</time>
      </trkpt>
      <trkpt lat="45.01406" lon="5.8746">
        <ele>1238</ele>
        <time>2017-10-14T11:51:02Z</time>
      </trkpt>
      <trkpt lat="45.01409" lon="5.87461">
        <ele>1238</ele>
        <time>2017-10-14T11:51:05Z</time>
      </trkpt>
      <trkpt lat="45.01426" lon="5.87465">
        <ele>1242</ele>
        <time>2017-10-14T11:51:20Z</time>
      </trkpt>
      <trkpt lat="45.01429" lon="5.87465">
        <ele>1242</ele>
        <time>2017-10-14T11:51:22Z</time>
      </trkpt>
      <trkpt lat="45.01436" lon="5.87465">
        <ele>1242</ele>
        <time>2017-10-14T11:51:28Z</time>
      </trkpt>
      <trkpt lat="45.0144" lon="5.87466">
        <ele>1243</ele>
        <time>2017-10-14T11:51:31Z</time>
      </trkpt>
      <trkpt lat="45.01444" lon="5.87467">
        <ele>1243</ele>
        <time>2017-10-14T11:51:34Z</time>
      </trkpt>
      <trkpt lat="45.01446" lon="5.87468">
        <ele>1243</ele>
        <time>2017-10-14T11:51:36Z</time>
      </trkpt>
      <trkpt lat="45.01459" lon="5.87465">
        <ele>1244</ele>
        <time>2017-10-14T11:51:44Z</time>
      </trkpt>
      <trkpt lat="45.01467" lon="5.87454">
        <ele>1245</ele>
        <time>2017-10-14T11:51:50Z</time>
      </trkpt>
      <trkpt lat="45.01459" lon="5.87423">
        <ele>1246</ele>
        <time>2017-10-14T11:52:02Z</time>
      </trkpt>
      <trkpt lat="45.01456" lon="5.87421">
        <ele>1246</ele>
        <time>2017-10-14T11:52:04Z</time>
      </trkpt>
      <trkpt lat="45.01453" lon="5.87418">
        <ele>1246</ele>
        <time>2017-10-14T11:52:06Z</time>
      </trkpt>
      <trkpt lat="45.01444" lon="5.8741">
        <ele>1253</ele>
        <time>2017-10-14T11:52:12Z</time>
      </trkpt>
      <trkpt lat="45.01442" lon="5.87407">
        <ele>1253</ele>
        <time>2017-10-14T11:52:14Z</time>
      </trkpt>
      <trkpt lat="45.01431" lon="5.87394">
        <ele>1254</ele>
        <time>2017-10-14T11:52:22Z</time>
      </trkpt>
      <trkpt lat="45.01428" lon="5.8739">
        <ele>1254</ele>
        <time>2017-10-14T11:52:24Z</time>
      </trkpt>
      <trkpt lat="45.01413" lon="5.87372">
        <ele>1255</ele>
        <time>2017-10-14T11:52:36Z</time>
      </trkpt>
      <trkpt lat="45.0141" lon="5.87369">
        <ele>1256</ele>
        <time>2017-10-14T11:52:38Z</time>
      </trkpt>
      <trkpt lat="45.01383" lon="5.87337">
        <ele>1259</ele>
        <time>2017-10-14T11:53:00Z</time>
      </trkpt>
      <trkpt lat="45.01371" lon="5.87331">
        <ele>1276</ele>
        <time>2017-10-14T11:53:08Z</time>
      </trkpt>
      <trkpt lat="45.01368" lon="5.87331">
        <ele>1276</ele>
        <time>2017-10-14T11:53:10Z</time>
      </trkpt>
      <trkpt lat="45.01336" lon="5.87317">
        <ele>1275</ele>
        <time>2017-10-14T11:53:42Z</time>
      </trkpt>
      <trkpt lat="45.01347" lon="5.87313">
        <ele>1277</ele>
        <time>2017-10-14T11:53:48Z</time>
      </trkpt>
      <trkpt lat="45.01349" lon="5.87312">
        <ele>1278</ele>
        <time>2017-10-14T11:53:50Z</time>
      </trkpt>
      <trkpt lat="45.01368" lon="5.87306">
        <ele>1280</ele>
        <time>2017-10-14T11:55:12Z</time>
      </trkpt>
      <trkpt lat="45.01372" lon="5.87305">
        <ele>1280</ele>
        <time>2017-10-14T11:55:15Z</time>
      </trkpt>
      <trkpt lat="45.01375" lon="5.87305">
        <ele>1280</ele>
        <time>2017-10-14T11:55:18Z</time>
      </trkpt>
      <trkpt lat="45.01379" lon="5.87304">
        <ele>1280</ele>
        <time>2017-10-14T11:55:21Z</time>
      </trkpt>
      <trkpt lat="45.01382" lon="5.87304">
        <ele>1280</ele>
        <time>2017-10-14T11:55:24Z</time>
      </trkpt>
      <trkpt lat="45.01386" lon="5.87304">
        <ele>1280</ele>
        <time>2017-10-14T11:55:27Z</time>
      </trkpt>
      <trkpt lat="45.01389" lon="5.87305">
        <ele>1279</ele>
        <time>2017-10-14T11:55:31Z</time>
      </trkpt>
      <trkpt lat="45.01398" lon="5.873">
        <ele>1280</ele>
        <time>2017-10-14T11:58:38Z</time>
      </trkpt>
      <trkpt lat="45.01419" lon="5.87295">
        <ele>1280</ele>
        <time>2017-10-14T11:58:56Z</time>
      </trkpt>
      <trkpt lat="45.01423" lon="5.87295">
        <ele>1280</ele>
        <time>2017-10-14T11:58:58Z</time>
      </trkpt>
      <trkpt lat="45.01452" lon="5.87293">
        <ele>1281</ele>
        <time>2017-10-14T11:59:16Z</time>
      </trkpt>
      <trkpt lat="45.01455" lon="5.87292">
        <ele>1281</ele>
        <time>2017-10-14T11:59:18Z</time>
      </trkpt>
      <trkpt lat="45.01458" lon="5.87291">
        <ele>1281</ele>
        <time>2017-10-14T11:59:20Z</time>
      </trkpt>
      <trkpt lat="45.01461" lon="5.8729">
        <ele>1281</ele>
        <time>2017-10-14T11:59:22Z</time>
      </trkpt>
      <trkpt lat="45.01506" lon="5.87269">
        <ele>1287</ele>
        <time>2017-10-14T11:59:53Z</time>
      </trkpt>
      <trkpt lat="45.01508" lon="5.87267">
        <ele>1288</ele>
        <time>2017-10-14T11:59:55Z</time>
      </trkpt>
      <trkpt lat="45.01532" lon="5.87255">
        <ele>1287</ele>
        <time>2017-10-14T12:00:13Z</time>
      </trkpt>
      <trkpt lat="45.01535" lon="5.87254">
        <ele>1287</ele>
        <time>2017-10-14T12:00:15Z</time>
      </trkpt>
      <trkpt lat="45.01541" lon="5.87249">
        <ele>1300</ele>
        <time>2017-10-14T12:00:19Z</time>
      </trkpt>
      <trkpt lat="45.01544" lon="5.87248">
        <ele>1300</ele>
        <time>2017-10-14T12:00:21Z</time>
      </trkpt>
      <trkpt lat="45.01548" lon="5.87246">
        <ele>1299</ele>
        <time>2017-10-14T12:00:23Z</time>
      </trkpt>
      <trkpt lat="45.01551" lon="5.87246">
        <ele>1299</ele>
        <time>2017-10-14T12:00:25Z</time>
      </trkpt>
      <trkpt lat="45.01554" lon="5.87245">
        <ele>1299</ele>
        <time>2017-10-14T12:00:27Z</time>
      </trkpt>
      <trkpt lat="45.0156" lon="5.87244">
        <ele>1298</ele>
        <time>2017-10-14T12:00:31Z</time>
      </trkpt>
      <trkpt lat="45.01564" lon="5.87243">
        <ele>1298</ele>
        <time>2017-10-14T12:00:33Z</time>
      </trkpt>
      <trkpt lat="45.0157" lon="5.87242">
        <ele>1297</ele>
        <time>2017-10-14T12:00:37Z</time>
      </trkpt>
      <trkpt lat="45.01573" lon="5.87242">
        <ele>1296</ele>
        <time>2017-10-14T12:00:39Z</time>
      </trkpt>
      <trkpt lat="45.01601" lon="5.87241">
        <ele>1296</ele>
        <time>2017-10-14T12:00:57Z</time>
      </trkpt>
      <trkpt lat="45.01605" lon="5.87241">
        <ele>1296</ele>
        <time>2017-10-14T12:00:59Z</time>
      </trkpt>
      <trkpt lat="45.01622" lon="5.87239">
        <ele>1297</ele>
        <time>2017-10-14T12:01:09Z</time>
      </trkpt>
      <trkpt lat="45.01625" lon="5.87239">
        <ele>1297</ele>
        <time>2017-10-14T12:01:11Z</time>
      </trkpt>
      <trkpt lat="45.01649" lon="5.87225">
        <ele>1298</ele>
        <time>2017-10-14T12:01:27Z</time>
      </trkpt>
      <trkpt lat="45.01651" lon="5.87223">
        <ele>1298</ele>
        <time>2017-10-14T12:01:29Z</time>
      </trkpt>
      <trkpt lat="45.0166" lon="5.87217">
        <ele>1298</ele>
        <time>2017-10-14T12:01:36Z</time>
      </trkpt>
      <trkpt lat="45.01663" lon="5.87213">
        <ele>1298</ele>
        <time>2017-10-14T12:01:39Z</time>
      </trkpt>
      <trkpt lat="45.01667" lon="5.87208">
        <ele>1301</ele>
        <time>2017-10-14T12:01:43Z</time>
      </trkpt>
      <trkpt lat="45.01669" lon="5.87205">
        <ele>1301</ele>
        <time>2017-10-14T12:01:45Z</time>
      </trkpt>
      <trkpt lat="45.01672" lon="5.87201">
        <ele>1302</ele>
        <time>2017-10-14T12:01:47Z</time>
      </trkpt>
      <trkpt lat="45.01679" lon="5.87191">
        <ele>1302</ele>
        <time>2017-10-14T12:01:53Z</time>
      </trkpt>
      <trkpt lat="45.01682" lon="5.87188">
        <ele>1302</ele>
        <time>2017-10-14T12:01:55Z</time>
      </trkpt>
      <trkpt lat="45.0169" lon="5.8718">
        <ele>1303</ele>
        <time>2017-10-14T12:02:01Z</time>
      </trkpt>
      <trkpt lat="45.01692" lon="5.87177">
        <ele>1303</ele>
        <time>2017-10-14T12:02:03Z</time>
      </trkpt>
      <trkpt lat="45.01711" lon="5.87153">
        <ele>1307</ele>
        <time>2017-10-14T12:02:19Z</time>
      </trkpt>
      <trkpt lat="45.01745" lon="5.8711">
        <ele>1308</ele>
        <time>2017-10-14T12:02:43Z</time>
      </trkpt>
      <trkpt lat="45.01748" lon="5.87106">
        <ele>1308</ele>
        <time>2017-10-14T12:02:45Z</time>
      </trkpt>
      <trkpt lat="45.01792" lon="5.87088">
        <ele>1314</ele>
        <time>2017-10-14T12:03:09Z</time>
      </trkpt>
      <trkpt lat="45.01797" lon="5.87089">
        <ele>1314</ele>
        <time>2017-10-14T12:03:11Z</time>
      </trkpt>
      <trkpt lat="45.01801" lon="5.87089">
        <ele>1315</ele>
        <time>2017-10-14T12:03:13Z</time>
      </trkpt>
      <trkpt lat="45.01811" lon="5.87089">
        <ele>1316</ele>
        <time>2017-10-14T12:03:19Z</time>
      </trkpt>
      <trkpt lat="45.01815" lon="5.87089">
        <ele>1316</ele>
        <time>2017-10-14T12:03:21Z</time>
      </trkpt>
      <trkpt lat="45.01879" lon="5.87087">
        <ele>1330</ele>
        <time>2017-10-14T12:03:55Z</time>
      </trkpt>
      <trkpt lat="45.01883" lon="5.87086">
        <ele>1331</ele>
        <time>2017-10-14T12:03:57Z</time>
      </trkpt>
      <trkpt lat="45.0192" lon="5.87039">
        <ele>1343</ele>
        <time>2017-10-14T12:04:44Z</time>
      </trkpt>
      <trkpt lat="45.01921" lon="5.87035">
        <ele>1342</ele>
        <time>2017-10-14T12:04:46Z</time>
      </trkpt>
      <trkpt lat="45.01928" lon="5.87015">
        <ele>1339</ele>
        <time>2017-10-14T12:04:57Z</time>
      </trkpt>
      <trkpt lat="45.0193" lon="5.87011">
        <ele>1339</ele>
        <time>2017-10-14T12:04:59Z</time>
      </trkpt>
      <trkpt lat="45.01949" lon="5.86956">
        <ele>1339</ele>
        <time>2017-10-14T12:05:25Z</time>
      </trkpt>
      <trkpt lat="45.0195" lon="5.86952">
        <ele>1339</ele>
        <time>2017-10-14T12:05:27Z</time>
      </trkpt>
      <trkpt lat="45.01952" lon="5.86936">
        <ele>1339</ele>
        <time>2017-10-14T12:05:33Z</time>
      </trkpt>
      <trkpt lat="45.01952" lon="5.8693">
        <ele>1339</ele>
        <time>2017-10-14T12:05:35Z</time>
      </trkpt>
      <trkpt lat="45.01953" lon="5.86915">
        <ele>1336</ele>
        <time>2017-10-14T12:05:41Z</time>
      </trkpt>
      <trkpt lat="45.01954" lon="5.8691">
        <ele>1336</ele>
        <time>2017-10-14T12:05:43Z</time>
      </trkpt>
      <trkpt lat="45.01959" lon="5.86887">
        <ele>1337</ele>
        <time>2017-10-14T12:05:53Z</time>
      </trkpt>
      <trkpt lat="45.01961" lon="5.86882">
        <ele>1337</ele>
        <time>2017-10-14T12:05:55Z</time>
      </trkpt>
      <trkpt lat="45.01964" lon="5.86873">
        <ele>1338</ele>
        <time>2017-10-14T12:05:59Z</time>
      </trkpt>
      <trkpt lat="45.01965" lon="5.86867">
        <ele>1338</ele>
        <time>2017-10-14T12:06:01Z</time>
      </trkpt>
      <trkpt lat="45.01998" lon="5.86729">
        <ele>1344</ele>
        <time>2017-10-14T12:07:00Z</time>
      </trkpt>
      <trkpt lat="45.02002" lon="5.86716">
        <ele>1350</ele>
        <time>2017-10-14T12:07:06Z</time>
      </trkpt>
      <trkpt lat="45.02004" lon="5.86711">
        <ele>1350</ele>
        <time>2017-10-14T12:07:08Z</time>
      </trkpt>
      <trkpt lat="45.02016" lon="5.86677">
        <ele>1349</ele>
        <time>2017-10-14T12:07:22Z</time>
      </trkpt>
      <trkpt lat="45.02018" lon="5.86673">
        <ele>1350</ele>
        <time>2017-10-14T12:07:24Z</time>
      </trkpt>
      <trkpt lat="45.02027" lon="5.86663">
        <ele>1351</ele>
        <time>2017-10-14T12:07:30Z</time>
      </trkpt>
      <trkpt lat="45.0203" lon="5.86659">
        <ele>1351</ele>
        <time>2017-10-14T12:07:32Z</time>
      </trkpt>
      <trkpt lat="45.02043" lon="5.86638">
        <ele>1353</ele>
        <time>2017-10-14T12:07:46Z</time>
      </trkpt>
      <trkpt lat="45.02045" lon="5.86634">
        <ele>1353</ele>
        <time>2017-10-14T12:07:48Z</time>
      </trkpt>
      <trkpt lat="45.02047" lon="5.8663">
        <ele>1353</ele>
        <time>2017-10-14T12:07:50Z</time>
      </trkpt>
      <trkpt lat="45.02049" lon="5.86627">
        <ele>1353</ele>
        <time>2017-10-14T12:07:52Z</time>
      </trkpt>
      <trkpt lat="45.02121" lon="5.86523">
        <ele>1365</ele>
        <time>2017-10-14T12:08:48Z</time>
      </trkpt>
      <trkpt lat="45.02128" lon="5.86516">
        <ele>1365</ele>
        <time>2017-10-14T12:08:52Z</time>
      </trkpt>
      <trkpt lat="45.02131" lon="5.86513">
        <ele>1365</ele>
        <time>2017-10-14T12:08:54Z</time>
      </trkpt>
      <trkpt lat="45.02151" lon="5.86493">
        <ele>1366</ele>
        <time>2017-10-14T12:09:06Z</time>
      </trkpt>
      <trkpt lat="45.02155" lon="5.8649">
        <ele>1366</ele>
        <time>2017-10-14T12:09:08Z</time>
      </trkpt>
      <trkpt lat="45.02167" lon="5.86481">
        <ele>1369</ele>
        <time>2017-10-14T12:09:14Z</time>
      </trkpt>
      <trkpt lat="45.02171" lon="5.86478">
        <ele>1369</ele>
        <time>2017-10-14T12:09:16Z</time>
      </trkpt>
      <trkpt lat="45.02211" lon="5.86454">
        <ele>1371</ele>
        <time>2017-10-14T12:09:34Z</time>
      </trkpt>
      <trkpt lat="45.02214" lon="5.86453">
        <ele>1371</ele>
        <time>2017-10-14T12:09:35Z</time>
      </trkpt>
      <trkpt lat="45.023" lon="5.86392">
        <ele>1373</ele>
        <time>2017-10-14T12:10:14Z</time>
      </trkpt>
      <trkpt lat="45.02304" lon="5.86387">
        <ele>1373</ele>
        <time>2017-10-14T12:10:16Z</time>
      </trkpt>
      <trkpt lat="45.02316" lon="5.86373">
        <ele>1373</ele>
        <time>2017-10-14T12:10:22Z</time>
      </trkpt>
      <trkpt lat="45.02319" lon="5.86369">
        <ele>1373</ele>
        <time>2017-10-14T12:10:24Z</time>
      </trkpt>
      <trkpt lat="45.02364" lon="5.86298">
        <ele>1375</ele>
      </trkpt>
      <trkpt lat="45.02422" lon="5.86215">
        <ele>1375</ele>
      </trkpt>
      <trkpt lat="45.0247" lon="5.86129">
        <ele>1373</ele>
      </trkpt>
      <trkpt lat="45.02492" lon="5.86085">
        <ele>1370</ele>
      </trkpt>
      <trkpt lat="45.02523" lon="5.86016">
        <ele>1368</ele>
      </trkpt>
      <trkpt lat="45.02562" lon="5.85954">
        <ele>1369</ele>
      </trkpt>
      <trkpt lat="45.02621" lon="5.85892">
        <ele>1366</ele>
      </trkpt>
      <trkpt lat="45.02669" lon="5.85842">
        <ele>1364</ele>
      </trkpt>
      <trkpt lat="45.02697" lon="5.85811">
        <ele>1362</ele>
      </trkpt>
      <trkpt lat="45.02687" lon="5.85763">
        <ele>1362</ele>
      </trkpt>
      <trkpt lat="45.02692" lon="5.85691">
        <ele>1361</ele>
      </trkpt>
      <trkpt lat="45.02702" lon="5.85616">
        <ele>1362</ele>
      </trkpt>
      <trkpt lat="45.02702" lon="5.85548">
        <ele>1365</ele>
      </trkpt>
      <trkpt lat="45.02708" lon="5.85471">
        <ele>1371</ele>
      </trkpt>
      <trkpt lat="45.02732" lon="5.85417">
        <ele>1368</ele>
      </trkpt>
      <trkpt lat="45.02759" lon="5.85345">
        <ele>1369</ele>
      </trkpt>
      <trkpt lat="45.02777" lon="5.85282">
        <ele>1371</ele>
      </trkpt>
      <trkpt lat="45.02774" lon="5.85247">
        <ele>1376</ele>
      </trkpt>
      <trkpt lat="45.02772" lon="5.85191">
        <ele>1377</ele>
      </trkpt>
      <trkpt lat="45.02781" lon="5.85128">
        <ele>1381</ele>
      </trkpt>
      <trkpt lat="45.02797" lon="5.85068">
        <ele>1385</ele>
      </trkpt>
      <trkpt lat="45.02827" lon="5.85017">
        <ele>1386</ele>
      </trkpt>
      <trkpt lat="45.02845" lon="5.84969">
        <ele>1384</ele>
      </trkpt>
      <trkpt lat="45.02851" lon="5.84934">
        <ele>1385</ele>
      </trkpt>
      <trkpt lat="45.02863" lon="5.84899">
        <ele>1387</ele>
      </trkpt>
      <trkpt lat="45.0285" lon="5.84856">
        <ele>1388</ele>
      </trkpt>
      <trkpt lat="45.02834" lon="5.84822">
        <ele>1391</ele>
      </trkpt>
      <trkpt lat="45.02806" lon="5.84798">
        <ele>1393</ele>
      </trkpt>
      <trkpt lat="45.02784" lon="5.84787">
        <ele>1393</ele>
      </trkpt>
      <trkpt lat="45.02756" lon="5.84724">
        <ele>1397</ele>
      </trkpt>
      <trkpt lat="45.02737" lon="5.847">
        <ele>1399</ele>
      </trkpt>
      <trkpt lat="45.02715" lon="5.84705">
        <ele>1400</ele>
      </trkpt>
      <trkpt lat="45.02693" lon="5.84724">
        <ele>1402</ele>
      </trkpt>
      <trkpt lat="45.027" lon="5.84809">
        <ele>1405</ele>
      </trkpt>
      <trkpt lat="45.02687" lon="5.84787">
        <ele>1406</ele>
      </trkpt>
      <trkpt lat="45.02673" lon="5.84741">
        <ele>1406</ele>
      </trkpt>
      <trkpt lat="45.02662" lon="5.84701">
        <ele>1418</ele>
      </trkpt>
      <trkpt lat="45.02639" lon="5.8466">
        <ele>1414</ele>
      </trkpt>
      <trkpt lat="45.02619" lon="5.84619">
        <ele>1418</ele>
      </trkpt>
      <trkpt lat="45.02595" lon="5.84573">
        <ele>1417</ele>
      </trkpt>
      <trkpt lat="45.02572" lon="5.84525">
        <ele>1426</ele>
      </trkpt>
      <trkpt lat="45.02544" lon="5.8448">
        <ele>1416</ele>
      </trkpt>
      <trkpt lat="45.02521" lon="5.84462">
        <ele>1417</ele>
      </trkpt>
      <trkpt lat="45.02485" lon="5.84453">
        <ele>1423</ele>
      </trkpt>
      <trkpt lat="45.0246" lon="5.84471">
        <ele>1426</ele>
      </trkpt>
      <trkpt lat="45.02485" lon="5.84484">
        <ele>1429</ele>
      </trkpt>
      <trkpt lat="45.02512" lon="5.84492">
        <ele>1425</ele>
      </trkpt>
      <trkpt lat="45.02532" lon="5.84537">
        <ele>1434</ele>
      </trkpt>
      <trkpt lat="45.02548" lon="5.84592">
        <ele>1446</ele>
      </trkpt>
      <trkpt lat="45.02548" lon="5.84649">
        <ele>1452</ele>
      </trkpt>
      <trkpt lat="45.02544" lon="5.84707">
        <ele>1460</ele>
      </trkpt>
      <trkpt lat="45.02542" lon="5.8475">
        <ele>1465</ele>
      </trkpt>
      <trkpt lat="45.02544" lon="5.84809">
        <ele>1468</ele>
      </trkpt>
      <trkpt lat="45.02542" lon="5.84861">
        <ele>1475</ele>
      </trkpt>
      <trkpt lat="45.02537" lon="5.84914">
        <ele>1478</ele>
      </trkpt>
      <trkpt lat="45.02519" lon="5.84971">
        <ele>1479</ele>
      </trkpt>
      <trkpt lat="45.02503" lon="5.85031">
        <ele>1477</ele>
      </trkpt>
      <trkpt lat="45.02488" lon="5.85084">
        <ele>1487</ele>
      </trkpt>
      <trkpt lat="45.0247" lon="5.85128">
        <ele>1492</ele>
      </trkpt>
      <trkpt lat="45.02437" lon="5.85178">
        <ele>1494</ele>
      </trkpt>
      <trkpt lat="45.02403" lon="5.85223">
        <ele>1512</ele>
      </trkpt>
      <trkpt lat="45.02364" lon="5.85278">
        <ele>1515</ele>
      </trkpt>
      <trkpt lat="45.02352" lon="5.85295">
        <ele>1516</ele>
      </trkpt>
      <trkpt lat="45.02326" lon="5.85337">
        <ele>1526</ele>
      </trkpt>
      <trkpt lat="45.02307" lon="5.85368">
        <ele>1530</ele>
      </trkpt>
      <trkpt lat="45.0228" lon="5.85391">
        <ele>1533</ele>
      </trkpt>
      <trkpt lat="45.02238" lon="5.85412">
        <ele>1543</ele>
      </trkpt>
      <trkpt lat="45.02186" lon="5.85423">
        <ele>1541</ele>
      </trkpt>
      <trkpt lat="45.02153" lon="5.85422">
        <ele>1545</ele>
      </trkpt>
      <trkpt lat="45.0212" lon="5.85413">
        <ele>1557</ele>
      </trkpt>
      <trkpt lat="45.02095" lon="5.854">
        <ele>1558</ele>
      </trkpt>
      <trkpt lat="45.02068" lon="5.85391">
        <ele>1560</ele>
      </trkpt>
      <trkpt lat="45.02045" lon="5.8539">
        <ele>1561</ele>
      </trkpt>
      <trkpt lat="45.02009" lon="5.85396">
        <ele>1558</ele>
      </trkpt>
      <trkpt lat="45.01981" lon="5.85385">
        <ele>1563</ele>
      </trkpt>
      <trkpt lat="45.0194" lon="5.85381">
        <ele>1567</ele>
      </trkpt>
      <trkpt lat="45.01921" lon="5.85383">
        <ele>1567</ele>
      </trkpt>
      <trkpt lat="45.01908" lon="5.85355">
        <ele>1579</ele>
      </trkpt>
      <trkpt lat="45.01883" lon="5.85363">
        <ele>1580</ele>
      </trkpt>
      <trkpt lat="45.01883" lon="5.85328">
        <ele>1592</ele>
      </trkpt>
      <trkpt lat="45.01907" lon="5.85315">
        <ele>1590</ele>
        <time>2017-10-14T13:21:46Z</time>
      </trkpt>
      <trkpt lat="45.01962" lon="5.85296">
        <ele>1589</ele>
        <time>2017-10-14T13:21:59Z</time>
      </trkpt>
      <trkpt lat="45.01965" lon="5.85293">
        <ele>1589</ele>
        <time>2017-10-14T13:22:00Z</time>
      </trkpt>
      <trkpt lat="45.01968" lon="5.8529">
        <ele>1590</ele>
        <time>2017-10-14T13:22:01Z</time>
      </trkpt>
      <trkpt lat="45.01971" lon="5.85287">
        <ele>1590</ele>
        <time>2017-10-14T13:22:03Z</time>
      </trkpt>
      <trkpt lat="45.01974" lon="5.85284">
        <ele>1591</ele>
        <time>2017-10-14T13:22:05Z</time>
      </trkpt>
      <trkpt lat="45.02044" lon="5.85287">
        <ele>1587</ele>
        <time>2017-10-14T13:22:23Z</time>
      </trkpt>
      <trkpt lat="45.02047" lon="5.85289">
        <ele>1587</ele>
        <time>2017-10-14T13:22:24Z</time>
      </trkpt>
      <trkpt lat="45.02051" lon="5.85289">
        <ele>1587</ele>
        <time>2017-10-14T13:22:25Z</time>
      </trkpt>
      <trkpt lat="45.02054" lon="5.8529">
        <ele>1587</ele>
        <time>2017-10-14T13:22:26Z</time>
      </trkpt>
      <trkpt lat="45.0206" lon="5.85293">
        <ele>1586</ele>
        <time>2017-10-14T13:22:28Z</time>
      </trkpt>
      <trkpt lat="45.02066" lon="5.85295">
        <ele>1586</ele>
        <time>2017-10-14T13:22:30Z</time>
      </trkpt>
      <trkpt lat="45.0207" lon="5.85296">
        <ele>1586</ele>
        <time>2017-10-14T13:22:31Z</time>
      </trkpt>
      <trkpt lat="45.02073" lon="5.85297">
        <ele>1585</ele>
        <time>2017-10-14T13:22:32Z</time>
      </trkpt>
      <trkpt lat="45.02076" lon="5.85298">
        <ele>1585</ele>
        <time>2017-10-14T13:22:33Z</time>
      </trkpt>
      <trkpt lat="45.02079" lon="5.85298">
        <ele>1585</ele>
        <time>2017-10-14T13:22:34Z</time>
      </trkpt>
      <trkpt lat="45.021" lon="5.85298">
        <ele>1582</ele>
        <time>2017-10-14T13:22:40Z</time>
      </trkpt>
      <trkpt lat="45.02104" lon="5.85297">
        <ele>1582</ele>
        <time>2017-10-14T13:22:41Z</time>
      </trkpt>
      <trkpt lat="45.02112" lon="5.85295">
        <ele>1582</ele>
        <time>2017-10-14T13:22:43Z</time>
      </trkpt>
      <trkpt lat="45.02116" lon="5.85293">
        <ele>1582</ele>
        <time>2017-10-14T13:22:44Z</time>
      </trkpt>
      <trkpt lat="45.0212" lon="5.85291">
        <ele>1582</ele>
        <time>2017-10-14T13:22:45Z</time>
      </trkpt>
      <trkpt lat="45.02123" lon="5.85288">
        <ele>1582</ele>
        <time>2017-10-14T13:22:46Z</time>
      </trkpt>
      <trkpt lat="45.02127" lon="5.85284">
        <ele>1583</ele>
        <time>2017-10-14T13:22:47Z</time>
      </trkpt>
      <trkpt lat="45.0213" lon="5.85281">
        <ele>1583</ele>
        <time>2017-10-14T13:22:48Z</time>
      </trkpt>
      <trkpt lat="45.02133" lon="5.85278">
        <ele>1583</ele>
        <time>2017-10-14T13:22:49Z</time>
      </trkpt>
      <trkpt lat="45.02156" lon="5.85246">
        <ele>1590</ele>
        <time>2017-10-14T13:22:57Z</time>
      </trkpt>
      <trkpt lat="45.02158" lon="5.85242">
        <ele>1590</ele>
        <time>2017-10-14T13:22:58Z</time>
      </trkpt>
      <trkpt lat="45.02163" lon="5.85233">
        <ele>1592</ele>
        <time>2017-10-14T13:23:00Z</time>
      </trkpt>
      <trkpt lat="45.02165" lon="5.85227">
        <ele>1593</ele>
        <time>2017-10-14T13:23:01Z</time>
      </trkpt>
      <trkpt lat="45.02167" lon="5.85221">
        <ele>1582</ele>
        <time>2017-10-14T13:23:02Z</time>
      </trkpt>
      <trkpt lat="45.02172" lon="5.85207">
        <ele>1582</ele>
        <time>2017-10-14T13:23:05Z</time>
      </trkpt>
      <trkpt lat="45.02174" lon="5.85203">
        <ele>1583</ele>
        <time>2017-10-14T13:23:06Z</time>
      </trkpt>
      <trkpt lat="45.02207" lon="5.85121">
        <ele>1587</ele>
        <time>2017-10-14T13:23:20Z</time>
      </trkpt>
      <trkpt lat="45.02208" lon="5.85116">
        <ele>1587</ele>
        <time>2017-10-14T13:23:21Z</time>
      </trkpt>
      <trkpt lat="45.02211" lon="5.85111">
        <ele>1587</ele>
        <time>2017-10-14T13:23:22Z</time>
      </trkpt>
      <trkpt lat="45.02213" lon="5.85106">
        <ele>1587</ele>
        <time>2017-10-14T13:23:23Z</time>
      </trkpt>
      <trkpt lat="45.02221" lon="5.85089">
        <ele>1585</ele>
        <time>2017-10-14T13:23:26Z</time>
      </trkpt>
      <trkpt lat="45.02223" lon="5.85085">
        <ele>1585</ele>
        <time>2017-10-14T13:23:27Z</time>
      </trkpt>
      <trkpt lat="45.02227" lon="5.8511">
        <ele>1585</ele>
        <time>2017-10-14T13:23:38Z</time>
      </trkpt>
      <trkpt lat="45.02226" lon="5.85117">
        <ele>1585</ele>
        <time>2017-10-14T13:23:39Z</time>
      </trkpt>
      <trkpt lat="45.02225" lon="5.85123">
        <ele>1585</ele>
        <time>2017-10-14T13:23:40Z</time>
      </trkpt>
      <trkpt lat="45.02224" lon="5.85127">
        <ele>1585</ele>
        <time>2017-10-14T13:23:41Z</time>
      </trkpt>
      <trkpt lat="45.02224" lon="5.85133">
        <ele>1584</ele>
        <time>2017-10-14T13:23:43Z</time>
      </trkpt>
      <trkpt lat="45.02232" lon="5.85154">
        <ele>1581</ele>
        <time>2017-10-14T13:23:50Z</time>
      </trkpt>
      <trkpt lat="45.02234" lon="5.85165">
        <ele>1579</ele>
        <time>2017-10-14T13:23:51Z</time>
      </trkpt>
      <trkpt lat="45.02234" lon="5.85218">
        <ele>1574</ele>
        <time>2017-10-14T13:23:56Z</time>
      </trkpt>
      <trkpt lat="45.02232" lon="5.85228">
        <ele>1572</ele>
        <time>2017-10-14T13:23:57Z</time>
      </trkpt>
      <trkpt lat="45.02238" lon="5.85236">
        <ele>1569</ele>
        <time>2017-10-14T13:24:01Z</time>
      </trkpt>
      <trkpt lat="45.02241" lon="5.85241">
        <ele>1567</ele>
        <time>2017-10-14T13:24:02Z</time>
      </trkpt>
      <trkpt lat="45.02242" lon="5.85247">
        <ele>1565</ele>
        <time>2017-10-14T13:24:03Z</time>
      </trkpt>
      <trkpt lat="45.0224" lon="5.85273">
        <ele>1563</ele>
        <time>2017-10-14T13:24:07Z</time>
      </trkpt>
      <trkpt lat="45.0224" lon="5.85282">
        <ele>1562</ele>
        <time>2017-10-14T13:24:08Z</time>
      </trkpt>
      <trkpt lat="45.02238" lon="5.85292">
        <ele>1562</ele>
        <time>2017-10-14T13:24:10Z</time>
      </trkpt>
      <trkpt lat="45.02242" lon="5.85293">
        <ele>1561</ele>
        <time>2017-10-14T13:24:12Z</time>
      </trkpt>
      <trkpt lat="45.02244" lon="5.85289">
        <ele>1561</ele>
        <time>2017-10-14T13:24:13Z</time>
      </trkpt>
      <trkpt lat="45.02246" lon="5.85285">
        <ele>1562</ele>
        <time>2017-10-14T13:24:14Z</time>
      </trkpt>
      <trkpt lat="45.02273" lon="5.85283">
        <ele>1544</ele>
        <time>2017-10-14T13:24:20Z</time>
      </trkpt>
      <trkpt lat="45.02274" lon="5.85288">
        <ele>1543</ele>
        <time>2017-10-14T13:24:26Z</time>
      </trkpt>
      <trkpt lat="45.02272" lon="5.85296">
        <ele>1542</ele>
        <time>2017-10-14T13:24:28Z</time>
      </trkpt>
      <trkpt lat="45.0227" lon="5.85301">
        <ele>1543</ele>
        <time>2017-10-14T13:24:29Z</time>
      </trkpt>
      <trkpt lat="45.02263" lon="5.85324">
        <ele>1544</ele>
        <time>2017-10-14T13:24:34Z</time>
      </trkpt>
      <trkpt lat="45.02261" lon="5.85328">
        <ele>1544</ele>
        <time>2017-10-14T13:24:35Z</time>
      </trkpt>
      <trkpt lat="45.0226" lon="5.85343">
        <ele>1541</ele>
        <time>2017-10-14T13:24:40Z</time>
      </trkpt>
      <trkpt lat="45.02267" lon="5.85342">
        <ele>1539</ele>
        <time>2017-10-14T13:24:42Z</time>
      </trkpt>
      <trkpt lat="45.02276" lon="5.85343">
        <ele>1536</ele>
        <time>2017-10-14T13:24:45Z</time>
      </trkpt>
      <trkpt lat="45.02296" lon="5.85342">
        <ele>1532</ele>
        <time>2017-10-14T13:24:50Z</time>
      </trkpt>
      <trkpt lat="45.023" lon="5.85341">
        <ele>1532</ele>
        <time>2017-10-14T13:24:51Z</time>
      </trkpt>
      <trkpt lat="45.0231" lon="5.85328">
        <ele>1534</ele>
        <time>2017-10-14T13:24:55Z</time>
      </trkpt>
      <trkpt lat="45.02312" lon="5.85324">
        <ele>1534</ele>
        <time>2017-10-14T13:24:56Z</time>
      </trkpt>
      <trkpt lat="45.02323" lon="5.8531">
        <ele>1533</ele>
        <time>2017-10-14T13:25:01Z</time>
      </trkpt>
      <trkpt lat="45.02328" lon="5.85312">
        <ele>1532</ele>
        <time>2017-10-14T13:25:02Z</time>
      </trkpt>
      <trkpt lat="45.02369" lon="5.85313">
        <ele>1514</ele>
        <time>2017-10-14T13:25:07Z</time>
      </trkpt>
      <trkpt lat="45.02373" lon="5.8531">
        <ele>1513</ele>
        <time>2017-10-14T13:25:08Z</time>
      </trkpt>
      <trkpt lat="45.02376" lon="5.85306">
        <ele>1513</ele>
        <time>2017-10-14T13:25:09Z</time>
      </trkpt>
      <trkpt lat="45.02378" lon="5.85302">
        <ele>1513</ele>
        <time>2017-10-14T13:25:10Z</time>
      </trkpt>
      <trkpt lat="45.02382" lon="5.85301">
        <ele>1512</ele>
        <time>2017-10-14T13:25:11Z</time>
      </trkpt>
      <trkpt lat="45.02385" lon="5.85304">
        <ele>1511</ele>
        <time>2017-10-14T13:25:13Z</time>
      </trkpt>
      <trkpt lat="45.02387" lon="5.85311">
        <ele>1511</ele>
        <time>2017-10-14T13:25:14Z</time>
      </trkpt>
      <trkpt lat="45.02411" lon="5.85269">
        <ele>1507</ele>
        <time>2017-10-14T13:25:25Z</time>
      </trkpt>
      <trkpt lat="45.02446" lon="5.85239">
        <ele>1491</ele>
        <time>2017-10-14T13:25:35Z</time>
      </trkpt>
      <trkpt lat="45.0245" lon="5.85232">
        <ele>1490</ele>
        <time>2017-10-14T13:25:36Z</time>
      </trkpt>
      <trkpt lat="45.02459" lon="5.85218">
        <ele>1488</ele>
        <time>2017-10-14T13:25:38Z</time>
      </trkpt>
      <trkpt lat="45.02464" lon="5.85214">
        <ele>1488</ele>
        <time>2017-10-14T13:25:39Z</time>
      </trkpt>
      <trkpt lat="45.02472" lon="5.85212">
        <ele>1486</ele>
        <time>2017-10-14T13:25:40Z</time>
      </trkpt>
      <trkpt lat="45.02475" lon="5.85204">
        <ele>1486</ele>
        <time>2017-10-14T13:25:42Z</time>
      </trkpt>
      <trkpt lat="45.02487" lon="5.8515">
        <ele>1487</ele>
        <time>2017-10-14T13:25:52Z</time>
      </trkpt>
      <trkpt lat="45.02526" lon="5.85152">
        <ele>1470</ele>
        <time>2017-10-14T13:26:04Z</time>
      </trkpt>
      <trkpt lat="45.02527" lon="5.85156">
        <ele>1469</ele>
        <time>2017-10-14T13:26:05Z</time>
      </trkpt>
      <trkpt lat="45.02541" lon="5.85147">
        <ele>1466</ele>
        <time>2017-10-14T13:26:08Z</time>
      </trkpt>
      <trkpt lat="45.02545" lon="5.85145">
        <ele>1466</ele>
        <time>2017-10-14T13:26:09Z</time>
      </trkpt>
      <trkpt lat="45.02549" lon="5.85138">
        <ele>1465</ele>
        <time>2017-10-14T13:26:10Z</time>
      </trkpt>
      <trkpt lat="45.02553" lon="5.85131">
        <ele>1465</ele>
        <time>2017-10-14T13:26:11Z</time>
      </trkpt>
      <trkpt lat="45.02575" lon="5.85083">
        <ele>1459</ele>
        <time>2017-10-14T13:26:18Z</time>
      </trkpt>
      <trkpt lat="45.02598" lon="5.85082">
        <ele>1448</ele>
        <time>2017-10-14T13:26:23Z</time>
      </trkpt>
      <trkpt lat="45.02608" lon="5.85139">
        <ele>1442</ele>
        <time>2017-10-14T13:26:28Z</time>
      </trkpt>
      <trkpt lat="45.02612" lon="5.8515">
        <ele>1442</ele>
        <time>2017-10-14T13:26:29Z</time>
      </trkpt>
      <trkpt lat="45.02616" lon="5.8516">
        <ele>1441</ele>
        <time>2017-10-14T13:26:30Z</time>
      </trkpt>
      <trkpt lat="45.02616" lon="5.85212">
        <ele>1438</ele>
        <time>2017-10-14T13:26:36Z</time>
      </trkpt>
      <trkpt lat="45.02618" lon="5.85218">
        <ele>1438</ele>
        <time>2017-10-14T13:26:37Z</time>
      </trkpt>
      <trkpt lat="45.02619" lon="5.85223">
        <ele>1437</ele>
        <time>2017-10-14T13:26:38Z</time>
      </trkpt>
      <trkpt lat="45.02625" lon="5.85265">
        <ele>1430</ele>
        <time>2017-10-14T13:26:44Z</time>
      </trkpt>
      <trkpt lat="45.02628" lon="5.85263">
        <ele>1430</ele>
        <time>2017-10-14T13:26:45Z</time>
      </trkpt>
      <trkpt lat="45.02631" lon="5.85261">
        <ele>1429</ele>
        <time>2017-10-14T13:26:46Z</time>
      </trkpt>
      <trkpt lat="45.02644" lon="5.85295">
        <ele>1426</ele>
        <time>2017-10-14T13:26:52Z</time>
      </trkpt>
      <trkpt lat="45.02644" lon="5.85301">
        <ele>1425</ele>
        <time>2017-10-14T13:26:53Z</time>
      </trkpt>
      <trkpt lat="45.02669" lon="5.85289">
        <ele>1403</ele>
        <time>2017-10-14T13:27:02Z</time>
      </trkpt>
      <trkpt lat="45.02669" lon="5.85282">
        <ele>1404</ele>
        <time>2017-10-14T13:27:03Z</time>
      </trkpt>
      <trkpt lat="45.02667" lon="5.85277">
        <ele>1405</ele>
        <time>2017-10-14T13:27:04Z</time>
      </trkpt>
      <trkpt lat="45.02676" lon="5.85246">
        <ele>1414</ele>
        <time>2017-10-14T13:27:07Z</time>
      </trkpt>
      <trkpt lat="45.0268" lon="5.85234">
        <ele>1411</ele>
        <time>2017-10-14T13:27:08Z</time>
      </trkpt>
      <trkpt lat="45.02681" lon="5.85225">
        <ele>1409</ele>
        <time>2017-10-14T13:27:09Z</time>
      </trkpt>
      <trkpt lat="45.02686" lon="5.85218">
        <ele>1408</ele>
        <time>2017-10-14T13:27:10Z</time>
      </trkpt>
      <trkpt lat="45.02696" lon="5.85217">
        <ele>1405</ele>
        <time>2017-10-14T13:27:12Z</time>
      </trkpt>
      <trkpt lat="45.02699" lon="5.85215">
        <ele>1405</ele>
        <time>2017-10-14T13:27:13Z</time>
      </trkpt>
      <trkpt lat="45.02706" lon="5.85207">
        <ele>1403</ele>
        <time>2017-10-14T13:27:15Z</time>
      </trkpt>
      <trkpt lat="45.02711" lon="5.85202">
        <ele>1402</ele>
        <time>2017-10-14T13:27:16Z</time>
      </trkpt>
      <trkpt lat="45.02714" lon="5.85196">
        <ele>1402</ele>
        <time>2017-10-14T13:27:17Z</time>
      </trkpt>
      <trkpt lat="45.02721" lon="5.85216">
        <ele>1399</ele>
        <time>2017-10-14T13:27:24Z</time>
      </trkpt>
      <trkpt lat="45.02722" lon="5.85222">
        <ele>1399</ele>
        <time>2017-10-14T13:27:25Z</time>
      </trkpt>
      <trkpt lat="45.02726" lon="5.85247">
        <ele>1395</ele>
        <time>2017-10-14T13:27:29Z</time>
      </trkpt>
      <trkpt lat="45.02727" lon="5.85253">
        <ele>1391</ele>
        <time>2017-10-14T13:27:30Z</time>
      </trkpt>
      <trkpt lat="45.02735" lon="5.85293">
        <ele>1391</ele>
        <time>2017-10-14T13:27:35Z</time>
      </trkpt>
      <trkpt lat="45.02738" lon="5.85299">
        <ele>1390</ele>
        <time>2017-10-14T13:27:37Z</time>
      </trkpt>
      <trkpt lat="45.02754" lon="5.85299">
        <ele>1372</ele>
        <time>2017-10-14T13:27:42Z</time>
      </trkpt>
      <trkpt lat="45.02759" lon="5.85299">
        <ele>1372</ele>
        <time>2017-10-14T13:27:43Z</time>
      </trkpt>
      <trkpt lat="45.02772" lon="5.85298">
        <ele>1371</ele>
        <time>2017-10-14T13:27:58Z</time>
      </trkpt>
      <trkpt lat="45.02778" lon="5.85305">
        <ele>1370</ele>
        <time>2017-10-14T13:28:04Z</time>
      </trkpt>
      <trkpt lat="45.02777" lon="5.85309">
        <ele>1370</ele>
        <time>2017-10-14T13:35:25Z</time>
      </trkpt>
      <trkpt lat="45.0277" lon="5.85321">
        <ele>1371</ele>
        <time>2017-10-14T13:35:30Z</time>
      </trkpt>
      <trkpt lat="45.02767" lon="5.85325">
        <ele>1372</ele>
        <time>2017-10-14T13:35:31Z</time>
      </trkpt>
      <trkpt lat="45.02765" lon="5.85331">
        <ele>1372</ele>
        <time>2017-10-14T13:35:32Z</time>
      </trkpt>
      <trkpt lat="45.02762" lon="5.85337">
        <ele>1369</ele>
        <time>2017-10-14T13:35:33Z</time>
      </trkpt>
      <trkpt lat="45.02756" lon="5.85352">
        <ele>1368</ele>
        <time>2017-10-14T13:35:35Z</time>
      </trkpt>
      <trkpt lat="45.02753" lon="5.8536">
        <ele>1366</ele>
        <time>2017-10-14T13:35:36Z</time>
      </trkpt>
      <trkpt lat="45.02747" lon="5.85376">
        <ele>1378</ele>
        <time>2017-10-14T13:35:38Z</time>
      </trkpt>
      <trkpt lat="45.02744" lon="5.85385">
        <ele>1377</ele>
        <time>2017-10-14T13:35:39Z</time>
      </trkpt>
      <trkpt lat="45.02742" lon="5.85393">
        <ele>1375</ele>
        <time>2017-10-14T13:35:40Z</time>
      </trkpt>
      <trkpt lat="45.02732" lon="5.85417">
        <ele>1368</ele>
        <time>2017-10-14T13:35:43Z</time>
      </trkpt>
      <trkpt lat="45.02708" lon="5.85471">
        <ele>1371</ele>
        <time>2017-10-14T13:35:50Z</time>
      </trkpt>
      <trkpt lat="45.02706" lon="5.85479">
        <ele>1371</ele>
        <time>2017-10-14T13:35:51Z</time>
      </trkpt>
      <trkpt lat="45.02702" lon="5.85494">
        <ele>1371</ele>
        <time>2017-10-14T13:35:53Z</time>
      </trkpt>
      <trkpt lat="45.02702" lon="5.85502">
        <ele>1366</ele>
        <time>2017-10-14T13:35:54Z</time>
      </trkpt>
      <trkpt lat="45.02701" lon="5.85534">
        <ele>1365</ele>
        <time>2017-10-14T13:35:58Z</time>
      </trkpt>
      <trkpt lat="45.02702" lon="5.85548">
        <ele>1365</ele>
        <time>2017-10-14T13:36:00Z</time>
      </trkpt>
      <trkpt lat="45.02702" lon="5.85555">
        <ele>1364</ele>
        <time>2017-10-14T13:36:01Z</time>
      </trkpt>
      <trkpt lat="45.02703" lon="5.85592">
        <ele>1362</ele>
        <time>2017-10-14T13:36:07Z</time>
      </trkpt>
      <trkpt lat="45.02703" lon="5.85598">
        <ele>1362</ele>
        <time>2017-10-14T13:36:08Z</time>
      </trkpt>
      <trkpt lat="45.027" lon="5.85627">
        <ele>1362</ele>
        <time>2017-10-14T13:36:13Z</time>
      </trkpt>
      <trkpt lat="45.02699" lon="5.85634">
        <ele>1362</ele>
        <time>2017-10-14T13:36:14Z</time>
      </trkpt>
      <trkpt lat="45.02697" lon="5.85646">
        <ele>1362</ele>
        <time>2017-10-14T13:36:16Z</time>
      </trkpt>
      <trkpt lat="45.02696" lon="5.85653">
        <ele>1362</ele>
        <time>2017-10-14T13:36:17Z</time>
      </trkpt>
      <trkpt lat="45.02693" lon="5.85674">
        <ele>1361</ele>
        <time>2017-10-14T13:36:21Z</time>
      </trkpt>
      <trkpt lat="45.02689" lon="5.85792">
        <ele>1362</ele>
      </trkpt>
      <trkpt lat="45.02708" lon="5.85813">
        <ele>1362</ele>
      </trkpt>
      <trkpt lat="45.0275" lon="5.85809">
        <ele>1359</ele>
      </trkpt>
      <trkpt lat="45.02791" lon="5.85788">
        <ele>1360</ele>
      </trkpt>
      <trkpt lat="45.0281" lon="5.85781">
        <ele>1360</ele>
      </trkpt>
    </trkseg>
  </trk>
</gpx>